<?xml version='1.0' encoding='UTF-8'?><gpx version="1.1" creator="JPX - https://github.com/jenetics/jpx" xmlns="http://www.topografix.com/GPX/1/1"><trk><trkseg><trkpt lat="43.443256053008035" lon="12.769811638680316"><ele>930.0</ele><time>2026-05-03T07:06:32.046Z</time></trkpt><trkpt lat="43.443308302974074" lon="12.769761432877601"><ele>930.0</ele><time>2026-05-03T07:06:42.046Z</time></trkpt><trkpt lat="43.44337901747768" lon="12.769736071197675"><ele>930.0</ele><time>2026-05-03T07:06:51.047Z</time></trkpt><trkpt lat="43.443453377051924" lon="12.769744692410082"><ele>930.0</ele><time>2026-05-03T07:06:58.05Z</time></trkpt><trkpt lat="43.44351875125877" lon="12.769714805639426"><ele>930.0</ele><time>2026-05-03T07:07:04.047Z</time></trkpt><trkpt lat="43.44357142909365" lon="12.769651366187864"><ele>930.0</ele><time>2026-05-03T07:07:13.048Z</time></trkpt><trkpt lat="43.44361061617993" lon="12.769570174032324"><ele>930.0</ele><time>2026-05-03T07:07:21.047Z</time></trkpt><trkpt lat="43.44364640125102" lon="12.76949403405187"><ele>930.0</ele><time>2026-05-03T07:07:27.047Z</time></trkpt><trkpt lat="43.443702146414985" lon="12.769432714715256"><ele>930.0</ele><time>2026-05-03T07:07:34.046Z</time></trkpt><trkpt lat="43.44373377777574" lon="12.769355322008535"><ele>930.0</ele><time>2026-05-03T07:07:40.049Z</time></trkpt><trkpt lat="43.443772578490055" lon="12.769284622289307"><ele>930.0</ele><time>2026-05-03T07:07:45.049Z</time></trkpt><trkpt lat="43.44383608530959" lon="12.769232722233697"><ele>930.0</ele><time>2026-05-03T07:07:50.052Z</time></trkpt><trkpt lat="43.443874162467026" lon="12.769157635367453"><ele>930.0</ele><time>2026-05-03T07:07:56.048Z</time></trkpt><trkpt lat="43.44391755449415" lon="12.769080683488315"><ele>930.0</ele><time>2026-05-03T07:08:03.056Z</time></trkpt><trkpt lat="43.44393436528423" lon="12.768986452777993"><ele>930.4285714285713</ele><time>2026-05-03T07:08:10.053Z</time></trkpt><trkpt lat="43.44397191196252" lon="12.768912510549896"><ele>930.8571428571429</ele><time>2026-05-03T07:08:17.048Z</time></trkpt><trkpt lat="43.44402229346937" lon="12.768853725395303"><ele>931.2857142857142</ele><time>2026-05-03T07:08:24.02Z</time></trkpt><trkpt lat="43.44403005011828" lon="12.76876072192531"><ele>931.7142857142857</ele><time>2026-05-03T07:08:30.013Z</time></trkpt><trkpt lat="43.44407000707141" lon="12.768683392151551"><ele>932.1428571428571</ele><time>2026-05-03T07:08:37.008Z</time></trkpt><trkpt lat="43.444105670528664" lon="12.768610269118021"><ele>932.5714285714286</ele><time>2026-05-03T07:08:44.004Z</time></trkpt><trkpt lat="43.44414761719331" lon="12.76854531070907"><ele>933.0</ele><time>2026-05-03T07:08:51.002Z</time></trkpt><trkpt lat="43.444191385629665" lon="12.76847083900629"><ele>933.0</ele><time>2026-05-03T07:08:58.001Z</time></trkpt><trkpt lat="43.444234829331705" lon="12.76839953291857"><ele>932.9999999999999</ele><time>2026-05-03T07:09:05Z</time></trkpt><trkpt lat="43.444280507923295" lon="12.76832025781822"><ele>933.0</ele><time>2026-05-03T07:09:12.999Z</time></trkpt><trkpt lat="43.44433024206088" lon="12.768248068333797"><ele>933.0</ele><time>2026-05-03T07:09:20.999Z</time></trkpt><trkpt lat="43.44437768781583" lon="12.768176103659068"><ele>932.9999999999999</ele><time>2026-05-03T07:09:27.998Z</time></trkpt><trkpt lat="43.44442807778318" lon="12.768100142663044"><ele>933.0</ele><time>2026-05-03T07:09:35.998Z</time></trkpt><trkpt lat="43.444472120457164" lon="12.768033908463273"><ele>933.0</ele><time>2026-05-03T07:09:42.998Z</time></trkpt><trkpt lat="43.44452206034777" lon="12.767966279177692"><ele>933.0</ele><time>2026-05-03T07:09:50.998Z</time></trkpt><trkpt lat="43.44457480605216" lon="12.767901462524502"><ele>932.9999999999999</ele><time>2026-05-03T07:09:57.997Z</time></trkpt><trkpt lat="43.444620837651925" lon="12.767834333062794"><ele>933.0</ele><time>2026-05-03T07:10:04.997Z</time></trkpt><trkpt lat="43.44467599838101" lon="12.767768295370063"><ele>933.0</ele><time>2026-05-03T07:10:12.997Z</time></trkpt><trkpt lat="43.44472748582141" lon="12.767709688209884"><ele>932.9999999999999</ele><time>2026-05-03T07:10:20.997Z</time></trkpt><trkpt lat="43.44477972773117" lon="12.76765252564769"><ele>933.0</ele><time>2026-05-03T07:10:27.999Z</time></trkpt><trkpt lat="43.444833828529916" lon="12.767597288834176"><ele>933.0</ele><time>2026-05-03T07:10:34.999Z</time></trkpt><trkpt lat="43.444877960106595" lon="12.767530506418767"><ele>934.0</ele><time>2026-05-03T07:10:41.999Z</time></trkpt><trkpt lat="43.44492858575517" lon="12.767469272595182"><ele>934.9999999999999</ele><time>2026-05-03T07:10:49.999Z</time></trkpt><trkpt lat="43.4449822192237" lon="12.767411946163614"><ele>936.0</ele><time>2026-05-03T07:10:57.999Z</time></trkpt><trkpt lat="43.445037860320106" lon="12.767353752719606"><ele>937.0</ele><time>2026-05-03T07:11:05.999Z</time></trkpt><trkpt lat="43.44509056061923" lon="12.76730045608369"><ele>937.9999999999999</ele><time>2026-05-03T07:11:13.999Z</time></trkpt><trkpt lat="43.44514203087759" lon="12.767249237524515"><ele>939.0</ele><time>2026-05-03T07:11:21.999Z</time></trkpt><trkpt lat="43.445197841207815" lon="12.767194726620092"><ele>940.0</ele><time>2026-05-03T07:11:30.999Z</time></trkpt><trkpt lat="43.44525343212616" lon="12.767142185217812"><ele>940.0</ele><time>2026-05-03T07:11:38.999Z</time></trkpt><trkpt lat="43.44530804436585" lon="12.76709056882616"><ele>939.9999999999999</ele><time>2026-05-03T07:11:45.999Z</time></trkpt><trkpt lat="43.445361979876594" lon="12.767039592034484"><ele>940.0</ele><time>2026-05-03T07:11:53.998Z</time></trkpt><trkpt lat="43.44541400203809" lon="12.766988611146013"><ele>940.0</ele><time>2026-05-03T07:12:01.998Z</time></trkpt><trkpt lat="43.44546825863896" lon="12.766934155722055"><ele>939.9999999999999</ele><time>2026-05-03T07:12:09.998Z</time></trkpt><trkpt lat="43.445523496674205" lon="12.76687547696164"><ele>940.0</ele><time>2026-05-03T07:12:17.998Z</time></trkpt><trkpt lat="43.44557639330453" lon="12.766814741978767"><ele>940.0</ele><time>2026-05-03T07:12:26.998Z</time></trkpt><trkpt lat="43.445625365032484" lon="12.766756923890753"><ele>941.2857142857142</ele><time>2026-05-03T07:12:35Z</time></trkpt><trkpt lat="43.44567312442595" lon="12.766698830204513"><ele>942.5714285714284</ele><time>2026-05-03T07:12:42Z</time></trkpt><trkpt lat="43.44574033762919" lon="12.766681671771488"><ele>943.8571428571429</ele><time>2026-05-03T07:12:48Z</time></trkpt><trkpt lat="43.44580514819914" lon="12.766644046367276"><ele>945.1428571428571</ele><time>2026-05-03T07:12:56Z</time></trkpt><trkpt lat="43.44586821828014" lon="12.766609212621185"><ele>946.4285714285714</ele><time>2026-05-03T07:13:05.999Z</time></trkpt><trkpt lat="43.44594297544492" lon="12.766552215641266"><ele>947.7142857142858</ele><time>2026-05-03T07:16:19.998Z</time></trkpt><trkpt lat="43.44600861088904" lon="12.766523176814907"><ele>949.0000000000001</ele><time>2026-05-03T07:16:29.998Z</time></trkpt><trkpt lat="43.44607556022502" lon="12.766490249997977"><ele>949.0000000000001</ele><time>2026-05-03T07:16:38.998Z</time></trkpt><trkpt lat="43.44614008379876" lon="12.766453805119966"><ele>949.0</ele><time>2026-05-03T07:16:47Z</time></trkpt><trkpt lat="43.446206807116255" lon="12.76642734043706"><ele>949.0000000000001</ele><time>2026-05-03T07:16:54Z</time></trkpt><trkpt lat="43.44627080480497" lon="12.766394684662854"><ele>949.0000000000001</ele><time>2026-05-03T07:17:01Z</time></trkpt><trkpt lat="43.446338892679734" lon="12.766367369304433"><ele>949.0</ele><time>2026-05-03T07:17:07Z</time></trkpt><trkpt lat="43.44640212773037" lon="12.766331916106399"><ele>949.0000000000001</ele><time>2026-05-03T07:17:13.999Z</time></trkpt><trkpt lat="43.4464694971408" lon="12.766296249215962"><ele>949.0000000000001</ele><time>2026-05-03T07:17:20.999Z</time></trkpt><trkpt lat="43.44653367861089" lon="12.766262868773484"><ele>950.857142857143</ele><time>2026-05-03T07:17:28.999Z</time></trkpt><trkpt lat="43.446603290042106" lon="12.766232587134182"><ele>952.7142857142858</ele><time>2026-05-03T07:17:36.999Z</time></trkpt><trkpt lat="43.446672792139786" lon="12.766212199205047"><ele>954.5714285714286</ele><time>2026-05-03T07:17:43.999Z</time></trkpt><trkpt lat="43.4467390719391" lon="12.766187119209874"><ele>956.4285714285714</ele><time>2026-05-03T07:17:50.999Z</time></trkpt><trkpt lat="43.44680089369542" lon="12.766168432508502"><ele>958.2857142857142</ele><time>2026-05-03T07:17:57.999Z</time></trkpt><trkpt lat="43.44686914354745" lon="12.766163083482004"><ele>960.142857142857</ele><time>2026-05-03T07:18:04.999Z</time></trkpt><trkpt lat="43.446941391683154" lon="12.766161346299324"><ele>961.9999999999999</ele><time>2026-05-03T07:18:11.999Z</time></trkpt><trkpt lat="43.447011348813334" lon="12.76615993829176"><ele>961.9999999999999</ele><time>2026-05-03T07:18:18.998Z</time></trkpt><trkpt lat="43.447078436143094" lon="12.766158829742437"><ele>962.0</ele><time>2026-05-03T07:18:25.998Z</time></trkpt><trkpt lat="43.44714830702765" lon="12.766155431613981"><ele>961.9999999999999</ele><time>2026-05-03T07:18:32.998Z</time></trkpt><trkpt lat="43.44721784764587" lon="12.766165174259429"><ele>961.9999999999999</ele><time>2026-05-03T07:18:39.998Z</time></trkpt><trkpt lat="43.447280684362646" lon="12.766174565927566"><ele>962.0</ele><time>2026-05-03T07:18:45.998Z</time></trkpt><trkpt lat="43.4473437962114" lon="12.766188851470524"><ele>961.9999999999999</ele><time>2026-05-03T07:18:51.999Z</time></trkpt><trkpt lat="43.447407173730355" lon="12.766207331895247"><ele>961.9999999999999</ele><time>2026-05-03T07:18:58Z</time></trkpt><trkpt lat="43.4474686463089" lon="12.766232671676986"><ele>962.4285714285713</ele><time>2026-05-03T07:19:04Z</time></trkpt><trkpt lat="43.44753907457708" lon="12.766259022450667"><ele>962.8571428571429</ele><time>2026-05-03T07:19:11Z</time></trkpt><trkpt lat="43.447609549574466" lon="12.766279828791534"><ele>963.2857142857142</ele><time>2026-05-03T07:19:17.999Z</time></trkpt><trkpt lat="43.44766751878789" lon="12.766319115982752"><ele>963.7142857142857</ele><time>2026-05-03T07:19:23.999Z</time></trkpt><trkpt lat="43.44772912786414" lon="12.766352836555832"><ele>964.1428571428571</ele><time>2026-05-03T07:19:30.999Z</time></trkpt><trkpt lat="43.447796313303385" lon="12.766389724677108"><ele>964.5714285714286</ele><time>2026-05-03T07:19:37.999Z</time></trkpt><trkpt lat="43.44786099440512" lon="12.766436473025337"><ele>965.0</ele><time>2026-05-03T07:19:44.999Z</time></trkpt><trkpt lat="43.447924125072326" lon="12.766484913991661"><ele>963.5714285714286</ele><time>2026-05-03T07:19:51.999Z</time></trkpt><trkpt lat="43.44798261181158" lon="12.76653851393743"><ele>962.1428571428571</ele><time>2026-05-03T07:19:57.999Z</time></trkpt><trkpt lat="43.448042354748765" lon="12.766589444481156"><ele>960.7142857142857</ele><time>2026-05-03T07:20:03.999Z</time></trkpt><trkpt lat="43.44809990204252" lon="12.766628592850244"><ele>959.2857142857142</ele><time>2026-05-03T07:20:09.999Z</time></trkpt><trkpt lat="43.44815519037667" lon="12.766680374669592"><ele>957.8571428571429</ele><time>2026-05-03T07:20:15.999Z</time></trkpt><trkpt lat="43.44821448479841" lon="12.76673482089541"><ele>956.4285714285713</ele><time>2026-05-03T07:20:22.999Z</time></trkpt><trkpt lat="43.44827217926132" lon="12.766781872684154"><ele>954.9999999999999</ele><time>2026-05-03T07:20:29.999Z</time></trkpt><trkpt lat="43.44833085124199" lon="12.766824551444339"><ele>957.2857142857142</ele><time>2026-05-03T07:20:36.998Z</time></trkpt><trkpt lat="43.448383799995725" lon="12.766880125352944"><ele>959.5714285714286</ele><time>2026-05-03T07:20:42.998Z</time></trkpt><trkpt lat="43.44843519011171" lon="12.766930514861068"><ele>961.8571428571429</ele><time>2026-05-03T07:20:49.998Z</time></trkpt><trkpt lat="43.448491859295856" lon="12.766978042756758"><ele>964.1428571428571</ele><time>2026-05-03T07:20:57Z</time></trkpt><trkpt lat="43.44854380389521" lon="12.767028967073747"><ele>966.4285714285716</ele><time>2026-05-03T07:21:04Z</time></trkpt><trkpt lat="43.44859622033095" lon="12.76709455104729"><ele>968.7142857142858</ele><time>2026-05-03T07:21:11Z</time></trkpt><trkpt lat="43.44864808122401" lon="12.767155798989071"><ele>971.0</ele><time>2026-05-03T07:21:18Z</time></trkpt><trkpt lat="43.44869841902776" lon="12.76720929898236"><ele>971.0</ele><time>2026-05-03T07:21:24Z</time></trkpt><trkpt lat="43.448749572103004" lon="12.767270780200505"><ele>971.0000000000001</ele><time>2026-05-03T07:21:31Z</time></trkpt><trkpt lat="43.44880013995328" lon="12.767322555627864"><ele>971.0</ele><time>2026-05-03T07:21:36.999Z</time></trkpt><trkpt lat="43.44885342250554" lon="12.767386315824703"><ele>971.0</ele><time>2026-05-03T07:21:43.999Z</time></trkpt><trkpt lat="43.44890381285574" lon="12.76744983732744"><ele>971.0000000000001</ele><time>2026-05-03T07:21:50.999Z</time></trkpt><trkpt lat="43.44895107737074" lon="12.767519233144602"><ele>971.0</ele><time>2026-05-03T07:21:58.999Z</time></trkpt><trkpt lat="43.449004227521996" lon="12.767579031731845"><ele>971.0</ele><time>2026-05-03T07:22:06.999Z</time></trkpt><trkpt lat="43.4490466292545" lon="12.76765533853738"><ele>971.7142857142858</ele><time>2026-05-03T07:22:14.999Z</time></trkpt><trkpt lat="43.44909951230549" lon="12.767704144237902"><ele>972.4285714285716</ele><time>2026-05-03T07:22:20.999Z</time></trkpt><trkpt lat="43.44915602833448" lon="12.767766087743675"><ele>973.1428571428571</ele><time>2026-05-03T07:22:28.999Z</time></trkpt><trkpt lat="43.44920411344133" lon="12.767838224735762"><ele>973.8571428571429</ele><time>2026-05-03T07:22:36.999Z</time></trkpt><trkpt lat="43.44924983897821" lon="12.76789813975113"><ele>974.5714285714286</ele><time>2026-05-03T07:22:44.999Z</time></trkpt><trkpt lat="43.44929721970834" lon="12.767968639590567"><ele>975.2857142857142</ele><time>2026-05-03T07:22:52.998Z</time></trkpt><trkpt lat="43.449338074553374" lon="12.768036011314589"><ele>975.9999999999999</ele><time>2026-05-03T07:23:01Z</time></trkpt><trkpt lat="43.4493889551127" lon="12.768109147626964"><ele>975.9999999999999</ele><time>2026-05-03T07:23:09Z</time></trkpt><trkpt lat="43.44943497060224" lon="12.768181262402743"><ele>976.0</ele><time>2026-05-03T07:23:18Z</time></trkpt><trkpt lat="43.449479025849726" lon="12.768253632680377"><ele>975.9999999999999</ele><time>2026-05-03T07:23:26Z</time></trkpt><trkpt lat="43.44952498043765" lon="12.768322519301922"><ele>975.9999999999999</ele><time>2026-05-03T07:23:34Z</time></trkpt><trkpt lat="43.44956538574317" lon="12.768397228621879"><ele>976.0</ele><time>2026-05-03T07:23:42Z</time></trkpt><trkpt lat="43.449612911268574" lon="12.768474836825813"><ele>975.9999999999999</ele><time>2026-05-03T07:23:50Z</time></trkpt><trkpt lat="43.44965041637537" lon="12.768545251827064"><ele>975.9999999999999</ele><time>2026-05-03T07:23:57.999Z</time></trkpt><trkpt lat="43.44968474734559" lon="12.76862817390115"><ele>975.2857142857142</ele><time>2026-05-03T07:24:06.999Z</time></trkpt><trkpt lat="43.44971451583809" lon="12.768704841235028"><ele>974.5714285714286</ele><time>2026-05-03T07:24:15.999Z</time></trkpt><trkpt lat="43.44975388892944" lon="12.768777053979482"><ele>973.8571428571429</ele><time>2026-05-03T07:24:23.999Z</time></trkpt><trkpt lat="43.44978141795563" lon="12.76885603100024"><ele>973.1428571428571</ele><time>2026-05-03T07:24:33.999Z</time></trkpt><trkpt lat="43.44979406167101" lon="12.768948470905062"><ele>972.4285714285716</ele><time>2026-05-03T07:24:41.999Z</time></trkpt><trkpt lat="43.449822228379695" lon="12.76903213357481"><ele>971.7142857142858</ele><time>2026-05-03T07:24:49.999Z</time></trkpt><trkpt lat="43.44984100487757" lon="12.769117005730795"><ele>971.0</ele><time>2026-05-03T07:24:56.999Z</time></trkpt><trkpt lat="43.44986541931928" lon="12.769204853357866"><ele>971.0</ele><time>2026-05-03T07:25:04.998Z</time></trkpt><trkpt lat="43.44990297726529" lon="12.76927764746112"><ele>971.0000000000001</ele><time>2026-05-03T07:25:12Z</time></trkpt><trkpt lat="43.449940367488445" lon="12.76935907297103"><ele>971.0</ele><time>2026-05-03T07:25:21Z</time></trkpt><trkpt lat="43.44995944791045" lon="12.769448777080923"><ele>971.0</ele><time>2026-05-03T07:25:32Z</time></trkpt><trkpt lat="43.44996297751037" lon="12.769561455952822"><ele>971.0000000000001</ele><time>2026-05-03T07:26:30.999Z</time></trkpt><trkpt lat="43.44999662651936" lon="12.769654173535969"><ele>971.0</ele><time>2026-05-03T07:26:38.999Z</time></trkpt><trkpt lat="43.45001357673449" lon="12.769747161828374"><ele>971.0</ele><time>2026-05-03T07:26:46.999Z</time></trkpt><trkpt lat="43.45002096012997" lon="12.76983629101535"><ele>973.0</ele><time>2026-05-03T07:26:53.999Z</time></trkpt><trkpt lat="43.45005689366701" lon="12.76990759172076"><ele>975.0000000000001</ele><time>2026-05-03T07:27:00.998Z</time></trkpt><trkpt lat="43.45006654695681" lon="12.769999563545422"><ele>977.0</ele><time>2026-05-03T07:27:07.998Z</time></trkpt><trkpt lat="43.450064154731486" lon="12.770094476620564"><ele>979.0</ele><time>2026-05-03T07:27:17Z</time></trkpt><trkpt lat="43.45008529000169" lon="12.770182113520253"><ele>981.0000000000001</ele><time>2026-05-03T07:27:27Z</time></trkpt><trkpt lat="43.450107843691015" lon="12.770271931765013"><ele>983.0</ele><time>2026-05-03T07:27:34Z</time></trkpt><trkpt lat="43.45015341953595" lon="12.77034460374598"><ele>985.0</ele><time>2026-05-03T07:27:41Z</time></trkpt><trkpt lat="43.45018746085942" lon="12.770421657522485"><ele>987.5714285714287</ele><time>2026-05-03T07:27:48Z</time></trkpt><trkpt lat="43.45022160616762" lon="12.77050999742064"><ele>990.1428571428572</ele><time>2026-05-03T07:27:57Z</time></trkpt><trkpt lat="43.450257464980446" lon="12.770590733285795"><ele>992.7142857142858</ele><time>2026-05-03T07:28:07.999Z</time></trkpt><trkpt lat="43.45029806741228" lon="12.770670309811724"><ele>995.2857142857142</ele><time>2026-05-03T07:28:14.999Z</time></trkpt><trkpt lat="43.45024681657482" lon="12.770612383179301"><ele>997.8571428571428</ele><time>2026-05-03T07:28:47.999Z</time></trkpt><trkpt lat="43.450218789179075" lon="12.770527810453574"><ele>1000.4285714285713</ele><time>2026-05-03T07:28:55.999Z</time></trkpt><trkpt lat="43.45018472584459" lon="12.770454737000358"><ele>1003.0</ele><time>2026-05-03T07:29:03.998Z</time></trkpt><trkpt lat="43.450156212544705" lon="12.770372609233716"><ele>1003.0</ele><time>2026-05-03T07:29:10.998Z</time></trkpt><trkpt lat="43.45010619734889" lon="12.77029651385175"><ele>1002.9999999999999</ele><time>2026-05-03T07:29:18Z</time></trkpt><trkpt lat="43.45008550245542" lon="12.77021326407541"><ele>1003.0</ele><time>2026-05-03T07:29:24Z</time></trkpt><trkpt lat="43.4500672945668" lon="12.770118508960026"><ele>1003.0</ele><time>2026-05-03T07:29:31Z</time></trkpt><trkpt lat="43.45003816882328" lon="12.770040428850892"><ele>1002.9999999999999</ele><time>2026-05-03T07:29:37Z</time></trkpt><trkpt lat="43.45002398941788" lon="12.769951171954835"><ele>1003.0</ele><time>2026-05-03T07:29:44Z</time></trkpt><trkpt lat="43.45002952557536" lon="12.769864039348516"><ele>1003.0</ele><time>2026-05-03T07:29:51Z</time></trkpt><trkpt lat="43.45003115632728" lon="12.76977190513151"><ele>1000.4285714285713</ele><time>2026-05-03T07:30:01Z</time></trkpt><trkpt lat="43.45003351304299" lon="12.769683860104001"><ele>997.8571428571428</ele><time>2026-05-03T07:30:06.999Z</time></trkpt><trkpt lat="43.45000501946959" lon="12.769596571549496"><ele>995.2857142857142</ele><time>2026-05-03T07:30:14.999Z</time></trkpt><trkpt lat="43.44998896657562" lon="12.769511814991953"><ele>992.7142857142858</ele><time>2026-05-03T07:30:21.999Z</time></trkpt><trkpt lat="43.44995912657411" lon="12.769427039009013"><ele>990.1428571428572</ele><time>2026-05-03T07:30:28.999Z</time></trkpt><trkpt lat="43.45003057018782" lon="12.769417658384501"><ele>987.5714285714287</ele><time>2026-05-03T07:32:22.999Z</time></trkpt><trkpt lat="43.45009520553493" lon="12.769506107734447"><ele>985.0</ele><time>2026-05-03T07:32:52.999Z</time></trkpt><trkpt lat="43.450149330499364" lon="12.769632756037748"><ele>984.9999999999999</ele><time>2026-05-03T07:33:26.998Z</time></trkpt><trkpt lat="43.45009971745186" lon="12.769743966759092"><ele>985.0</ele><time>2026-05-03T07:34:12Z</time></trkpt><trkpt lat="43.45010916432428" lon="12.769902188240142"><ele>985.0</ele><time>2026-05-03T07:34:47.999Z</time></trkpt><trkpt lat="43.450129582112545" lon="12.769995869819772"><ele>985.0</ele><time>2026-05-03T07:37:01.999Z</time></trkpt><trkpt lat="43.450179402311974" lon="12.77006157118202"><ele>984.9999999999999</ele><time>2026-05-03T07:38:31.999Z</time></trkpt><trkpt lat="43.45014198810755" lon="12.770141955440764"><ele>985.0</ele><time>2026-05-03T07:39:31.998Z</time></trkpt><trkpt lat="43.45006486717961" lon="12.770157169685799"><ele>987.5714285714287</ele><time>2026-05-03T07:40:20Z</time></trkpt><trkpt lat="43.45010518818612" lon="12.770248313296882"><ele>990.1428571428572</ele><time>2026-05-03T07:43:18.999Z</time></trkpt><trkpt lat="43.450117140556664" lon="12.770346183029183"><ele>992.7142857142858</ele><time>2026-05-03T07:43:28.998Z</time></trkpt><trkpt lat="43.4501521773904" lon="12.770429668323667"><ele>995.2857142857142</ele><time>2026-05-03T07:43:53.998Z</time></trkpt><trkpt lat="43.450187910336204" lon="12.770511307303387"><ele>997.8571428571428</ele><time>2026-05-03T07:44:02.999Z</time></trkpt><trkpt lat="43.45023571479974" lon="12.770579777583775"><ele>1000.4285714285713</ele><time>2026-05-03T07:44:12.999Z</time></trkpt><trkpt lat="43.45027108641565" lon="12.770654687679885"><ele>1003.0</ele><time>2026-05-03T07:44:21.999Z</time></trkpt><trkpt lat="43.45031398611141" lon="12.770726876876024"><ele>1003.0</ele><time>2026-05-03T07:44:31.999Z</time></trkpt><trkpt lat="43.4503559752031" lon="12.770796017743507"><ele>1002.9999999999999</ele><time>2026-05-03T07:44:41.999Z</time></trkpt><trkpt lat="43.45039565383075" lon="12.770879344605705"><ele>1003.0</ele><time>2026-05-03T07:44:52.999Z</time></trkpt><trkpt lat="43.45043485235054" lon="12.770950053099591"><ele>1003.0</ele><time>2026-05-03T07:44:59.999Z</time></trkpt><trkpt lat="43.450469759086346" lon="12.771036446068937"><ele>1002.9999999999999</ele><time>2026-05-03T07:45:07.999Z</time></trkpt><trkpt lat="43.45053390153605" lon="12.771048411870355"><ele>1003.0</ele><time>2026-05-03T07:45:11.999Z</time></trkpt><trkpt lat="43.450581377787564" lon="12.771117475444894"><ele>1003.0</ele><time>2026-05-03T07:45:20.999Z</time></trkpt><trkpt lat="43.45063360632827" lon="12.771186927155208"><ele>1005.0</ele><time>2026-05-03T07:45:28.999Z</time></trkpt><trkpt lat="43.45068192296849" lon="12.771253324076676"><ele>1006.9999999999999</ele><time>2026-05-03T07:45:36.999Z</time></trkpt><trkpt lat="43.45073054372697" lon="12.771312843599462"><ele>1009.0</ele><time>2026-05-03T07:45:44.999Z</time></trkpt><trkpt lat="43.450777937797994" lon="12.771372775691425"><ele>1011.0</ele><time>2026-05-03T07:45:52.998Z</time></trkpt><trkpt lat="43.45083396549372" lon="12.771428531848"><ele>1012.9999999999999</ele><time>2026-05-03T07:46:00.998Z</time></trkpt><trkpt lat="43.450883192128515" lon="12.771493247105976"><ele>1015.0</ele><time>2026-05-03T07:46:10Z</time></trkpt><trkpt lat="43.450937313563514" lon="12.77154026421018"><ele>1017.0</ele><time>2026-05-03T07:46:21Z</time></trkpt><trkpt lat="43.45098772398737" lon="12.771603688809039"><ele>1017.0</ele><time>2026-05-03T07:46:29Z</time></trkpt><trkpt lat="43.45104336160501" lon="12.77165836275624"><ele>1016.9999999999999</ele><time>2026-05-03T07:46:37Z</time></trkpt><trkpt lat="43.451100709378395" lon="12.771702281775527"><ele>1017.0</ele><time>2026-05-03T07:46:47Z</time></trkpt><trkpt lat="43.45116129037288" lon="12.771756468109766"><ele>1017.0</ele><time>2026-05-03T07:46:53.999Z</time></trkpt><trkpt lat="43.45122168697251" lon="12.771802490798445"><ele>1016.9999999999999</ele><time>2026-05-03T07:47:02.999Z</time></trkpt><trkpt lat="43.45128199484868" lon="12.771852328387487"><ele>1017.0</ele><time>2026-05-03T07:47:10.999Z</time></trkpt><trkpt lat="43.45132490712027" lon="12.771927322162623"><ele>1017.0</ele><time>2026-05-03T07:47:18.999Z</time></trkpt><trkpt lat="43.45139459491315" lon="12.771962523202676"><ele>1018.4285714285713</ele><time>2026-05-03T07:47:27.999Z</time></trkpt><trkpt lat="43.45138429561775" lon="12.772052088455846"><ele>1019.8571428571428</ele><time>2026-05-03T07:47:35.999Z</time></trkpt><trkpt lat="43.45132205671902" lon="12.772021555020258"><ele>1021.2857142857142</ele><time>2026-05-03T07:47:44.999Z</time></trkpt><trkpt lat="43.45125638498511" lon="12.771994429644677"><ele>1022.7142857142858</ele><time>2026-05-03T07:47:51.999Z</time></trkpt><trkpt lat="43.451195622574325" lon="12.771960325337236"><ele>1024.1428571428573</ele><time>2026-05-03T07:47:58.999Z</time></trkpt><trkpt lat="43.451129935349" lon="12.771955290106755"><ele>1025.5714285714287</ele><time>2026-05-03T07:48:06.999Z</time></trkpt><trkpt lat="43.451067146867246" lon="12.771914309739145"><ele>1027.0</ele><time>2026-05-03T07:48:13.999Z</time></trkpt><trkpt lat="43.4510009473707" lon="12.771872011277209"><ele>1025.5714285714287</ele><time>2026-05-03T07:48:20.999Z</time></trkpt><trkpt lat="43.450940601213105" lon="12.771830723877093"><ele>1024.1428571428573</ele><time>2026-05-03T07:48:29Z</time></trkpt><trkpt lat="43.4508806235944" lon="12.77180186732577"><ele>1022.7142857142858</ele><time>2026-05-03T07:48:38Z</time></trkpt><trkpt lat="43.45081861970806" lon="12.771774851336874"><ele>1021.2857142857142</ele><time>2026-05-03T07:48:45Z</time></trkpt><trkpt lat="43.45075539049808" lon="12.77174662622726"><ele>1019.8571428571428</ele><time>2026-05-03T07:48:52.999Z</time></trkpt><trkpt lat="43.45069432101614" lon="12.771719197079316"><ele>1018.4285714285713</ele><time>2026-05-03T07:49:00.999Z</time></trkpt><trkpt lat="43.45062541263142" lon="12.771694389600885"><ele>1017.0</ele><time>2026-05-03T07:49:09.999Z</time></trkpt><trkpt lat="43.45055961505613" lon="12.771675291797544"><ele>1017.0</ele><time>2026-05-03T07:49:17.999Z</time></trkpt><trkpt lat="43.450491626958936" lon="12.771658043697675"><ele>1016.9999999999999</ele><time>2026-05-03T07:49:25.999Z</time></trkpt><trkpt lat="43.45042673589109" lon="12.771637472238975"><ele>1017.0</ele><time>2026-05-03T07:49:33.999Z</time></trkpt><trkpt lat="43.45035821812041" lon="12.77163263024657"><ele>1017.0</ele><time>2026-05-03T07:49:41.999Z</time></trkpt><trkpt lat="43.450290682535275" lon="12.771623604098684"><ele>1016.9999999999999</ele><time>2026-05-03T07:49:50.999Z</time></trkpt><trkpt lat="43.45022200588762" lon="12.77161064307443"><ele>1017.0</ele><time>2026-05-03T07:49:58.999Z</time></trkpt><trkpt lat="43.45015013108031" lon="12.7716098849322"><ele>1017.0</ele><time>2026-05-03T07:50:07.999Z</time></trkpt><trkpt lat="43.45008265309315" lon="12.771610356941922"><ele>1018.5714285714286</ele><time>2026-05-03T07:50:15.999Z</time></trkpt><trkpt lat="43.45001449029113" lon="12.771627205845437"><ele>1020.1428571428571</ele><time>2026-05-03T07:50:25Z</time></trkpt><trkpt lat="43.449948649972846" lon="12.771649284939848"><ele>1021.7142857142857</ele><time>2026-05-03T07:50:33Z</time></trkpt><trkpt lat="43.449880553529724" lon="12.771662257985293"><ele>1023.2857142857142</ele><time>2026-05-03T07:50:42Z</time></trkpt><trkpt lat="43.44981310579982" lon="12.771680680818442"><ele>1024.857142857143</ele><time>2026-05-03T07:50:50Z</time></trkpt><trkpt lat="43.44974034407301" lon="12.771697260235136"><ele>1026.4285714285713</ele><time>2026-05-03T07:50:59Z</time></trkpt><trkpt lat="43.449671249377026" lon="12.771723178043203"><ele>1028.0</ele><time>2026-05-03T07:51:08Z</time></trkpt><trkpt lat="43.44960703944858" lon="12.771755643141475"><ele>1028.0</ele><time>2026-05-03T07:51:17Z</time></trkpt><trkpt lat="43.449551368050635" lon="12.77181127581001"><ele>1028.0</ele><time>2026-05-03T07:51:24.999Z</time></trkpt><trkpt lat="43.44949243716357" lon="12.771856635892068"><ele>1028.0</ele><time>2026-05-03T07:51:33.999Z</time></trkpt><trkpt lat="43.44943709921366" lon="12.771902037848964"><ele>1028.0</ele><time>2026-05-03T07:51:41.999Z</time></trkpt><trkpt lat="43.44938385522153" lon="12.771961862220417"><ele>1028.0</ele><time>2026-05-03T07:51:50.999Z</time></trkpt><trkpt lat="43.44932890834951" lon="12.772017855366991"><ele>1028.0</ele><time>2026-05-03T07:51:59.999Z</time></trkpt><trkpt lat="43.44927785856339" lon="12.772071819048607"><ele>1028.0</ele><time>2026-05-03T07:52:08.999Z</time></trkpt><trkpt lat="43.449228045085015" lon="12.77212505621005"><ele>1031.2857142857142</ele><time>2026-05-03T07:52:17.999Z</time></trkpt><trkpt lat="43.44917998934649" lon="12.772189463444931"><ele>1034.5714285714287</ele><time>2026-05-03T07:52:27.001Z</time></trkpt><trkpt lat="43.44912867951837" lon="12.772250537439646"><ele>1037.857142857143</ele><time>2026-05-03T07:52:36.001Z</time></trkpt><trkpt lat="43.44907321090422" lon="12.772305545766253"><ele>1041.142857142857</ele><time>2026-05-03T07:52:45Z</time></trkpt><trkpt lat="43.44902391999031" lon="12.772368763183529"><ele>1044.4285714285713</ele><time>2026-05-03T07:52:54Z</time></trkpt><trkpt lat="43.44897508956494" lon="12.772428068548004"><ele>1047.7142857142858</ele><time>2026-05-03T07:53:04Z</time></trkpt><trkpt lat="43.448927124753" lon="12.77248686901428"><ele>1051.0</ele><time>2026-05-03T07:53:13Z</time></trkpt><trkpt lat="43.4488840771681" lon="12.772556240645164"><ele>1051.0</ele><time>2026-05-03T07:53:23Z</time></trkpt><trkpt lat="43.448840891300556" lon="12.77262388964744"><ele>1051.0</ele><time>2026-05-03T07:53:32Z</time></trkpt><trkpt lat="43.448799216625005" lon="12.772699507432394"><ele>1051.0</ele><time>2026-05-03T07:53:41.999Z</time></trkpt><trkpt lat="43.4487535327691" lon="12.77276748162942"><ele>1051.0</ele><time>2026-05-03T07:53:51.999Z</time></trkpt><trkpt lat="43.44870216369443" lon="12.77283696521848"><ele>1051.0</ele><time>2026-05-03T07:54:00.999Z</time></trkpt><trkpt lat="43.44865931309544" lon="12.772901318403457"><ele>1051.0</ele><time>2026-05-03T07:54:09.999Z</time></trkpt><trkpt lat="43.44862673527237" lon="12.772977525265253"><ele>1051.0</ele><time>2026-05-03T07:54:19.999Z</time></trkpt><trkpt lat="43.448591262309925" lon="12.773051537226545"><ele>1052.4285714285716</ele><time>2026-05-03T07:54:28.999Z</time></trkpt><trkpt lat="43.44854778943187" lon="12.773115430590897"><ele>1053.857142857143</ele><time>2026-05-03T07:54:38.001Z</time></trkpt><trkpt lat="43.44850617273039" lon="12.773189048635686"><ele>1055.2857142857142</ele><time>2026-05-03T07:54:47Z</time></trkpt><trkpt lat="43.448462424777695" lon="12.773261019280511"><ele>1056.7142857142858</ele><time>2026-05-03T07:54:55Z</time></trkpt><trkpt lat="43.44841985777471" lon="12.77332588363233"><ele>1058.142857142857</ele><time>2026-05-03T07:55:03Z</time></trkpt><trkpt lat="43.448387050042676" lon="12.773402556063841"><ele>1059.5714285714287</ele><time>2026-05-03T07:55:14Z</time></trkpt><trkpt lat="43.44834528535195" lon="12.773472454213488"><ele>1061.0</ele><time>2026-05-03T07:55:25Z</time></trkpt><trkpt lat="43.44830650064554" lon="12.773550468563732"><ele>1064.7142857142858</ele><time>2026-05-03T07:55:36Z</time></trkpt><trkpt lat="43.448265602141696" lon="12.77362055047525"><ele>1068.4285714285716</ele><time>2026-05-03T07:55:43.999Z</time></trkpt><trkpt lat="43.448225102801665" lon="12.773701041354188"><ele>1072.142857142857</ele><time>2026-05-03T07:55:51.999Z</time></trkpt><trkpt lat="43.448193612058446" lon="12.773787460807226"><ele>1075.857142857143</ele><time>2026-05-03T07:56:00.999Z</time></trkpt><trkpt lat="43.44815562196782" lon="12.773863265568476"><ele>1079.5714285714284</ele><time>2026-05-03T07:56:10.999Z</time></trkpt><trkpt lat="43.4481237339392" lon="12.773938137068928"><ele>1083.2857142857142</ele><time>2026-05-03T07:56:20.999Z</time></trkpt><trkpt lat="43.44808946966903" lon="12.77401491825938"><ele>1087.0</ele><time>2026-05-03T07:56:28.999Z</time></trkpt><trkpt lat="43.44805013778013" lon="12.774089038570771"><ele>1087.0</ele><time>2026-05-03T07:56:42Z</time></trkpt><trkpt lat="43.44802338875064" lon="12.774169495165923"><ele>1087.0</ele><time>2026-05-03T07:56:50Z</time></trkpt><trkpt lat="43.44799147805916" lon="12.774251648767976"><ele>1087.0</ele><time>2026-05-03T07:57:02Z</time></trkpt><trkpt lat="43.44796270138364" lon="12.77433604145001"><ele>1087.0</ele><time>2026-05-03T07:57:13Z</time></trkpt><trkpt lat="43.44793437400398" lon="12.774414073203372"><ele>1087.0</ele><time>2026-05-03T07:57:21Z</time></trkpt><trkpt lat="43.447902409020784" lon="12.774496302087341"><ele>1087.0</ele><time>2026-05-03T07:57:31Z</time></trkpt><trkpt lat="43.44788030645321" lon="12.774586355733108"><ele>1087.0</ele><time>2026-05-03T07:57:39.999Z</time></trkpt><trkpt lat="43.44785164917123" lon="12.774668888824312"><ele>1086.857142857143</ele><time>2026-05-03T07:57:48.999Z</time></trkpt><trkpt lat="43.44783281797313" lon="12.774757868568406"><ele>1086.7142857142856</ele><time>2026-05-03T07:57:57.999Z</time></trkpt><trkpt lat="43.44780814041763" lon="12.774845950363247"><ele>1086.5714285714284</ele><time>2026-05-03T07:58:07.999Z</time></trkpt><trkpt lat="43.44779324857404" lon="12.774939281543844"><ele>1086.4285714285713</ele><time>2026-05-03T08:01:27Z</time></trkpt><trkpt lat="43.44775711937186" lon="12.775018310469978"><ele>1086.2857142857142</ele><time>2026-05-03T08:01:35.999Z</time></trkpt><trkpt lat="43.447743553126735" lon="12.77510990979259"><ele>1086.142857142857</ele><time>2026-05-03T08:01:43.999Z</time></trkpt><trkpt lat="43.44771898930293" lon="12.775199340457954"><ele>1086.0</ele><time>2026-05-03T08:01:51.999Z</time></trkpt><trkpt lat="43.447717303647444" lon="12.775287681977614"><ele>1086.0</ele><time>2026-05-03T08:01:59.999Z</time></trkpt><trkpt lat="43.4477077549837" lon="12.775378698344776"><ele>1086.0</ele><time>2026-05-03T08:02:07.999Z</time></trkpt><trkpt lat="43.44769421828587" lon="12.775470424324006"><ele>1086.0</ele><time>2026-05-03T08:02:16.999Z</time></trkpt><trkpt lat="43.447688864583675" lon="12.775565794494439"><ele>1086.0</ele><time>2026-05-03T08:02:25.999Z</time></trkpt><trkpt lat="43.44769745302072" lon="12.775694321568277"><ele>1086.0</ele><time>2026-05-03T08:03:06Z</time></trkpt><trkpt lat="43.447697196597844" lon="12.775784475005684"><ele>1086.0</ele><time>2026-05-03T08:03:14Z</time></trkpt><trkpt lat="43.44769743763558" lon="12.775876334120719"><ele>1086.0</ele><time>2026-05-03T08:03:24Z</time></trkpt><trkpt lat="43.447701520139496" lon="12.775970377918444"><ele>1086.142857142857</ele><time>2026-05-03T08:03:32.999Z</time></trkpt><trkpt lat="43.44771286045719" lon="12.776057429560467"><ele>1086.2857142857142</ele><time>2026-05-03T08:03:41.999Z</time></trkpt><trkpt lat="43.4477301675643" lon="12.776152153346885"><ele>1086.4285714285713</ele><time>2026-05-03T08:03:51.999Z</time></trkpt><trkpt lat="43.44774734535757" lon="12.776238385314732"><ele>1086.5714285714284</ele><time>2026-05-03T08:04:36.998Z</time></trkpt><trkpt lat="43.44775561552454" lon="12.77633399478744"><ele>1086.7142857142856</ele><time>2026-05-03T08:04:45.998Z</time></trkpt><trkpt lat="43.447758614190114" lon="12.776420862294408"><ele>1086.857142857143</ele><time>2026-05-03T08:04:53.998Z</time></trkpt><trkpt lat="43.44780192815126" lon="12.776502447812417"><ele>1087.0</ele><time>2026-05-03T08:05:01Z</time></trkpt><trkpt lat="43.447847881767096" lon="12.77656509983515"><ele>1087.0</ele><time>2026-05-03T08:05:09Z</time></trkpt><trkpt lat="43.44786884241443" lon="12.7766584011442"><ele>1087.0</ele><time>2026-05-03T08:05:18Z</time></trkpt><trkpt lat="43.447912703795645" lon="12.776729037292512"><ele>1087.0</ele><time>2026-05-03T08:05:26Z</time></trkpt><trkpt lat="43.4479422737016" lon="12.776809771522785"><ele>1087.0</ele><time>2026-05-03T08:05:36Z</time></trkpt><trkpt lat="43.44798857632834" lon="12.776872808741853"><ele>1087.0</ele><time>2026-05-03T08:05:44.999Z</time></trkpt><trkpt lat="43.448037618858564" lon="12.776940216074918"><ele>1087.0</ele><time>2026-05-03T08:05:52.999Z</time></trkpt><trkpt lat="43.44807861529214" lon="12.777012106236734"><ele>1087.0</ele><time>2026-05-03T08:06:01.999Z</time></trkpt><trkpt lat="43.448127706878665" lon="12.777076323749673"><ele>1092.4285714285713</ele><time>2026-05-03T08:06:10.999Z</time></trkpt><trkpt lat="43.448198828187245" lon="12.77713524197284"><ele>1097.8571428571427</ele><time>2026-05-03T08:06:33.999Z</time></trkpt><trkpt lat="43.44823534627596" lon="12.777206119728943"><ele>1103.2857142857142</ele><time>2026-05-03T08:06:42.999Z</time></trkpt><trkpt lat="43.448285348377695" lon="12.777273399916439"><ele>1108.7142857142858</ele><time>2026-05-03T08:12:02Z</time></trkpt><trkpt lat="43.44834830908024" lon="12.777310964268239"><ele>1114.1428571428573</ele><time>2026-05-03T08:12:09.999Z</time></trkpt><trkpt lat="43.44841134224183" lon="12.777357086661834"><ele>1119.5714285714287</ele><time>2026-05-03T08:12:16.999Z</time></trkpt><trkpt lat="43.44847015950412" lon="12.777396911590273"><ele>1125.0</ele><time>2026-05-03T08:12:24.999Z</time></trkpt><trkpt lat="43.44852680262929" lon="12.777442683956675"><ele>1125.0</ele><time>2026-05-03T08:12:31.999Z</time></trkpt><trkpt lat="43.44858696103943" lon="12.777493130535243"><ele>1125.0</ele><time>2026-05-03T08:12:38.999Z</time></trkpt><trkpt lat="43.44864788278224" lon="12.777541871400434"><ele>1125.0</ele><time>2026-05-03T08:12:45.999Z</time></trkpt><trkpt lat="43.44867989370478" lon="12.77762769908436"><ele>1125.0</ele><time>2026-05-03T08:12:52.999Z</time></trkpt><trkpt lat="43.44864756907051" lon="12.777702522678894"><ele>1125.0</ele><time>2026-05-03T08:12:58.999Z</time></trkpt><trkpt lat="43.44859276428685" lon="12.777753197359612"><ele>1125.0</ele><time>2026-05-03T08:13:06.998Z</time></trkpt><trkpt lat="43.44854722105359" lon="12.777823125785567"><ele>1125.0</ele><time>2026-05-03T08:13:14.998Z</time></trkpt><trkpt lat="43.44851972832104" lon="12.777907491291222"><ele>1127.2857142857142</ele><time>2026-05-03T08:13:22.998Z</time></trkpt><trkpt lat="43.44848787106718" lon="12.777990704673977"><ele>1129.5714285714287</ele><time>2026-05-03T08:13:33Z</time></trkpt><trkpt lat="43.448453353747325" lon="12.778067522101166"><ele>1131.857142857143</ele><time>2026-05-03T08:13:40Z</time></trkpt><trkpt lat="43.44842491759744" lon="12.778158411931384"><ele>1134.142857142857</ele><time>2026-05-03T08:13:47Z</time></trkpt><trkpt lat="43.448414659111776" lon="12.778245788466805"><ele>1136.4285714285716</ele><time>2026-05-03T08:13:54Z</time></trkpt><trkpt lat="43.448393690475434" lon="12.77833061886083"><ele>1138.7142857142858</ele><time>2026-05-03T08:14:02Z</time></trkpt><trkpt lat="43.44836072087209" lon="12.778409923721442"><ele>1141.0</ele><time>2026-05-03T08:14:08Z</time></trkpt><trkpt lat="43.44833735078385" lon="12.778498548252555"><ele>1143.5714285714287</ele><time>2026-05-03T08:14:13.999Z</time></trkpt><trkpt lat="43.44831427951159" lon="12.778591556421883"><ele>1146.142857142857</ele><time>2026-05-03T08:14:20.999Z</time></trkpt><trkpt lat="43.44829244293104" lon="12.778677843914775"><ele>1148.7142857142858</ele><time>2026-05-03T08:14:27.999Z</time></trkpt><trkpt lat="43.44826212772444" lon="12.778754782759394"><ele>1151.2857142857142</ele><time>2026-05-03T08:14:34.999Z</time></trkpt><trkpt lat="43.44823460036159" lon="12.778835149462306"><ele>1153.857142857143</ele><time>2026-05-03T08:14:41.999Z</time></trkpt><trkpt lat="43.44822235461276" lon="12.778927828736922"><ele>1156.4285714285716</ele><time>2026-05-03T08:14:49.999Z</time></trkpt><trkpt lat="43.448207238253524" lon="12.779015017436677"><ele>1159.0</ele><time>2026-05-03T08:14:56.999Z</time></trkpt><trkpt lat="43.44817785746571" lon="12.77909417836622"><ele>1159.0000000000002</ele><time>2026-05-03T08:15:04.999Z</time></trkpt><trkpt lat="43.44815011510637" lon="12.779179089790336"><ele>1159.0</ele><time>2026-05-03T08:15:12.998Z</time></trkpt><trkpt lat="43.44813536231031" lon="12.779268192482583"><ele>1159.0</ele><time>2026-05-03T08:15:21.998Z</time></trkpt><trkpt lat="43.448200765255834" lon="12.779226784792485"><ele>1159.0</ele><time>2026-05-03T08:15:28.998Z</time></trkpt><trkpt lat="43.448252617675486" lon="12.779157742996134"><ele>1159.0</ele><time>2026-05-03T08:15:37Z</time></trkpt><trkpt lat="43.44829788146048" lon="12.779093221582453"><ele>1159.0000000000002</ele><time>2026-05-03T08:15:44Z</time></trkpt><trkpt lat="43.44834300393304" lon="12.779024090228225"><ele>1159.0</ele><time>2026-05-03T08:15:51Z</time></trkpt><trkpt lat="43.44839051604136" lon="12.778955352082834"><ele>1159.0000000000002</ele><time>2026-05-03T08:15:58Z</time></trkpt><trkpt lat="43.448436838420825" lon="12.77888592945554"><ele>1159.0</ele><time>2026-05-03T08:16:05Z</time></trkpt><trkpt lat="43.448480224427634" lon="12.778816028313424"><ele>1159.0</ele><time>2026-05-03T08:16:12Z</time></trkpt><trkpt lat="43.448529196443566" lon="12.778755830632159"><ele>1159.0</ele><time>2026-05-03T08:16:18.999Z</time></trkpt><trkpt lat="43.44857693962043" lon="12.778693346656752"><ele>1159.0</ele><time>2026-05-03T08:16:26.999Z</time></trkpt><trkpt lat="43.448627855792935" lon="12.778639176404566"><ele>1159.0000000000002</ele><time>2026-05-03T08:16:33.999Z</time></trkpt><trkpt lat="43.44868188720688" lon="12.77858329259409"><ele>1159.0</ele><time>2026-05-03T08:16:40.999Z</time></trkpt><trkpt lat="43.4487271285884" lon="12.77852094542224"><ele>1162.2</ele><time>2026-05-03T08:16:47.999Z</time></trkpt><trkpt lat="43.44877538371597" lon="12.778462720894805"><ele>1165.4</ele><time>2026-05-03T08:16:54.999Z</time></trkpt><trkpt lat="43.448826316931765" lon="12.77839460833065"><ele>1168.6</ele><time>2026-05-03T08:17:02.999Z</time></trkpt><trkpt lat="43.448880316947985" lon="12.77833366328003"><ele>1171.8</ele><time>2026-05-03T08:17:09.999Z</time></trkpt><trkpt lat="43.44893657190997" lon="12.778272908508011"><ele>1175.0</ele><time>2026-05-03T08:17:17.998Z</time></trkpt><trkpt lat="43.450139907022155" lon="12.777254889159506"><ele>1175.5714285714284</ele><time>2026-05-03T08:20:04Z</time></trkpt><trkpt lat="43.45020330065527" lon="12.777227512335463"><ele>1176.142857142857</ele><time>2026-05-03T08:20:14Z</time></trkpt><trkpt lat="43.450267386020016" lon="12.77721807102083"><ele>1176.7142857142858</ele><time>2026-05-03T08:20:20Z</time></trkpt><trkpt lat="43.45033759289651" lon="12.777184005948914"><ele>1177.2857142857142</ele><time>2026-05-03T08:20:27.999Z</time></trkpt><trkpt lat="43.450405780709914" lon="12.777180113822256"><ele>1177.857142857143</ele><time>2026-05-03T08:20:37.999Z</time></trkpt><trkpt lat="43.450468292525095" lon="12.777159501714152"><ele>1178.4285714285713</ele><time>2026-05-03T08:20:45.999Z</time></trkpt><trkpt lat="43.45053960238249" lon="12.777154897094682"><ele>1179.0</ele><time>2026-05-03T08:20:53.999Z</time></trkpt><trkpt lat="43.450613936584716" lon="12.777155927901822"><ele>1181.142857142857</ele><time>2026-05-03T08:21:02.999Z</time></trkpt><trkpt lat="43.450686510528996" lon="12.777158250538214"><ele>1183.2857142857142</ele><time>2026-05-03T08:21:11.999Z</time></trkpt><trkpt lat="43.45075073938" lon="12.777156424632766"><ele>1185.4285714285716</ele><time>2026-05-03T08:21:18.999Z</time></trkpt><trkpt lat="43.45081730861505" lon="12.7771611133837"><ele>1187.5714285714284</ele><time>2026-05-03T08:21:26.998Z</time></trkpt><trkpt lat="43.45088565234853" lon="12.777174433731973"><ele>1189.7142857142858</ele><time>2026-05-03T08:21:35.998Z</time></trkpt><trkpt lat="43.450956610175545" lon="12.777163387641167"><ele>1191.857142857143</ele><time>2026-05-03T08:21:44.998Z</time></trkpt><trkpt lat="43.451031764376346" lon="12.777170072707532"><ele>1194.0</ele><time>2026-05-03T08:21:53.999Z</time></trkpt><trkpt lat="43.451091374934016" lon="12.777126768253279"><ele>1194.0000000000002</ele><time>2026-05-03T08:22:01.999Z</time></trkpt><trkpt lat="43.451155631417784" lon="12.777099228328279"><ele>1194.0</ele><time>2026-05-03T08:22:10.999Z</time></trkpt><trkpt lat="43.451114991240175" lon="12.777178202455392"><ele>1194.0</ele><time>2026-05-03T08:23:06.999Z</time></trkpt><trkpt lat="43.451117451255" lon="12.777270409085563"><ele>1194.0</ele><time>2026-05-03T08:23:28.998Z</time></trkpt><trkpt lat="43.45111352209616" lon="12.77718256107423"><ele>1194.0</ele><time>2026-05-03T08:24:01.998Z</time></trkpt><trkpt lat="43.45116908817532" lon="12.777141673376216"><ele>1194.0000000000002</ele><time>2026-05-03T08:24:25.999Z</time></trkpt><trkpt lat="43.451214620120226" lon="12.777080115612383"><ele>1194.0</ele><time>2026-05-03T08:25:27.999Z</time></trkpt><trkpt lat="43.451217480766985" lon="12.776988059246955"><ele>1194.0000000000002</ele><time>2026-05-03T08:28:35Z</time></trkpt><trkpt lat="43.45122171839861" lon="12.776899082283602"><ele>1194.0</ele><time>2026-05-03T08:28:44Z</time></trkpt><trkpt lat="43.45124270293682" lon="12.77681079636908"><ele>1194.0</ele><time>2026-05-03T08:28:56Z</time></trkpt><trkpt lat="43.451239650326634" lon="12.77672272729274"><ele>1194.0</ele><time>2026-05-03T08:29:04Z</time></trkpt><trkpt lat="43.451237707984816" lon="12.776630305421874"><ele>1194.0</ele><time>2026-05-03T08:29:14Z</time></trkpt><trkpt lat="43.45122323016345" lon="12.776537671747123"><ele>1194.0000000000002</ele><time>2026-05-03T08:29:22.999Z</time></trkpt><trkpt lat="43.45122405644557" lon="12.776435978004203"><ele>1194.0</ele><time>2026-05-03T08:29:33.999Z</time></trkpt><trkpt lat="43.45124759555539" lon="12.776351830771898"><ele>1193.2857142857144</ele><time>2026-05-03T08:29:42.999Z</time></trkpt><trkpt lat="43.45126459057882" lon="12.77626119788834"><ele>1192.5714285714287</ele><time>2026-05-03T08:29:52.999Z</time></trkpt><trkpt lat="43.45128720960413" lon="12.77617984042214"><ele>1191.857142857143</ele><time>2026-05-03T08:30:01.999Z</time></trkpt><trkpt lat="43.45131740181613" lon="12.776099856901679"><ele>1191.1428571428573</ele><time>2026-05-03T08:30:10.999Z</time></trkpt><trkpt lat="43.45135495307256" lon="12.776025828633186"><ele>1190.4285714285716</ele><time>2026-05-03T08:30:21.001Z</time></trkpt><trkpt lat="43.451398964104605" lon="12.77595355544938"><ele>1189.7142857142858</ele><time>2026-05-03T08:30:31.001Z</time></trkpt><trkpt lat="43.4514525339221" lon="12.775907410766244"><ele>1189.0</ele><time>2026-05-03T08:30:39Z</time></trkpt><trkpt lat="43.451514141795194" lon="12.775883748369337"><ele>1184.4285714285713</ele><time>2026-05-03T08:30:47Z</time></trkpt><trkpt lat="43.45157605550432" lon="12.775863152630045"><ele>1179.857142857143</ele><time>2026-05-03T08:30:55Z</time></trkpt><trkpt lat="43.45164128873087" lon="12.775849961197496"><ele>1175.2857142857142</ele><time>2026-05-03T08:31:05Z</time></trkpt><trkpt lat="43.45169730516958" lon="12.775796712873088"><ele>1170.7142857142858</ele><time>2026-05-03T08:31:14Z</time></trkpt><trkpt lat="43.45175743679417" lon="12.775769376514058"><ele>1166.142857142857</ele><time>2026-05-03T08:31:25Z</time></trkpt><trkpt lat="43.451787881927416" lon="12.775871654883915"><ele>1161.5714285714284</ele><time>2026-05-03T08:31:41Z</time></trkpt><trkpt lat="43.45185358074736" lon="12.775849423044919"><ele>1157.0</ele><time>2026-05-03T08:31:52Z</time></trkpt><trkpt lat="43.451914970410265" lon="12.775880431696349"><ele>1157.0</ele><time>2026-05-03T08:32:02Z</time></trkpt><trkpt lat="43.451979271932395" lon="12.775908778889262"><ele>1157.0</ele><time>2026-05-03T08:32:12Z</time></trkpt><trkpt lat="43.452043381041804" lon="12.775911559011396"><ele>1157.0</ele><time>2026-05-03T08:32:20.001Z</time></trkpt><trkpt lat="43.45210870301126" lon="12.775927489700656"><ele>1157.0</ele><time>2026-05-03T08:32:28.001Z</time></trkpt><trkpt lat="43.452174849848944" lon="12.775921337474491"><ele>1157.0</ele><time>2026-05-03T08:32:37.001Z</time></trkpt><trkpt lat="43.45223922800308" lon="12.775886291080964"><ele>1157.0</ele><time>2026-05-03T08:32:47.001Z</time></trkpt><trkpt lat="43.452287932964545" lon="12.775829109371353"><ele>1157.0</ele><time>2026-05-03T08:33:00Z</time></trkpt><trkpt lat="43.45234227962251" lon="12.775778369507515"><ele>1153.857142857143</ele><time>2026-05-03T08:33:10Z</time></trkpt><trkpt lat="43.452346699747956" lon="12.775680793036045"><ele>1150.7142857142856</ele><time>2026-05-03T08:33:18Z</time></trkpt><trkpt lat="43.45236235139698" lon="12.775586152495258"><ele>1147.5714285714284</ele><time>2026-05-03T08:33:26Z</time></trkpt><trkpt lat="43.45237444818134" lon="12.775492557888784"><ele>1144.4285714285713</ele><time>2026-05-03T08:33:32Z</time></trkpt><trkpt lat="43.452387958356816" lon="12.77540582862596"><ele>1141.2857142857142</ele><time>2026-05-03T08:33:40Z</time></trkpt><trkpt lat="43.45244004864967" lon="12.775339980807386"><ele>1138.142857142857</ele><time>2026-05-03T08:33:47Z</time></trkpt><trkpt lat="43.4525013179023" lon="12.775295477208521"><ele>1135.0</ele><time>2026-05-03T08:33:55Z</time></trkpt><trkpt lat="43.45256029820967" lon="12.775261146761531"><ele>1135.0</ele><time>2026-05-03T08:34:02Z</time></trkpt><trkpt lat="43.452630012379515" lon="12.775241403398699"><ele>1135.0</ele><time>2026-05-03T08:34:10Z</time></trkpt><trkpt lat="43.45268740351871" lon="12.775185178270828"><ele>1135.0</ele><time>2026-05-03T08:34:16.999Z</time></trkpt><trkpt lat="43.45273769665865" lon="12.775121159182554"><ele>1135.0</ele><time>2026-05-03T08:34:25.001Z</time></trkpt><trkpt lat="43.45279998379331" lon="12.775073131138196"><ele>1135.0</ele><time>2026-05-03T08:34:34.001Z</time></trkpt><trkpt lat="43.4528670281566" lon="12.775034374419763"><ele>1135.0</ele><time>2026-05-03T08:34:40.001Z</time></trkpt><trkpt lat="43.45292876151471" lon="12.774995885329373"><ele>1135.0</ele><time>2026-05-03T08:34:47.001Z</time></trkpt><trkpt lat="43.45298942681226" lon="12.774959667263147"><ele>1131.857142857143</ele><time>2026-05-03T08:34:57Z</time></trkpt><trkpt lat="43.45305870893146" lon="12.774936256108738"><ele>1128.7142857142858</ele><time>2026-05-03T08:35:05Z</time></trkpt><trkpt lat="43.453126214592636" lon="12.774929151293382"><ele>1125.5714285714284</ele><time>2026-05-03T08:35:13Z</time></trkpt><trkpt lat="43.45319127554209" lon="12.774925348047097"><ele>1122.4285714285716</ele><time>2026-05-03T08:35:20Z</time></trkpt><trkpt lat="43.453253609707744" lon="12.774897957625916"><ele>1119.2857142857142</ele><time>2026-05-03T08:35:27Z</time></trkpt><trkpt lat="43.45328400437835" lon="12.77482155154618"><ele>1116.142857142857</ele><time>2026-05-03T08:35:36Z</time></trkpt><trkpt lat="43.45331917233146" lon="12.774746724743618"><ele>1113.0</ele><time>2026-05-03T08:35:45Z</time></trkpt><trkpt lat="43.45335820568071" lon="12.774676712349088"><ele>1113.0</ele><time>2026-05-03T08:35:51.999Z</time></trkpt><trkpt lat="43.453401459656575" lon="12.774602708900261"><ele>1113.0</ele><time>2026-05-03T08:35:58.999Z</time></trkpt><trkpt lat="43.45344363446836" lon="12.774532791565516"><ele>1113.0</ele><time>2026-05-03T08:36:04.999Z</time></trkpt><trkpt lat="43.45348282154669" lon="12.774448581554775"><ele>1113.0</ele><time>2026-05-03T08:36:11.999Z</time></trkpt><trkpt lat="43.45354133000873" lon="12.77440956106293"><ele>1113.0</ele><time>2026-05-03T08:36:18.999Z</time></trkpt><trkpt lat="43.45359003173514" lon="12.774339234174692"><ele>1113.0</ele><time>2026-05-03T08:36:26.999Z</time></trkpt><trkpt lat="43.45365404564233" lon="12.774346748273718"><ele>1113.0</ele><time>2026-05-03T08:36:36.001Z</time></trkpt><trkpt lat="43.45371709733384" lon="12.774331934646177"><ele>1113.142857142857</ele><time>2026-05-03T08:36:43.001Z</time></trkpt><trkpt lat="43.453785551913576" lon="12.774309314834206"><ele>1113.2857142857142</ele><time>2026-05-03T08:36:52Z</time></trkpt><trkpt lat="43.45384520563862" lon="12.774279373759262"><ele>1113.4285714285716</ele><time>2026-05-03T08:36:59Z</time></trkpt><trkpt lat="43.45390488792719" lon="12.774228269309717"><ele>1113.5714285714284</ele><time>2026-05-03T08:37:07Z</time></trkpt><trkpt lat="43.4539629674838" lon="12.774185007526196"><ele>1113.7142857142858</ele><time>2026-05-03T08:37:13Z</time></trkpt><trkpt lat="43.45402702000974" lon="12.774151076917287"><ele>1113.857142857143</ele><time>2026-05-03T08:37:20Z</time></trkpt><trkpt lat="43.45409366394798" lon="12.774120814064448"><ele>1114.0</ele><time>2026-05-03T08:37:25Z</time></trkpt><trkpt lat="43.45414636398335" lon="12.774069851581219"><ele>1114.0</ele><time>2026-05-03T08:37:41.999Z</time></trkpt><trkpt lat="43.454202958207595" lon="12.774025417964587"><ele>1114.0</ele><time>2026-05-03T08:37:50.999Z</time></trkpt><trkpt lat="43.454263678974016" lon="12.773980057069144"><ele>1114.0</ele><time>2026-05-03T08:38:00.999Z</time></trkpt><trkpt lat="43.45431872523689" lon="12.77393443713368"><ele>1114.0</ele><time>2026-05-03T08:38:26.999Z</time></trkpt><trkpt lat="43.45437782179656" lon="12.773887484720444"><ele>1114.0</ele><time>2026-05-03T08:38:37.001Z</time></trkpt><trkpt lat="43.45443569542957" lon="12.773847824515247"><ele>1114.0</ele><time>2026-05-03T08:38:47Z</time></trkpt><trkpt lat="43.45448999077122" lon="12.773785775014119"><ele>1114.0</ele><time>2026-05-03T08:44:54Z</time></trkpt><trkpt lat="43.45455624322944" lon="12.773740720566986"><ele>1114.0</ele><time>2026-05-03T08:45:01Z</time></trkpt><trkpt lat="43.45461919109718" lon="12.773715735453145"><ele>1114.0</ele><time>2026-05-03T08:45:08Z</time></trkpt><trkpt lat="43.454685798139636" lon="12.773704400872612"><ele>1114.0</ele><time>2026-05-03T08:45:16Z</time></trkpt><trkpt lat="43.454751485280966" lon="12.773680983600155"><ele>1114.0</ele><time>2026-05-03T08:45:25Z</time></trkpt><trkpt lat="43.454815854780456" lon="12.773641429873711"><ele>1114.0</ele><time>2026-05-03T08:45:34Z</time></trkpt><trkpt lat="43.4548744565055" lon="12.77360870773977"><ele>1114.0</ele><time>2026-05-03T08:45:42Z</time></trkpt><trkpt lat="43.454937523688734" lon="12.773580657633607"><ele>1114.0</ele><time>2026-05-03T08:45:49.999Z</time></trkpt><trkpt lat="43.45500634195244" lon="12.773574650462004"><ele>1114.0</ele><time>2026-05-03T08:45:58.999Z</time></trkpt><trkpt lat="43.45507269235534" lon="12.773553122750666"><ele>1114.0</ele><time>2026-05-03T08:46:09.999Z</time></trkpt><trkpt lat="43.455132353200845" lon="12.773494539999845"><ele>1114.0</ele><time>2026-05-03T08:46:18.999Z</time></trkpt><trkpt lat="43.45518487338786" lon="12.773433739814147"><ele>1114.0</ele><time>2026-05-03T08:46:25.999Z</time></trkpt><trkpt lat="43.4552501324006" lon="12.773422562085475"><ele>1114.0</ele><time>2026-05-03T08:46:32.999Z</time></trkpt><trkpt lat="43.45531918681128" lon="12.773403178293638"><ele>1114.0</ele><time>2026-05-03T08:46:39.999Z</time></trkpt><trkpt lat="43.455382855028304" lon="12.773398751262315"><ele>1114.0</ele><time>2026-05-03T08:46:46.998Z</time></trkpt><trkpt lat="43.45544714318059" lon="12.77339421882386"><ele>1115.2857142857142</ele><time>2026-05-03T08:46:53.998Z</time></trkpt><trkpt lat="43.4555141642127" lon="12.773390056823274"><ele>1116.5714285714284</ele><time>2026-05-03T08:47:02Z</time></trkpt><trkpt lat="43.45557740920771" lon="12.773365716173398"><ele>1117.8571428571427</ele><time>2026-05-03T08:47:10Z</time></trkpt><trkpt lat="43.45564232917327" lon="12.773374487743169"><ele>1119.142857142857</ele><time>2026-05-03T08:47:17Z</time></trkpt><trkpt lat="43.45571377686279" lon="12.773362614291468"><ele>1120.4285714285713</ele><time>2026-05-03T08:47:25Z</time></trkpt><trkpt lat="43.455781066878544" lon="12.773367884338906"><ele>1121.7142857142856</ele><time>2026-05-03T08:47:33Z</time></trkpt><trkpt lat="43.45584679841906" lon="12.773366855451343"><ele>1123.0</ele><time>2026-05-03T08:47:40Z</time></trkpt><trkpt lat="43.45591691579196" lon="12.773355503228435"><ele>1122.9999999999998</ele><time>2026-05-03T08:47:47.999Z</time></trkpt><trkpt lat="43.45598413737193" lon="12.773365082206839"><ele>1123.0</ele><time>2026-05-03T08:47:55.999Z</time></trkpt><trkpt lat="43.45605556067432" lon="12.77336293981013"><ele>1123.0</ele><time>2026-05-03T08:48:03.999Z</time></trkpt><trkpt lat="43.45612033750611" lon="12.773354526643237"><ele>1123.0</ele><time>2026-05-03T08:48:10.999Z</time></trkpt><trkpt lat="43.456191085704205" lon="12.773343006944152"><ele>1123.0</ele><time>2026-05-03T08:48:21.999Z</time></trkpt><trkpt lat="43.456260238565925" lon="12.773327356679312"><ele>1122.9999999999998</ele><time>2026-05-03T08:48:28.999Z</time></trkpt><trkpt lat="43.45632409189058" lon="12.773304559172114"><ele>1123.0</ele><time>2026-05-03T08:48:35.999Z</time></trkpt><trkpt lat="43.45639630184324" lon="12.773298856461677"><ele>1122.8571428571427</ele><time>2026-05-03T08:48:42.999Z</time></trkpt><trkpt lat="43.45646471806125" lon="12.773278069923482"><ele>1122.7142857142858</ele><time>2026-05-03T08:48:49.998Z</time></trkpt><trkpt lat="43.456531122215985" lon="12.773265694132856"><ele>1122.5714285714284</ele><time>2026-05-03T08:48:55.998Z</time></trkpt><trkpt lat="43.456600027201254" lon="12.773252624494049"><ele>1122.4285714285713</ele><time>2026-05-03T08:49:02.998Z</time></trkpt><trkpt lat="43.45666890689964" lon="12.773242834982868"><ele>1122.2857142857142</ele><time>2026-05-03T08:49:12Z</time></trkpt><trkpt lat="43.45673630863673" lon="12.77323671994365"><ele>1122.142857142857</ele><time>2026-05-03T08:49:20Z</time></trkpt><trkpt lat="43.456794320964356" lon="12.773277134316904"><ele>1122.0</ele><time>2026-05-03T08:49:29Z</time></trkpt><trkpt lat="43.45685800122494" lon="12.773248331729585"><ele>1122.0</ele><time>2026-05-03T08:49:36Z</time></trkpt><trkpt lat="43.45691539496445" lon="12.773211435901418"><ele>1122.0</ele><time>2026-05-03T08:49:44Z</time></trkpt><trkpt lat="43.45697954031254" lon="12.773173423827552"><ele>1122.0</ele><time>2026-05-03T08:49:52.999Z</time></trkpt><trkpt lat="43.45701843720368" lon="12.773097239000906"><ele>1122.0</ele><time>2026-05-03T08:50:01.999Z</time></trkpt><trkpt lat="43.45706736629041" lon="12.77303626556541"><ele>1122.0</ele><time>2026-05-03T08:50:11.999Z</time></trkpt><trkpt lat="43.457096253568345" lon="12.772953238836424"><ele>1122.0</ele><time>2026-05-03T08:50:19.999Z</time></trkpt><trkpt lat="43.45713880087892" lon="12.772877907880297"><ele>1122.0</ele><time>2026-05-03T08:50:28.999Z</time></trkpt><trkpt lat="43.45717536526025" lon="12.77280696168754"><ele>1122.4285714285713</ele><time>2026-05-03T08:50:34.999Z</time></trkpt><trkpt lat="43.45720501774827" lon="12.772719471076785"><ele>1122.8571428571427</ele><time>2026-05-03T08:50:41.999Z</time></trkpt><trkpt lat="43.457239755741504" lon="12.772630439925027"><ele>1123.2857142857142</ele><time>2026-05-03T08:50:49.999Z</time></trkpt><trkpt lat="43.4572524956522" lon="12.77253627696305"><ele>1123.7142857142858</ele><time>2026-05-03T08:50:56.998Z</time></trkpt><trkpt lat="43.457266820970624" lon="12.772445894755196"><ele>1124.1428571428573</ele><time>2026-05-03T08:51:06.998Z</time></trkpt><trkpt lat="43.45728244305485" lon="12.772356100042295"><ele>1124.5714285714287</ele><time>2026-05-03T08:51:20Z</time></trkpt><trkpt lat="43.45727797114856" lon="12.77226331882941"><ele>1125.0</ele><time>2026-05-03T08:51:29Z</time></trkpt><trkpt lat="43.45727171740129" lon="12.772168760853669"><ele>1125.0</ele><time>2026-05-03T08:51:38Z</time></trkpt><trkpt lat="43.45727945637957" lon="12.77207586378282"><ele>1125.0</ele><time>2026-05-03T08:51:49Z</time></trkpt><trkpt lat="43.45729702680216" lon="12.771987412912244"><ele>1125.0</ele><time>2026-05-03T08:51:58.999Z</time></trkpt><trkpt lat="43.4573346238826" lon="12.771905236898332"><ele>1125.0</ele><time>2026-05-03T08:52:08.999Z</time></trkpt><trkpt lat="43.457382239866774" lon="12.771844869563319"><ele>1125.0</ele><time>2026-05-03T08:52:16.999Z</time></trkpt><trkpt lat="43.45742909969832" lon="12.771772626571295"><ele>1125.0</ele><time>2026-05-03T08:52:25.999Z</time></trkpt><trkpt lat="43.45748882297684" lon="12.771726871555273"><ele>1125.0</ele><time>2026-05-03T08:52:33.999Z</time></trkpt><trkpt lat="43.45755184181039" lon="12.771688851209325"><ele>1125.0</ele><time>2026-05-03T08:52:41.999Z</time></trkpt><trkpt lat="43.45761475463761" lon="12.771662480538987"><ele>1125.0</ele><time>2026-05-03T08:52:48.999Z</time></trkpt><trkpt lat="43.45765513427012" lon="12.771582014962906"><ele>1125.0</ele><time>2026-05-03T08:52:56.998Z</time></trkpt><trkpt lat="43.457709875368025" lon="12.771527173223522"><ele>1125.0</ele><time>2026-05-03T08:53:04.998Z</time></trkpt><trkpt lat="43.45774594787878" lon="12.771455396661379"><ele>1125.0</ele><time>2026-05-03T08:53:12.998Z</time></trkpt><trkpt lat="43.45776060427673" lon="12.771361991129131"><ele>1125.0</ele><time>2026-05-03T08:53:22Z</time></trkpt><trkpt lat="43.45778157557489" lon="12.77127316366976"><ele>1125.0</ele><time>2026-05-03T08:53:30Z</time></trkpt><trkpt lat="43.45779336050578" lon="12.771182765058946"><ele>1125.0</ele><time>2026-05-03T08:53:40Z</time></trkpt><trkpt lat="43.457811561482515" lon="12.771099274468732"><ele>1125.0</ele><time>2026-05-03T08:53:48Z</time></trkpt><trkpt lat="43.45782876261743" lon="12.771014005502169"><ele>1125.0</ele><time>2026-05-03T08:53:57Z</time></trkpt><trkpt lat="43.45783817330204" lon="12.770908174895128"><ele>1125.0</ele><time>2026-05-03T08:54:28.999Z</time></trkpt><trkpt lat="43.45788619724544" lon="12.770835478189902"><ele>1125.0</ele><time>2026-05-03T08:54:48.999Z</time></trkpt><trkpt lat="43.45794653379563" lon="12.770797512352324"><ele>1125.0</ele><time>2026-05-03T08:54:59.998Z</time></trkpt><trkpt lat="43.45800876164696" lon="12.770778027713547"><ele>1125.0</ele><time>2026-05-03T08:55:10.998Z</time></trkpt><trkpt lat="43.458066882798114" lon="12.770743611270081"><ele>1125.857142857143</ele><time>2026-05-03T08:55:18.998Z</time></trkpt><trkpt lat="43.458121171746264" lon="12.770691869810701"><ele>1126.7142857142858</ele><time>2026-05-03T08:55:27Z</time></trkpt><trkpt lat="43.4581685433468" lon="12.77062101321689"><ele>1127.5714285714287</ele><time>2026-05-03T08:55:37Z</time></trkpt><trkpt lat="43.45821031126256" lon="12.77055493307026"><ele>1128.4285714285716</ele><time>2026-05-03T08:55:45Z</time></trkpt><trkpt lat="43.45825319846701" lon="12.770483767434154"><ele>1129.2857142857142</ele><time>2026-05-03T08:55:53Z</time></trkpt><trkpt lat="43.458295029541645" lon="12.77041237385981"><ele>1130.1428571428573</ele><time>2026-05-03T08:56:01Z</time></trkpt><trkpt lat="43.45831344037212" lon="12.770317557397531"><ele>1131.0</ele><time>2026-05-03T08:56:11.999Z</time></trkpt><trkpt lat="43.458347286724745" lon="12.77023186328505"><ele>1129.857142857143</ele><time>2026-05-03T08:56:19.999Z</time></trkpt><trkpt lat="43.45838147454088" lon="12.770142370747337"><ele>1128.7142857142858</ele><time>2026-05-03T08:56:27.999Z</time></trkpt><trkpt lat="43.45841818240189" lon="12.770057751996498"><ele>1127.5714285714284</ele><time>2026-05-03T08:56:34.999Z</time></trkpt><trkpt lat="43.458431800199634" lon="12.769969971709118"><ele>1126.4285714285716</ele><time>2026-05-03T08:56:41.999Z</time></trkpt><trkpt lat="43.45843427324945" lon="12.769870178462858"><ele>1125.2857142857142</ele><time>2026-05-03T08:56:49.999Z</time></trkpt><trkpt lat="43.4584356796891" lon="12.769778657020618"><ele>1124.142857142857</ele><time>2026-05-03T08:56:57.999Z</time></trkpt><trkpt lat="43.458440188255445" lon="12.769690033338804"><ele>1123.0</ele><time>2026-05-03T08:57:05.998Z</time></trkpt><trkpt lat="43.45838965239911" lon="12.769619190223537"><ele>1122.9999999999998</ele><time>2026-05-03T08:57:12.998Z</time></trkpt><trkpt lat="43.458339263880276" lon="12.769552015825823"><ele>1123.0</ele><time>2026-05-03T08:57:19.998Z</time></trkpt><trkpt lat="43.45831430840093" lon="12.769463493608692"><ele>1123.0</ele><time>2026-05-03T08:57:27.998Z</time></trkpt><trkpt lat="43.45833441212388" lon="12.769374957285706"><ele>1123.0</ele><time>2026-05-03T08:57:39Z</time></trkpt><trkpt lat="43.458332500165646" lon="12.769265300648275"><ele>1123.0</ele><time>2026-05-03T08:58:55.999Z</time></trkpt><trkpt lat="43.45835738846522" lon="12.769181555091775"><ele>1122.9999999999998</ele><time>2026-05-03T08:59:07.999Z</time></trkpt><trkpt lat="43.458423736120444" lon="12.769150167237024"><ele>1123.0</ele><time>2026-05-03T08:59:17.998Z</time></trkpt><trkpt lat="43.45848232062425" lon="12.769107595729013"><ele>1122.2857142857142</ele><time>2026-05-03T08:59:27.998Z</time></trkpt><trkpt lat="43.45852777427795" lon="12.769045253488702"><ele>1121.5714285714284</ele><time>2026-05-03T08:59:36Z</time></trkpt><trkpt lat="43.45855299948954" lon="12.768965665669521"><ele>1120.857142857143</ele><time>2026-05-03T08:59:43Z</time></trkpt><trkpt lat="43.458595815011265" lon="12.76890102338391"><ele>1120.142857142857</ele><time>2026-05-03T08:59:54Z</time></trkpt><trkpt lat="43.458640865699564" lon="12.768838014026583"><ele>1119.4285714285716</ele><time>2026-05-03T09:00:09Z</time></trkpt><trkpt lat="43.45870153539848" lon="12.768786944737766"><ele>1118.7142857142858</ele><time>2026-05-03T09:00:19.999Z</time></trkpt><trkpt lat="43.45871014080462" lon="12.768698411141767"><ele>1118.0</ele><time>2026-05-03T09:01:01.999Z</time></trkpt><trkpt lat="43.45876061879857" lon="12.76864195763125"><ele>1117.7142857142858</ele><time>2026-05-03T09:01:10.999Z</time></trkpt><trkpt lat="43.45879977840892" lon="12.768570307369023"><ele>1117.4285714285716</ele><time>2026-05-03T09:01:17.998Z</time></trkpt><trkpt lat="43.45885146938562" lon="12.768505170043191"><ele>1117.142857142857</ele><time>2026-05-03T09:01:25.998Z</time></trkpt><trkpt lat="43.45890408912612" lon="12.768434546223911"><ele>1116.857142857143</ele><time>2026-05-03T09:01:33.998Z</time></trkpt><trkpt lat="43.458963171813124" lon="12.768385088410318"><ele>1116.5714285714284</ele><time>2026-05-03T09:01:41Z</time></trkpt><trkpt lat="43.45901459089155" lon="12.768331649358986"><ele>1116.2857142857142</ele><time>2026-05-03T09:01:49Z</time></trkpt><trkpt lat="43.4590681082511" lon="12.768277043489755"><ele>1116.0</ele><time>2026-05-03T09:01:57Z</time></trkpt><trkpt lat="43.4591196106533" lon="12.768223760875479"><ele>1115.9999999999998</ele><time>2026-05-03T09:02:07Z</time></trkpt><trkpt lat="43.45917136688628" lon="12.768165360795184"><ele>1116.0</ele><time>2026-05-03T09:02:20Z</time></trkpt><trkpt lat="43.45922257769972" lon="12.768096287660132"><ele>1116.0</ele><time>2026-05-03T09:02:33.999Z</time></trkpt><trkpt lat="43.45928583517279" lon="12.768059260246881"><ele>1116.0</ele><time>2026-05-03T09:02:41.999Z</time></trkpt><trkpt lat="43.45934790621517" lon="12.768043000333677"><ele>1116.0</ele><time>2026-05-03T09:02:48.999Z</time></trkpt><trkpt lat="43.45943712349373" lon="12.767993353084403"><ele>1115.9999999999998</ele><time>2026-05-03T09:03:19.998Z</time></trkpt><trkpt lat="43.45949765451428" lon="12.767942992646248"><ele>1116.0</ele><time>2026-05-03T09:03:29.998Z</time></trkpt><trkpt lat="43.45956381291647" lon="12.767929029119774"><ele>1113.9999999999998</ele><time>2026-05-03T09:03:40.998Z</time></trkpt><trkpt lat="43.4596344745401" lon="12.76791080534413"><ele>1112.0</ele><time>2026-05-03T09:03:51Z</time></trkpt><trkpt lat="43.459702027590595" lon="12.76785627336028"><ele>1110.0</ele><time>2026-05-03T09:04:30.999Z</time></trkpt><trkpt lat="43.45976651330212" lon="12.767883282940256"><ele>1108.0</ele><time>2026-05-03T09:04:44.999Z</time></trkpt><trkpt lat="43.45983076911412" lon="12.767859112715277"><ele>1106.0</ele><time>2026-05-03T09:04:54.999Z</time></trkpt><trkpt lat="43.45989694629523" lon="12.767835795566379"><ele>1103.9999999999998</ele><time>2026-05-03T09:05:04.999Z</time></trkpt><trkpt lat="43.45995880577057" lon="12.767797207466941"><ele>1102.0</ele><time>2026-05-03T09:05:12.999Z</time></trkpt><trkpt lat="43.46002329430374" lon="12.767761717212222"><ele>1101.9999999999998</ele><time>2026-05-03T09:05:23.999Z</time></trkpt><trkpt lat="43.46008281924105" lon="12.767730859591332"><ele>1102.0</ele><time>2026-05-03T09:05:30.998Z</time></trkpt><trkpt lat="43.460144850166465" lon="12.767708196141713"><ele>1102.0</ele><time>2026-05-03T09:05:40.998Z</time></trkpt><trkpt lat="43.46021330744978" lon="12.767681674248756"><ele>1102.0</ele><time>2026-05-03T09:05:57Z</time></trkpt><trkpt lat="43.460277871270456" lon="12.767642397638728"><ele>1102.0</ele><time>2026-05-03T09:06:06Z</time></trkpt><trkpt lat="43.46033500184959" lon="12.767601207064796"><ele>1101.9999999999998</ele><time>2026-05-03T09:06:22Z</time></trkpt><trkpt lat="43.46040519097372" lon="12.767587571744942"><ele>1102.0</ele><time>2026-05-03T09:06:32.999Z</time></trkpt><trkpt lat="43.460440898771104" lon="12.767515249656006"><ele>1101.5714285714284</ele><time>2026-05-03T09:06:38.999Z</time></trkpt><trkpt lat="43.46044593264605" lon="12.76742772028446"><ele>1101.142857142857</ele><time>2026-05-03T09:06:46.999Z</time></trkpt><trkpt lat="43.46043132658417" lon="12.767332815430121"><ele>1100.7142857142858</ele><time>2026-05-03T09:06:55.999Z</time></trkpt><trkpt lat="43.46040184577484" lon="12.767252696564324"><ele>1100.2857142857142</ele><time>2026-05-03T09:07:05.999Z</time></trkpt><trkpt lat="43.46039568237112" lon="12.767145343458726"><ele>1099.857142857143</ele><time>2026-05-03T09:09:12.999Z</time></trkpt><trkpt lat="43.46045576255578" lon="12.767188888180673"><ele>1099.4285714285713</ele><time>2026-05-03T09:09:57.998Z</time></trkpt><trkpt lat="43.4605193867434" lon="12.767214518198813"><ele>1099.0</ele><time>2026-05-03T09:10:08Z</time></trkpt><trkpt lat="43.46058268657528" lon="12.767217401363286"><ele>1099.0</ele><time>2026-05-03T09:10:18Z</time></trkpt><trkpt lat="43.46064597621899" lon="12.767193486727782"><ele>1099.0</ele><time>2026-05-03T09:10:39Z</time></trkpt><trkpt lat="43.46071150995623" lon="12.767159473239445"><ele>1099.0</ele><time>2026-05-03T09:10:47.999Z</time></trkpt><trkpt lat="43.460777527054596" lon="12.767160232937979"><ele>1099.0</ele><time>2026-05-03T09:10:58.999Z</time></trkpt><trkpt lat="43.460843057587994" lon="12.767190402952162"><ele>1099.0</ele><time>2026-05-03T09:11:07.999Z</time></trkpt><trkpt lat="43.46090600961724" lon="12.767116150520668"><ele>1099.0</ele><time>2026-05-03T09:11:46.998Z</time></trkpt><trkpt lat="43.460968790359416" lon="12.76709551016925"><ele>1099.0</ele><time>2026-05-03T09:11:57.998Z</time></trkpt><trkpt lat="43.46104303347802" lon="12.767080855359625"><ele>1099.0</ele><time>2026-05-03T09:12:20Z</time></trkpt><trkpt lat="43.46110824636532" lon="12.767071900193976"><ele>1099.0</ele><time>2026-05-03T09:12:45Z</time></trkpt><trkpt lat="43.461179266680716" lon="12.767054747090752"><ele>1099.0</ele><time>2026-05-03T09:12:59.999Z</time></trkpt><trkpt lat="43.46123691281845" lon="12.767006623872302"><ele>1099.0</ele><time>2026-05-03T09:13:12.999Z</time></trkpt><trkpt lat="43.46130124092403" lon="12.76698662518894"><ele>1099.0</ele><time>2026-05-03T09:13:23.999Z</time></trkpt><trkpt lat="43.46136368592836" lon="12.76697556907029"><ele>1099.0</ele><time>2026-05-03T09:13:38.999Z</time></trkpt><trkpt lat="43.46142444299296" lon="12.766942685664057"><ele>1099.0</ele><time>2026-05-03T09:13:46.999Z</time></trkpt><trkpt lat="43.46148969799195" lon="12.766907982277743"><ele>1089.0</ele><time>2026-05-03T09:13:56.998Z</time></trkpt><trkpt lat="43.46154953982816" lon="12.7668624670952"><ele>1089.0</ele><time>2026-05-03T09:14:41Z</time></trkpt></trkseg><trkseg><trkpt lat="43.461485535706075" lon="12.766901722224127"><ele>1089.0000000000002</ele><time>2026-05-03T09:28:48.999Z</time></trkpt><trkpt lat="43.4614180423202" lon="12.766920595136073"><ele>1089.0</ele><time>2026-05-03T09:29:00.999Z</time></trkpt><trkpt lat="43.4613602276306" lon="12.766961245409583"><ele>1089.0</ele><time>2026-05-03T09:29:10.999Z</time></trkpt><trkpt lat="43.46129291150045" lon="12.766979056856464"><ele>1089.0</ele><time>2026-05-03T09:29:18.999Z</time></trkpt><trkpt lat="43.461226103507194" lon="12.766988054547243"><ele>1089.0</ele><time>2026-05-03T09:29:28Z</time></trkpt><trkpt lat="43.461166595233124" lon="12.767019311552492"><ele>1089.0000000000002</ele><time>2026-05-03T09:29:39Z</time></trkpt><trkpt lat="43.46110544675319" lon="12.767064989404183"><ele>1089.0</ele><time>2026-05-03T09:29:48Z</time></trkpt><trkpt lat="43.46103915027425" lon="12.76708447342479"><ele>1090.4285714285716</ele><time>2026-05-03T09:29:59Z</time></trkpt><trkpt lat="43.46097530984859" lon="12.767079282502594"><ele>1091.857142857143</ele><time>2026-05-03T09:30:06Z</time></trkpt><trkpt lat="43.460909877278404" lon="12.76710184812194"><ele>1093.2857142857142</ele><time>2026-05-03T09:30:15Z</time></trkpt><trkpt lat="43.46084756365532" lon="12.767132589716226"><ele>1094.7142857142858</ele><time>2026-05-03T09:30:22.999Z</time></trkpt><trkpt lat="43.46078167545724" lon="12.767130292559354"><ele>1096.142857142857</ele><time>2026-05-03T09:30:32.999Z</time></trkpt><trkpt lat="43.46071009995876" lon="12.767140283083322"><ele>1097.5714285714287</ele><time>2026-05-03T09:30:41.999Z</time></trkpt><trkpt lat="43.460644728789894" lon="12.76718153313723"><ele>1099.0</ele><time>2026-05-03T09:30:48.999Z</time></trkpt><trkpt lat="43.46057509043999" lon="12.767192678261727"><ele>1099.0</ele><time>2026-05-03T09:30:55.999Z</time></trkpt><trkpt lat="43.46050715901924" lon="12.767199022260728"><ele>1099.0</ele><time>2026-05-03T09:31:03.999Z</time></trkpt><trkpt lat="43.46043635410774" lon="12.767177872405734"><ele>1099.0</ele><time>2026-05-03T09:31:12.999Z</time></trkpt><trkpt lat="43.46037145966429" lon="12.767166537599309"><ele>1099.0</ele><time>2026-05-03T09:31:22.999Z</time></trkpt><trkpt lat="43.46038894425076" lon="12.767261025946922"><ele>1099.0</ele><time>2026-05-03T09:31:34Z</time></trkpt><trkpt lat="43.46042291085825" lon="12.767338719646066"><ele>1099.0</ele><time>2026-05-03T09:31:41Z</time></trkpt><trkpt lat="43.46044012334216" lon="12.767427978083141"><ele>1099.0</ele><time>2026-05-03T09:31:47Z</time></trkpt><trkpt lat="43.46042607696445" lon="12.767517420729664"><ele>1098.857142857143</ele><time>2026-05-03T09:31:54Z</time></trkpt><trkpt lat="43.46040933833698" lon="12.767605268057869"><ele>1098.7142857142858</ele><time>2026-05-03T09:32:05Z</time></trkpt><trkpt lat="43.4603608155578" lon="12.76766789682574"><ele>1098.5714285714284</ele><time>2026-05-03T09:32:14Z</time></trkpt><trkpt lat="43.46033838716196" lon="12.767755128322188"><ele>1098.4285714285716</ele><time>2026-05-03T09:32:21Z</time></trkpt><trkpt lat="43.46030513146102" lon="12.767831519804494"><ele>1098.2857142857142</ele><time>2026-05-03T09:32:30Z</time></trkpt><trkpt lat="43.46026132643903" lon="12.767907661203752"><ele>1098.142857142857</ele><time>2026-05-03T09:33:46Z</time></trkpt><trkpt lat="43.46021434182569" lon="12.76796965171209"><ele>1098.0</ele><time>2026-05-03T09:33:53Z</time></trkpt><trkpt lat="43.460159224716875" lon="12.768015708814096"><ele>1098.5714285714284</ele><time>2026-05-03T09:34:01Z</time></trkpt><trkpt lat="43.460108571077754" lon="12.768081249612413"><ele>1099.142857142857</ele><time>2026-05-03T09:34:10Z</time></trkpt><trkpt lat="43.460046567533276" lon="12.768107477016443"><ele>1099.7142857142858</ele><time>2026-05-03T09:34:22.999Z</time></trkpt><trkpt lat="43.4599918566851" lon="12.76815385723803"><ele>1100.2857142857142</ele><time>2026-05-03T09:34:34.999Z</time></trkpt><trkpt lat="43.45992578941633" lon="12.768124627265374"><ele>1100.857142857143</ele><time>2026-05-03T09:34:47.999Z</time></trkpt><trkpt lat="43.4598692131273" lon="12.768165438358366"><ele>1101.4285714285713</ele><time>2026-05-03T09:34:57.999Z</time></trkpt><trkpt lat="43.459804579878664" lon="12.768165160874343"><ele>1102.0</ele><time>2026-05-03T09:35:08.999Z</time></trkpt><trkpt lat="43.45974060738639" lon="12.768150288512482"><ele>1101.9999999999998</ele><time>2026-05-03T09:35:21.999Z</time></trkpt><trkpt lat="43.45967537921994" lon="12.768162884685697"><ele>1102.0</ele><time>2026-05-03T09:35:39.998Z</time></trkpt><trkpt lat="43.45961074283608" lon="12.768153832637662"><ele>1102.0</ele><time>2026-05-03T09:35:50Z</time></trkpt><trkpt lat="43.4595667117451" lon="12.76822122741837"><ele>1102.0</ele><time>2026-05-03T09:36:02Z</time></trkpt><trkpt lat="43.459503291855384" lon="12.768244181233683"><ele>1102.0</ele><time>2026-05-03T09:36:11Z</time></trkpt><trkpt lat="43.459439122907156" lon="12.768230768553929"><ele>1101.9999999999998</ele><time>2026-05-03T09:36:21Z</time></trkpt><trkpt lat="43.459378224964176" lon="12.76825577945164"><ele>1102.0</ele><time>2026-05-03T09:36:30Z</time></trkpt><trkpt lat="43.45931519636827" lon="12.768263831788293"><ele>1103.9999999999998</ele><time>2026-05-03T09:36:39.999Z</time></trkpt><trkpt lat="43.4592515740807" lon="12.768275776607194"><ele>1106.0</ele><time>2026-05-03T09:36:52.999Z</time></trkpt><trkpt lat="43.45918972898383" lon="12.768256253964012"><ele>1108.0</ele><time>2026-05-03T09:37:04.999Z</time></trkpt><trkpt lat="43.45912434748289" lon="12.768267317668098"><ele>1110.0</ele><time>2026-05-03T09:37:17.999Z</time></trkpt><trkpt lat="43.45907333731157" lon="12.768328035629864"><ele>1112.0</ele><time>2026-05-03T09:37:26.999Z</time></trkpt><trkpt lat="43.459013313493685" lon="12.768376678710029"><ele>1113.9999999999998</ele><time>2026-05-03T09:37:35.999Z</time></trkpt><trkpt lat="43.4589504105564" lon="12.76842536026782"><ele>1116.0</ele><time>2026-05-03T09:37:43.999Z</time></trkpt><trkpt lat="43.4589109901758" lon="12.768503786422883"><ele>1116.2857142857142</ele><time>2026-05-03T09:37:50.999Z</time></trkpt><trkpt lat="43.458887181442044" lon="12.768594162879934"><ele>1116.5714285714284</ele><time>2026-05-03T09:37:59Z</time></trkpt><trkpt lat="43.45886976068571" lon="12.76867887573829"><ele>1116.857142857143</ele><time>2026-05-03T09:38:07Z</time></trkpt><trkpt lat="43.45885483297371" lon="12.768768112867491"><ele>1117.142857142857</ele><time>2026-05-03T09:38:16Z</time></trkpt><trkpt lat="43.4588287154625" lon="12.768847852605395"><ele>1117.4285714285716</ele><time>2026-05-03T09:38:24Z</time></trkpt><trkpt lat="43.45877881396734" lon="12.768907648201232"><ele>1117.7142857142858</ele><time>2026-05-03T09:38:32Z</time></trkpt><trkpt lat="43.45871721555679" lon="12.76892836374956"><ele>1118.0</ele><time>2026-05-03T09:38:40Z</time></trkpt><trkpt lat="43.4586589750392" lon="12.76898126139744"><ele>1118.0</ele><time>2026-05-03T09:38:47.999Z</time></trkpt><trkpt lat="43.45860320445377" lon="12.769031477948063"><ele>1118.0</ele><time>2026-05-03T09:38:54.999Z</time></trkpt><trkpt lat="43.45854749595993" lon="12.769079005696558"><ele>1118.0</ele><time>2026-05-03T09:39:01.999Z</time></trkpt><trkpt lat="43.45848573136341" lon="12.7691146374239"><ele>1118.0</ele><time>2026-05-03T09:39:08.999Z</time></trkpt><trkpt lat="43.458414244006654" lon="12.769136976642713"><ele>1118.0</ele><time>2026-05-03T09:39:16.999Z</time></trkpt><trkpt lat="43.45835297329412" lon="12.769170320934613"><ele>1118.0</ele><time>2026-05-03T09:39:23.999Z</time></trkpt><trkpt lat="43.458326020958346" lon="12.769251982326175"><ele>1118.0</ele><time>2026-05-03T09:39:30.999Z</time></trkpt><trkpt lat="43.458321655814245" lon="12.769344402628501"><ele>1118.7142857142858</ele><time>2026-05-03T09:39:40.999Z</time></trkpt><trkpt lat="43.45830527693261" lon="12.769435354439699"><ele>1119.4285714285716</ele><time>2026-05-03T09:39:50.999Z</time></trkpt><trkpt lat="43.458315930682836" lon="12.76952212890828"><ele>1120.142857142857</ele><time>2026-05-03T09:39:59Z</time></trkpt><trkpt lat="43.45835732241668" lon="12.76960108204291"><ele>1120.857142857143</ele><time>2026-05-03T09:40:07Z</time></trkpt><trkpt lat="43.45840044964535" lon="12.769666967604007"><ele>1121.5714285714284</ele><time>2026-05-03T09:40:14Z</time></trkpt><trkpt lat="43.458424414449716" lon="12.769757914212825"><ele>1122.2857142857142</ele><time>2026-05-03T09:40:23Z</time></trkpt><trkpt lat="43.45841966214536" lon="12.769845196142159"><ele>1123.0</ele><time>2026-05-03T09:40:30Z</time></trkpt><trkpt lat="43.4584179851974" lon="12.769943721924925"><ele>1122.9999999999998</ele><time>2026-05-03T09:40:38Z</time></trkpt><trkpt lat="43.458412135351345" lon="12.770034551410324"><ele>1123.0</ele><time>2026-05-03T09:40:46Z</time></trkpt><trkpt lat="43.45837883671767" lon="12.77011264923121"><ele>1123.0</ele><time>2026-05-03T09:40:53Z</time></trkpt><trkpt lat="43.458349598688656" lon="12.770189541727623"><ele>1123.0</ele><time>2026-05-03T09:40:59.999Z</time></trkpt><trkpt lat="43.45831474724149" lon="12.77027060344657"><ele>1123.0</ele><time>2026-05-03T09:41:07.999Z</time></trkpt><trkpt lat="43.458271090481546" lon="12.770347754642732"><ele>1122.9999999999998</ele><time>2026-05-03T09:41:15.999Z</time></trkpt><trkpt lat="43.45822828228712" lon="12.770424760943857"><ele>1123.0</ele><time>2026-05-03T09:41:23.999Z</time></trkpt><trkpt lat="43.4581802158177" lon="12.770482280401156"><ele>1124.142857142857</ele><time>2026-05-03T09:41:29.999Z</time></trkpt><trkpt lat="43.45813547629277" lon="12.77055190615059"><ele>1125.2857142857142</ele><time>2026-05-03T09:41:38.999Z</time></trkpt><trkpt lat="43.45807710067364" lon="12.770600593218667"><ele>1126.4285714285716</ele><time>2026-05-03T09:41:46.999Z</time></trkpt><trkpt lat="43.45802259549916" lon="12.770651829491982"><ele>1127.5714285714284</ele><time>2026-05-03T09:41:54.999Z</time></trkpt><trkpt lat="43.45796039101266" lon="12.770691356263217"><ele>1128.7142857142858</ele><time>2026-05-03T09:42:04Z</time></trkpt><trkpt lat="43.457891850080784" lon="12.770717284796246"><ele>1129.857142857143</ele><time>2026-05-03T09:42:13Z</time></trkpt><trkpt lat="43.457832399337335" lon="12.770750733118179"><ele>1131.0</ele><time>2026-05-03T09:42:22Z</time></trkpt><trkpt lat="43.45776805357372" lon="12.770783638722895"><ele>1130.1428571428573</ele><time>2026-05-03T09:42:31Z</time></trkpt><trkpt lat="43.457724830065196" lon="12.770856916247032"><ele>1129.2857142857142</ele><time>2026-05-03T09:42:41Z</time></trkpt><trkpt lat="43.457688131062646" lon="12.770938883444114"><ele>1128.4285714285716</ele><time>2026-05-03T09:42:51Z</time></trkpt><trkpt lat="43.4576724694409" lon="12.771025839455078"><ele>1127.5714285714287</ele><time>2026-05-03T09:42:57.999Z</time></trkpt><trkpt lat="43.457656619982856" lon="12.77111337201097"><ele>1126.7142857142858</ele><time>2026-05-03T09:43:04.999Z</time></trkpt><trkpt lat="43.457650445247666" lon="12.771210184179182"><ele>1125.857142857143</ele><time>2026-05-03T09:43:12.999Z</time></trkpt><trkpt lat="43.457636287745984" lon="12.771306601898095"><ele>1125.0</ele><time>2026-05-03T09:43:21.999Z</time></trkpt><trkpt lat="43.45762585747015" lon="12.771405363475333"><ele>1125.0</ele><time>2026-05-03T09:43:30.999Z</time></trkpt><trkpt lat="43.45759600838065" lon="12.77149845035947"><ele>1125.0</ele><time>2026-05-03T09:43:37.999Z</time></trkpt><trkpt lat="43.457568059576595" lon="12.771587824015555"><ele>1125.0</ele><time>2026-05-03T09:43:44.999Z</time></trkpt><trkpt lat="43.45753407891443" lon="12.77166140633877"><ele>1125.0</ele><time>2026-05-03T09:43:51.999Z</time></trkpt><trkpt lat="43.45749123088345" lon="12.771727307234048"><ele>1125.0</ele><time>2026-05-03T09:43:58.998Z</time></trkpt><trkpt lat="43.45744334251752" lon="12.771796275941389"><ele>1125.0</ele><time>2026-05-03T09:44:06.998Z</time></trkpt><trkpt lat="43.45738666889755" lon="12.77183913061252"><ele>1125.0</ele><time>2026-05-03T09:44:15Z</time></trkpt><trkpt lat="43.45732641232236" lon="12.77187868401415"><ele>1125.4285714285716</ele><time>2026-05-03T09:44:25Z</time></trkpt><trkpt lat="43.457287692704696" lon="12.771953639430171"><ele>1125.857142857143</ele><time>2026-05-03T09:44:34Z</time></trkpt><trkpt lat="43.45726160388966" lon="12.772038702040993"><ele>1126.2857142857142</ele><time>2026-05-03T09:44:44Z</time></trkpt><trkpt lat="43.457255837266594" lon="12.772132409610306"><ele>1126.7142857142858</ele><time>2026-05-03T09:44:55Z</time></trkpt><trkpt lat="43.45726312253665" lon="12.772225342119281"><ele>1127.142857142857</ele><time>2026-05-03T09:45:03.999Z</time></trkpt><trkpt lat="43.45726986420113" lon="12.772312072553085"><ele>1127.5714285714287</ele><time>2026-05-03T09:45:11.999Z</time></trkpt><trkpt lat="43.45725744104295" lon="12.772410322235334"><ele>1128.0</ele><time>2026-05-03T09:45:19.999Z</time></trkpt><trkpt lat="43.4572357616194" lon="12.772503757458662"><ele>1128.0</ele><time>2026-05-03T09:45:26.999Z</time></trkpt><trkpt lat="43.457209467520165" lon="12.77258366118942"><ele>1128.0</ele><time>2026-05-03T09:45:32.999Z</time></trkpt><trkpt lat="43.457174777293964" lon="12.772668754725833"><ele>1128.0</ele><time>2026-05-03T09:45:40.999Z</time></trkpt><trkpt lat="43.45713554637062" lon="12.772750848598678"><ele>1128.0</ele><time>2026-05-03T09:45:48.999Z</time></trkpt><trkpt lat="43.45710224203835" lon="12.772830172751696"><ele>1128.0</ele><time>2026-05-03T09:45:56.998Z</time></trkpt><trkpt lat="43.45706328490845" lon="12.772909636535315"><ele>1128.0</ele><time>2026-05-03T09:46:06.998Z</time></trkpt><trkpt lat="43.45704024329034" lon="12.772996677455048"><ele>1128.0</ele><time>2026-05-03T09:46:13.998Z</time></trkpt><trkpt lat="43.45700703451303" lon="12.773078797389726"><ele>1127.142857142857</ele><time>2026-05-03T09:46:22Z</time></trkpt><trkpt lat="43.45696680679699" lon="12.773153814753677"><ele>1126.2857142857142</ele><time>2026-05-03T09:46:31Z</time></trkpt><trkpt lat="43.456910423995744" lon="12.773198199915548"><ele>1125.4285714285713</ele><time>2026-05-03T09:46:39Z</time></trkpt><trkpt lat="43.456845366468414" lon="12.773238947794994"><ele>1124.5714285714284</ele><time>2026-05-03T09:46:49Z</time></trkpt><trkpt lat="43.45678247798849" lon="12.773253739392066"><ele>1123.7142857142856</ele><time>2026-05-03T09:46:57Z</time></trkpt><trkpt lat="43.456729966334706" lon="12.773205154754272"><ele>1122.857142857143</ele><time>2026-05-03T09:47:08.999Z</time></trkpt><trkpt lat="43.45666792181673" lon="12.773220421028679"><ele>1122.0</ele><time>2026-05-03T09:47:15.999Z</time></trkpt><trkpt lat="43.45660066399687" lon="12.773236488575147"><ele>1122.0</ele><time>2026-05-03T09:47:22.999Z</time></trkpt><trkpt lat="43.45653198695345" lon="12.773250194564575"><ele>1122.0</ele><time>2026-05-03T09:47:29.999Z</time></trkpt><trkpt lat="43.456465031104486" lon="12.773259980815592"><ele>1122.0</ele><time>2026-05-03T09:47:36.999Z</time></trkpt><trkpt lat="43.45640249390746" lon="12.77329118931924"><ele>1122.0</ele><time>2026-05-03T09:48:00.998Z</time></trkpt><trkpt lat="43.456358500907086" lon="12.773356735447795"><ele>1122.0</ele><time>2026-05-03T09:48:13.998Z</time></trkpt><trkpt lat="43.456308107360144" lon="12.773419205723119"><ele>1122.0</ele><time>2026-05-03T09:48:27Z</time></trkpt><trkpt lat="43.45625404099878" lon="12.7735188340959"><ele>1122.0</ele><time>2026-05-03T09:48:48Z</time></trkpt><trkpt lat="43.45619748514031" lon="12.773565973801249"><ele>1121.4285714285713</ele><time>2026-05-03T09:49:01Z</time></trkpt><trkpt lat="43.45614469319698" lon="12.773614612243009"><ele>1120.8571428571427</ele><time>2026-05-03T09:49:13.999Z</time></trkpt><trkpt lat="43.45607941099248" lon="12.773635753132222"><ele>1120.2857142857142</ele><time>2026-05-03T09:49:24.999Z</time></trkpt><trkpt lat="43.45602416449715" lon="12.773678278551701"><ele>1119.7142857142858</ele><time>2026-05-03T09:49:35.999Z</time></trkpt><trkpt lat="43.45596664544395" lon="12.77371793944519"><ele>1119.1428571428573</ele><time>2026-05-03T09:49:49.999Z</time></trkpt><trkpt lat="43.45591044104493" lon="12.773761124300112"><ele>1118.5714285714287</ele><time>2026-05-03T09:50:01.999Z</time></trkpt><trkpt lat="43.45584949130277" lon="12.773788357511577"><ele>1118.0</ele><time>2026-05-03T09:50:10.998Z</time></trkpt><trkpt lat="43.45578608175524" lon="12.773794148219583"><ele>1118.0</ele><time>2026-05-03T09:50:21.998Z</time></trkpt><trkpt lat="43.45572221251482" lon="12.773815357437357"><ele>1118.0</ele><time>2026-05-03T09:50:34Z</time></trkpt><trkpt lat="43.45565792526653" lon="12.773792406920728"><ele>1118.0</ele><time>2026-05-03T09:50:45Z</time></trkpt><trkpt lat="43.45558873621355" lon="12.773757254773884"><ele>1118.0</ele><time>2026-05-03T09:50:53Z</time></trkpt><trkpt lat="43.45551646071741" lon="12.773759698630192"><ele>1118.0</ele><time>2026-05-03T09:51:04Z</time></trkpt><trkpt lat="43.45546078576425" lon="12.773712390694701"><ele>1118.0</ele><time>2026-05-03T09:51:39.999Z</time></trkpt><trkpt lat="43.45540133826697" lon="12.773683282765955"><ele>1118.0</ele><time>2026-05-03T09:51:47.999Z</time></trkpt><trkpt lat="43.4553362060978" lon="12.773648132166866"><ele>1117.4285714285716</ele><time>2026-05-03T09:51:56.999Z</time></trkpt><trkpt lat="43.45528066198515" lon="12.77360386062981"><ele>1116.857142857143</ele><time>2026-05-03T09:52:05.999Z</time></trkpt><trkpt lat="43.455217512921806" lon="12.773565101044822"><ele>1116.2857142857142</ele><time>2026-05-03T09:52:13.998Z</time></trkpt><trkpt lat="43.45514622000879" lon="12.773552745060078"><ele>1115.7142857142858</ele><time>2026-05-03T09:52:21.998Z</time></trkpt><trkpt lat="43.45508477325606" lon="12.773525990185481"><ele>1115.142857142857</ele><time>2026-05-03T09:52:27.998Z</time></trkpt><trkpt lat="43.45501655131937" lon="12.773548066307045"><ele>1114.5714285714287</ele><time>2026-05-03T09:52:37Z</time></trkpt><trkpt lat="43.454950410080095" lon="12.773566051312926"><ele>1114.0</ele><time>2026-05-03T09:52:44Z</time></trkpt><trkpt lat="43.454887976343116" lon="12.773585317991273"><ele>1114.0</ele><time>2026-05-03T09:52:51Z</time></trkpt><trkpt lat="43.45482131917389" lon="12.773612900939499"><ele>1114.0</ele><time>2026-05-03T09:52:58Z</time></trkpt><trkpt lat="43.45475294655326" lon="12.773646272816894"><ele>1114.0</ele><time>2026-05-03T09:53:05Z</time></trkpt><trkpt lat="43.454681475564264" lon="12.77368121818732"><ele>1114.0</ele><time>2026-05-03T09:53:12.999Z</time></trkpt><trkpt lat="43.45461825037533" lon="12.773684312852046"><ele>1114.0</ele><time>2026-05-03T09:53:19.999Z</time></trkpt><trkpt lat="43.4545496084986" lon="12.773701105824015"><ele>1114.0</ele><time>2026-05-03T09:53:25.999Z</time></trkpt><trkpt lat="43.45448148575514" lon="12.773708855398596"><ele>1114.0</ele><time>2026-05-03T09:53:31.999Z</time></trkpt><trkpt lat="43.45442154645903" lon="12.77374644367065"><ele>1114.0</ele><time>2026-05-03T09:53:38.999Z</time></trkpt><trkpt lat="43.45436815174412" lon="12.773798289073092"><ele>1114.0</ele><time>2026-05-03T09:53:45.999Z</time></trkpt><trkpt lat="43.454305872952546" lon="12.773833170444881"><ele>1114.0</ele><time>2026-05-03T09:53:53.999Z</time></trkpt><trkpt lat="43.454253633996736" lon="12.773881675897854"><ele>1114.0</ele><time>2026-05-03T09:54:00.999Z</time></trkpt><trkpt lat="43.4542025726541" lon="12.77394731178057"><ele>1114.0</ele><time>2026-05-03T09:54:09.999Z</time></trkpt><trkpt lat="43.454151297699646" lon="12.773998184962245"><ele>1114.0</ele><time>2026-05-03T09:54:15.998Z</time></trkpt><trkpt lat="43.4540863632275" lon="12.774038791871867"><ele>1114.0</ele><time>2026-05-03T09:54:22.998Z</time></trkpt><trkpt lat="43.454030850817446" lon="12.77408529706235"><ele>1114.0</ele><time>2026-05-03T09:54:28.998Z</time></trkpt><trkpt lat="43.453965867276686" lon="12.77412319901756"><ele>1114.0</ele><time>2026-05-03T09:54:35.998Z</time></trkpt><trkpt lat="43.45390699296405" lon="12.774178811969568"><ele>1114.0</ele><time>2026-05-03T09:54:44Z</time></trkpt><trkpt lat="43.453855135629894" lon="12.77422900824303"><ele>1114.0</ele><time>2026-05-03T09:54:52Z</time></trkpt><trkpt lat="43.45379221426446" lon="12.77426487670148"><ele>1114.0</ele><time>2026-05-03T09:55:03Z</time></trkpt><trkpt lat="43.453725684559316" lon="12.774288447687683"><ele>1114.0</ele><time>2026-05-03T09:55:14Z</time></trkpt><trkpt lat="43.45366018914748" lon="12.774318894102118"><ele>1114.0</ele><time>2026-05-03T09:55:24Z</time></trkpt><trkpt lat="43.45359362669099" lon="12.774328125423908"><ele>1113.857142857143</ele><time>2026-05-03T09:55:33.999Z</time></trkpt><trkpt lat="43.45353296690168" lon="12.774355685747732"><ele>1113.7142857142858</ele><time>2026-05-03T09:55:42.999Z</time></trkpt><trkpt lat="43.453477392539455" lon="12.774399027553047"><ele>1113.5714285714284</ele><time>2026-05-03T09:55:51.999Z</time></trkpt><trkpt lat="43.45343467121463" lon="12.774477080077585"><ele>1113.4285714285716</ele><time>2026-05-03T09:56:00.999Z</time></trkpt><trkpt lat="43.453404014802096" lon="12.774562363715743"><ele>1113.2857142857142</ele><time>2026-05-03T09:56:09.999Z</time></trkpt><trkpt lat="43.45336370030703" lon="12.774631405260687"><ele>1113.142857142857</ele><time>2026-05-03T09:56:17.999Z</time></trkpt><trkpt lat="43.45332565855143" lon="12.774704089532264"><ele>1113.0</ele><time>2026-05-03T09:56:28.998Z</time></trkpt><trkpt lat="43.453283910983274" lon="12.77477308014633"><ele>1113.0</ele><time>2026-05-03T09:56:50Z</time></trkpt><trkpt lat="43.45324495693074" lon="12.77484831059776"><ele>1113.0</ele><time>2026-05-03T09:57:02Z</time></trkpt><trkpt lat="43.4531818449256" lon="12.774887881533498"><ele>1113.0</ele><time>2026-05-03T10:01:58.999Z</time></trkpt><trkpt lat="43.45311864968212" lon="12.774895447057519"><ele>1113.0</ele><time>2026-05-03T10:02:06.999Z</time></trkpt><trkpt lat="43.45304611303828" lon="12.774928460737671"><ele>1113.0</ele><time>2026-05-03T10:02:15.999Z</time></trkpt><trkpt lat="43.45298149296931" lon="12.774930874841655"><ele>1113.0</ele><time>2026-05-03T10:02:26.999Z</time></trkpt><trkpt lat="43.45291742610749" lon="12.7749648028954"><ele>1113.0</ele><time>2026-05-03T10:02:41.998Z</time></trkpt><trkpt lat="43.452858078941205" lon="12.775008944719529"><ele>1116.142857142857</ele><time>2026-05-03T10:02:49.998Z</time></trkpt><trkpt lat="43.452799043553206" lon="12.775045714013313"><ele>1119.2857142857142</ele><time>2026-05-03T10:02:56.998Z</time></trkpt><trkpt lat="43.45273187639829" lon="12.77507996392248"><ele>1122.4285714285716</ele><time>2026-05-03T10:03:08Z</time></trkpt><trkpt lat="43.452675833986866" lon="12.775127817073585"><ele>1125.5714285714284</ele><time>2026-05-03T10:03:18Z</time></trkpt><trkpt lat="43.452628149182345" lon="12.775187273828958"><ele>1128.7142857142858</ele><time>2026-05-03T10:03:26Z</time></trkpt><trkpt lat="43.45257298131072" lon="12.77523589145325"><ele>1131.857142857143</ele><time>2026-05-03T10:03:33Z</time></trkpt><trkpt lat="43.45251007357417" lon="12.77524783488034"><ele>1135.0</ele><time>2026-05-03T10:03:43.999Z</time></trkpt><trkpt lat="43.4524578675128" lon="12.775301509800022"><ele>1135.0</ele><time>2026-05-03T10:03:53.999Z</time></trkpt><trkpt lat="43.45239869158718" lon="12.775342614218921"><ele>1135.0</ele><time>2026-05-03T10:04:03.999Z</time></trkpt><trkpt lat="43.45236415583827" lon="12.775417825500758"><ele>1135.0</ele><time>2026-05-03T10:04:11.999Z</time></trkpt><trkpt lat="43.45236850792502" lon="12.775510296046033"><ele>1135.0</ele><time>2026-05-03T10:04:19.999Z</time></trkpt><trkpt lat="43.45236098303928" lon="12.775596797956329"><ele>1135.0</ele><time>2026-05-03T10:04:26.999Z</time></trkpt><trkpt lat="43.452330704236516" lon="12.775681790117115"><ele>1135.0</ele><time>2026-05-03T10:04:37.999Z</time></trkpt><trkpt lat="43.45230782750753" lon="12.775770663296589"><ele>1135.0</ele><time>2026-05-03T10:04:48.998Z</time></trkpt><trkpt lat="43.452243167370725" lon="12.775819223377445"><ele>1135.0</ele><time>2026-05-03T10:05:08.998Z</time></trkpt><trkpt lat="43.452185458079335" lon="12.775863902134784"><ele>1135.0</ele><time>2026-05-03T10:05:17Z</time></trkpt><trkpt lat="43.45212190891854" lon="12.775886016683454"><ele>1135.0</ele><time>2026-05-03T10:05:24Z</time></trkpt><trkpt lat="43.45205913148969" lon="12.775872434683741"><ele>1135.0</ele><time>2026-05-03T10:05:34Z</time></trkpt><trkpt lat="43.451990538365926" lon="12.775859545969674"><ele>1135.0</ele><time>2026-05-03T10:05:43Z</time></trkpt><trkpt lat="43.45192682919072" lon="12.775839871250549"><ele>1135.0</ele><time>2026-05-03T10:05:54Z</time></trkpt><trkpt lat="43.4518624408156" lon="12.775807603644886"><ele>1135.0</ele><time>2026-05-03T10:06:04.999Z</time></trkpt><trkpt lat="43.45179883852012" lon="12.775798193993458"><ele>1138.142857142857</ele><time>2026-05-03T10:06:13.999Z</time></trkpt><trkpt lat="43.45175329749911" lon="12.775733975973111"><ele>1141.2857142857142</ele><time>2026-05-03T10:06:29.999Z</time></trkpt><trkpt lat="43.45168614274424" lon="12.775738777784175"><ele>1144.4285714285713</ele><time>2026-05-03T10:06:39.999Z</time></trkpt><trkpt lat="43.45162523232964" lon="12.775769313188194"><ele>1147.5714285714284</ele><time>2026-05-03T10:06:48.999Z</time></trkpt><trkpt lat="43.45156048591275" lon="12.775771586250356"><ele>1150.7142857142856</ele><time>2026-05-03T10:06:58.999Z</time></trkpt><trkpt lat="43.451521819337934" lon="12.775842699434218"><ele>1153.857142857143</ele><time>2026-05-03T10:07:10.998Z</time></trkpt><trkpt lat="43.451459605980936" lon="12.775859930571018"><ele>1157.0</ele><time>2026-05-03T10:07:24Z</time></trkpt><trkpt lat="43.45141259361223" lon="12.775921584047508"><ele>1157.0</ele><time>2026-05-03T10:07:38Z</time></trkpt><trkpt lat="43.45136825949003" lon="12.775994679510594"><ele>1157.0</ele><time>2026-05-03T10:07:51Z</time></trkpt><trkpt lat="43.45129951260508" lon="12.775995157900223"><ele>1157.0</ele><time>2026-05-03T10:08:04Z</time></trkpt><trkpt lat="43.4512717811935" lon="12.776076967732594"><ele>1157.0</ele><time>2026-05-03T10:08:14.999Z</time></trkpt><trkpt lat="43.451229711025114" lon="12.77614801202095"><ele>1157.0</ele><time>2026-05-03T10:08:31.999Z</time></trkpt><trkpt lat="43.45117552959428" lon="12.776192947077373"><ele>1157.0</ele><time>2026-05-03T10:08:44.999Z</time></trkpt><trkpt lat="43.451191610833654" lon="12.776283579915505"><ele>1157.0</ele><time>2026-05-03T10:08:53.999Z</time></trkpt><trkpt lat="43.451216579412176" lon="12.776371633083901"><ele>1161.5714285714284</ele><time>2026-05-03T10:09:02.999Z</time></trkpt><trkpt lat="43.45119121516446" lon="12.776452799808474"><ele>1166.142857142857</ele><time>2026-05-03T10:09:15.998Z</time></trkpt><trkpt lat="43.45122619460479" lon="12.776528304051265"><ele>1170.7142857142858</ele><time>2026-05-03T10:09:25Z</time></trkpt><trkpt lat="43.451241357590376" lon="12.776616636054579"><ele>1175.2857142857142</ele><time>2026-05-03T10:09:35Z</time></trkpt><trkpt lat="43.451224946118174" lon="12.776701154747892"><ele>1179.857142857143</ele><time>2026-05-03T10:09:48Z</time></trkpt><trkpt lat="43.451232231929254" lon="12.77679546769727"><ele>1184.4285714285713</ele><time>2026-05-03T10:10:00Z</time></trkpt><trkpt lat="43.451224630630094" lon="12.776882984185622"><ele>1189.0</ele><time>2026-05-03T10:10:10.999Z</time></trkpt><trkpt lat="43.451174438667" lon="12.776945008256593"><ele>1189.7142857142858</ele><time>2026-05-03T10:10:20.999Z</time></trkpt><trkpt lat="43.45115341867026" lon="12.777035742238635"><ele>1190.4285714285716</ele><time>2026-05-03T10:10:30.999Z</time></trkpt><trkpt lat="43.45113337716779" lon="12.777118967099458"><ele>1191.1428571428573</ele><time>2026-05-03T10:13:21.998Z</time></trkpt><trkpt lat="43.45108956410328" lon="12.777186596698987"><ele>1191.857142857143</ele><time>2026-05-03T10:13:30.998Z</time></trkpt><trkpt lat="43.45105526103529" lon="12.777269624010856"><ele>1192.5714285714287</ele><time>2026-05-03T10:13:39Z</time></trkpt><trkpt lat="43.45102734092995" lon="12.777355601979206"><ele>1193.2857142857144</ele><time>2026-05-03T10:13:48Z</time></trkpt><trkpt lat="43.4510045343127" lon="12.777437311866626"><ele>1194.0</ele><time>2026-05-03T10:13:58Z</time></trkpt><trkpt lat="43.450969363611385" lon="12.777520509711536"><ele>1194.0000000000002</ele><time>2026-05-03T10:14:10Z</time></trkpt><trkpt lat="43.45090515830138" lon="12.777533443182376"><ele>1194.0</ele><time>2026-05-03T10:14:22.999Z</time></trkpt><trkpt lat="43.45083628659855" lon="12.777538299035712"><ele>1194.0</ele><time>2026-05-03T10:14:31.999Z</time></trkpt><trkpt lat="43.450769851274195" lon="12.777551832836846"><ele>1194.0</ele><time>2026-05-03T10:14:40.999Z</time></trkpt><trkpt lat="43.45070915402628" lon="12.777595702909895"><ele>1194.0</ele><time>2026-05-03T10:14:50.999Z</time></trkpt><trkpt lat="43.450652760701516" lon="12.777641978265246"><ele>1194.0000000000002</ele><time>2026-05-03T10:15:01.999Z</time></trkpt><trkpt lat="43.45059267423678" lon="12.777685333056471"><ele>1194.0</ele><time>2026-05-03T10:15:13.999Z</time></trkpt><trkpt lat="43.45053565256303" lon="12.777726042107158"><ele>1196.5714285714287</ele><time>2026-05-03T10:15:22.998Z</time></trkpt><trkpt lat="43.45048601525152" lon="12.777781266078698"><ele>1199.142857142857</ele><time>2026-05-03T10:15:36.998Z</time></trkpt><trkpt lat="43.45043947469648" lon="12.777845711431917"><ele>1201.7142857142858</ele><time>2026-05-03T10:15:51Z</time></trkpt><trkpt lat="43.45039409757247" lon="12.777913317313827"><ele>1204.2857142857142</ele><time>2026-05-03T10:16:03Z</time></trkpt><trkpt lat="43.450331067142564" lon="12.777955265136013"><ele>1206.857142857143</ele><time>2026-05-03T10:16:13Z</time></trkpt><trkpt lat="43.4502803889589" lon="12.778008114991685"><ele>1209.4285714285716</ele><time>2026-05-03T10:16:22Z</time></trkpt><trkpt lat="43.45021926729406" lon="12.778057723203444"><ele>1212.0</ele><time>2026-05-03T10:16:30.999Z</time></trkpt><trkpt lat="43.45015984330388" lon="12.778100852626823"><ele>1212.0</ele><time>2026-05-03T10:16:38.999Z</time></trkpt><trkpt lat="43.4501038395032" lon="12.778149660795933"><ele>1212.0</ele><time>2026-05-03T10:16:46.999Z</time></trkpt><trkpt lat="43.450039216421374" lon="12.778187989777141"><ele>1212.0</ele><time>2026-05-03T10:16:54.999Z</time></trkpt><trkpt lat="43.449980841414565" lon="12.778246442994407"><ele>1212.0</ele><time>2026-05-03T10:17:03.999Z</time></trkpt><trkpt lat="43.44993694204948" lon="12.77831714791076"><ele>1212.0</ele><time>2026-05-03T10:17:15.999Z</time></trkpt><trkpt lat="43.449890237009356" lon="12.778380697744485"><ele>1212.0</ele><time>2026-05-03T10:17:23.998Z</time></trkpt><trkpt lat="43.44984409016403" lon="12.778446271334785"><ele>1212.0</ele><time>2026-05-03T10:17:31.998Z</time></trkpt><trkpt lat="43.449797897235946" lon="12.778517740122812"><ele>1210.5714285714287</ele><time>2026-05-03T10:17:40.998Z</time></trkpt><trkpt lat="43.449757851022895" lon="12.778589266222205"><ele>1209.142857142857</ele><time>2026-05-03T10:17:50Z</time></trkpt><trkpt lat="43.44971757164115" lon="12.778662225729754"><ele>1207.7142857142858</ele><time>2026-05-03T10:17:58Z</time></trkpt><trkpt lat="43.44966957474289" lon="12.77873082057789"><ele>1206.2857142857142</ele><time>2026-05-03T10:18:06Z</time></trkpt><trkpt lat="43.44962789537319" lon="12.778796101645847"><ele>1204.857142857143</ele><time>2026-05-03T10:18:14Z</time></trkpt><trkpt lat="43.44959303017064" lon="12.778880427014064"><ele>1203.4285714285713</ele><time>2026-05-03T10:18:23Z</time></trkpt><trkpt lat="43.44955774483256" lon="12.77895723814557"><ele>1202.0</ele><time>2026-05-03T10:18:32.999Z</time></trkpt><trkpt lat="43.44951589316148" lon="12.77903440314654"><ele>1202.0</ele><time>2026-05-03T10:18:41.999Z</time></trkpt><trkpt lat="43.44947187481337" lon="12.77911502515881"><ele>1202.0</ele><time>2026-05-03T10:18:49.999Z</time></trkpt><trkpt lat="43.44942799102257" lon="12.779184549791903"><ele>1202.0</ele><time>2026-05-03T10:18:57.999Z</time></trkpt><trkpt lat="43.44938596221306" lon="12.779259193832432"><ele>1202.0</ele><time>2026-05-03T10:19:05.999Z</time></trkpt><trkpt lat="43.449352659727474" lon="12.779335561665023"><ele>1202.0</ele><time>2026-05-03T10:19:13.999Z</time></trkpt><trkpt lat="43.449316936853876" lon="12.779413900081789"><ele>1202.0</ele><time>2026-05-03T10:19:21.999Z</time></trkpt><trkpt lat="43.449281312329006" lon="12.779491962956161"><ele>1202.0</ele><time>2026-05-03T10:19:28.998Z</time></trkpt><trkpt lat="43.449237877823144" lon="12.779561935951033"><ele>1206.2857142857142</ele><time>2026-05-03T10:19:36.998Z</time></trkpt><trkpt lat="43.44919261936888" lon="12.779624782365905"><ele>1210.5714285714287</ele><time>2026-05-03T10:19:43.998Z</time></trkpt><trkpt lat="43.44913530268977" lon="12.77968738574633"><ele>1214.857142857143</ele><time>2026-05-03T10:19:52Z</time></trkpt><trkpt lat="43.449091762934046" lon="12.779760915255707"><ele>1219.142857142857</ele><time>2026-05-03T10:20:00Z</time></trkpt><trkpt lat="43.44906882364503" lon="12.779848856902882"><ele>1223.4285714285716</ele><time>2026-05-03T10:20:09Z</time></trkpt><trkpt lat="43.44904484426873" lon="12.779936362156988"><ele>1227.7142857142858</ele><time>2026-05-03T10:20:18Z</time></trkpt><trkpt lat="43.44901490180627" lon="12.780022174157091"><ele>1232.0</ele><time>2026-05-03T10:20:26Z</time></trkpt><trkpt lat="43.448987902823085" lon="12.780106498929914"><ele>1234.4285714285713</ele><time>2026-05-03T10:20:37.999Z</time></trkpt><trkpt lat="43.448962515817215" lon="12.780191809196898"><ele>1236.857142857143</ele><time>2026-05-03T10:20:46.999Z</time></trkpt><trkpt lat="43.44893041506635" lon="12.780271723117018"><ele>1239.2857142857142</ele><time>2026-05-03T10:20:55.999Z</time></trkpt><trkpt lat="43.4489061300238" lon="12.78035618595852"><ele>1241.7142857142858</ele><time>2026-05-03T10:21:04.999Z</time></trkpt><trkpt lat="43.44887979576575" lon="12.780442214405422"><ele>1244.142857142857</ele><time>2026-05-03T10:21:15.999Z</time></trkpt><trkpt lat="43.44885603776903" lon="12.780527967250226"><ele>1246.5714285714284</ele><time>2026-05-03T10:21:25.999Z</time></trkpt><trkpt lat="43.44882390891341" lon="12.780614953713364"><ele>1249.0</ele><time>2026-05-03T10:21:36.998Z</time></trkpt><trkpt lat="43.44878556968116" lon="12.78069483232661"><ele>1247.2857142857142</ele><time>2026-05-03T10:21:45.998Z</time></trkpt><trkpt lat="43.44875262953583" lon="12.780779133094862"><ele>1245.5714285714284</ele><time>2026-05-03T10:21:54.998Z</time></trkpt><trkpt lat="43.44872215484104" lon="12.780856348946177"><ele>1243.8571428571427</ele><time>2026-05-03T10:22:04Z</time></trkpt><trkpt lat="43.44869430989761" lon="12.78093507413751"><ele>1242.142857142857</ele><time>2026-05-03T10:22:14Z</time></trkpt><trkpt lat="43.44867079906424" lon="12.781021053148457"><ele>1240.4285714285716</ele><time>2026-05-03T10:22:24Z</time></trkpt><trkpt lat="43.44864220139445" lon="12.781109890238833"><ele>1238.7142857142856</ele><time>2026-05-03T10:22:34Z</time></trkpt><trkpt lat="43.448603669349446" lon="12.781190942539897"><ele>1237.0</ele><time>2026-05-03T10:22:42.999Z</time></trkpt><trkpt lat="43.44857977233221" lon="12.781274153971925"><ele>1237.0</ele><time>2026-05-03T10:22:51.999Z</time></trkpt><trkpt lat="43.448562245250066" lon="12.781363249694344"><ele>1237.0</ele><time>2026-05-03T10:23:02.999Z</time></trkpt><trkpt lat="43.448553992147076" lon="12.781449290427295"><ele>1237.0</ele><time>2026-05-03T10:23:14.999Z</time></trkpt><trkpt lat="43.448546898157566" lon="12.781536879625486"><ele>1237.0</ele><time>2026-05-03T10:23:27.999Z</time></trkpt><trkpt lat="43.44853913680721" lon="12.781629549747617"><ele>1237.0</ele><time>2026-05-03T10:23:41.998Z</time></trkpt><trkpt lat="43.448581261834676" lon="12.7816971258518"><ele>1237.0</ele><time>2026-05-03T10:24:24Z</time></trkpt><trkpt lat="43.44855818616815" lon="12.781786023721732"><ele>1237.0</ele><time>2026-05-03T10:24:44Z</time></trkpt><trkpt lat="43.4485581948167" lon="12.781889528982136"><ele>1247.0</ele><time>2026-05-03T10:25:06.999Z</time></trkpt><trkpt lat="43.448519623523445" lon="12.781965018689368"><ele>1247.0</ele><time>2026-05-03T10:25:19.999Z</time></trkpt><trkpt lat="43.448497244431415" lon="12.782047982826453"><ele>1247.0</ele><time>2026-05-03T10:25:32.999Z</time></trkpt><trkpt lat="43.44846988222009" lon="12.78213044062765"><ele>1247.0</ele><time>2026-05-03T10:25:47.998Z</time></trkpt><trkpt lat="43.44845619129313" lon="12.782216024929646"><ele>1247.0</ele><time>2026-05-03T10:26:01.998Z</time></trkpt><trkpt lat="43.448456216784365" lon="12.782309004671339"><ele>1247.0</ele><time>2026-05-03T10:26:16Z</time></trkpt><trkpt lat="43.4485655760502" lon="12.7823124611347"><ele>1247.0</ele><time>2026-05-03T10:26:57.999Z</time></trkpt></trkseg><trkseg><trkpt lat="43.44862048844196" lon="12.782429282715244"><ele>1247.0</ele><time>2026-05-03T11:07:09.023Z</time></trkpt><trkpt lat="43.4485782804417" lon="12.782356644507576"><ele>1247.0</ele><time>2026-05-03T11:07:17.997Z</time></trkpt><trkpt lat="43.44851136850436" lon="12.782351683940016"><ele>1247.0</ele><time>2026-05-03T11:08:35Z</time></trkpt><trkpt lat="43.44841382664552" lon="12.78238827498148"><ele>1247.0</ele><time>2026-05-03T11:09:09Z</time></trkpt><trkpt lat="43.44835055688295" lon="12.782361496225258"><ele>1247.0</ele><time>2026-05-03T11:09:41Z</time></trkpt><trkpt lat="43.44829063293921" lon="12.782392490470432"><ele>1247.0</ele><time>2026-05-03T11:09:53Z</time></trkpt><trkpt lat="43.44823097905783" lon="12.782438327697196"><ele>1247.0</ele><time>2026-05-03T11:10:03Z</time></trkpt><trkpt lat="43.44818101635861" lon="12.782491243139992"><ele>1247.0</ele><time>2026-05-03T11:10:12Z</time></trkpt><trkpt lat="43.44812846696376" lon="12.78254830132245"><ele>1247.0</ele><time>2026-05-03T11:10:22Z</time></trkpt><trkpt lat="43.44807212990678" lon="12.7826004161455"><ele>1247.0</ele><time>2026-05-03T11:10:32Z</time></trkpt><trkpt lat="43.44801795046468" lon="12.782653189088096"><ele>1247.0</ele><time>2026-05-03T11:10:42Z</time></trkpt><trkpt lat="43.44796251557679" lon="12.782695477553434"><ele>1247.0</ele><time>2026-05-03T11:10:52Z</time></trkpt><trkpt lat="43.44790360424998" lon="12.782732417148827"><ele>1247.0</ele><time>2026-05-03T11:11:02Z</time></trkpt><trkpt lat="43.4478290890955" lon="12.782739144995482"><ele>1247.0</ele><time>2026-05-03T11:11:19Z</time></trkpt><trkpt lat="43.447760178445684" lon="12.78276646347988"><ele>1241.5</ele><time>2026-05-03T11:11:38Z</time></trkpt><trkpt lat="43.44768352850094" lon="12.782797060404633"><ele>1236.0</ele><time>2026-05-03T11:12:05Z</time></trkpt><trkpt lat="43.447604807726464" lon="12.782736667685384"><ele>1230.5</ele><time>2026-05-03T11:12:57Z</time></trkpt><trkpt lat="43.44757308327475" lon="12.782657323830444"><ele>1225.0</ele><time>2026-05-03T11:13:34.001Z</time></trkpt><trkpt lat="43.44749674318596" lon="12.782614232160425"><ele>1219.5</ele><time>2026-05-03T11:14:13Z</time></trkpt><trkpt lat="43.447432847112275" lon="12.782600305336729"><ele>1214.0</ele><time>2026-05-03T11:14:55Z</time></trkpt><trkpt lat="43.44737387898563" lon="12.782554325976463"><ele>1214.0</ele><time>2026-05-03T11:15:34Z</time></trkpt><trkpt lat="43.44730715076778" lon="12.782569412299692"><ele>1214.0</ele><time>2026-05-03T11:15:56Z</time></trkpt><trkpt lat="43.447252419564286" lon="12.782622288140061"><ele>1214.0</ele><time>2026-05-03T11:16:10Z</time></trkpt><trkpt lat="43.447189626693316" lon="12.782600777618773"><ele>1214.0</ele><time>2026-05-03T11:16:48Z</time></trkpt><trkpt lat="43.44708655227911" lon="12.782650700479117"><ele>1214.0</ele><time>2026-05-03T11:17:31Z</time></trkpt><trkpt lat="43.44702630170758" lon="12.782679356381875"><ele>1214.0</ele><time>2026-05-03T11:17:54Z</time></trkpt><trkpt lat="43.44694133770161" lon="12.782715478552094"><ele>1209.142857142857</ele><time>2026-05-03T11:18:23Z</time></trkpt><trkpt lat="43.44688109657961" lon="12.782685653029095"><ele>1204.2857142857142</ele><time>2026-05-03T11:18:36Z</time></trkpt><trkpt lat="43.44681475656462" lon="12.782716977735278"><ele>1199.4285714285716</ele><time>2026-05-03T11:18:52Z</time></trkpt><trkpt lat="43.446750629891724" lon="12.782770761867331"><ele>1194.5714285714284</ele><time>2026-05-03T11:19:02Z</time></trkpt><trkpt lat="43.44669604898815" lon="12.782820301685184"><ele>1189.7142857142858</ele><time>2026-05-03T11:19:08Z</time></trkpt><trkpt lat="43.44664740944143" lon="12.78287809833891"><ele>1184.857142857143</ele><time>2026-05-03T11:19:13.999Z</time></trkpt><trkpt lat="43.44660147759647" lon="12.782951364763345"><ele>1180.0</ele><time>2026-05-03T11:19:20.999Z</time></trkpt><trkpt lat="43.44655359057909" lon="12.783023262126228"><ele>1180.0000000000002</ele><time>2026-05-03T11:19:27.999Z</time></trkpt><trkpt lat="43.44649969309946" lon="12.783085082115186"><ele>1180.0</ele><time>2026-05-03T11:19:35.999Z</time></trkpt><trkpt lat="43.44645356971991" lon="12.783157028303314"><ele>1180.0</ele><time>2026-05-03T11:19:42.999Z</time></trkpt><trkpt lat="43.44640429840035" lon="12.783222541782834"><ele>1180.0</ele><time>2026-05-03T11:19:50Z</time></trkpt><trkpt lat="43.446360829797584" lon="12.783288386684179"><ele>1180.0</ele><time>2026-05-03T11:19:58Z</time></trkpt><trkpt lat="43.44631480605996" lon="12.783349937207156"><ele>1180.0000000000002</ele><time>2026-05-03T11:20:04Z</time></trkpt><trkpt lat="43.446266058045126" lon="12.783411305354656"><ele>1180.0</ele><time>2026-05-03T11:20:11Z</time></trkpt><trkpt lat="43.44621364297133" lon="12.783468830086079"><ele>1179.2857142857144</ele><time>2026-05-03T11:20:18Z</time></trkpt><trkpt lat="43.44616801346487" lon="12.783531338038294"><ele>1178.5714285714287</ele><time>2026-05-03T11:20:25Z</time></trkpt><trkpt lat="43.4461281774717" lon="12.783606827564785"><ele>1177.857142857143</ele><time>2026-05-03T11:20:32Z</time></trkpt><trkpt lat="43.44610556322746" lon="12.78370257053334"><ele>1177.1428571428573</ele><time>2026-05-03T11:20:39Z</time></trkpt><trkpt lat="43.44605555708248" lon="12.78377090615478"><ele>1176.4285714285716</ele><time>2026-05-03T11:20:46Z</time></trkpt><trkpt lat="43.44600765423577" lon="12.783835240978734"><ele>1175.7142857142858</ele><time>2026-05-03T11:20:52Z</time></trkpt><trkpt lat="43.44595417111766" lon="12.783893635940496"><ele>1175.0</ele><time>2026-05-03T11:21:00Z</time></trkpt><trkpt lat="43.445906621024655" lon="12.783966006195316"><ele>1175.0</ele><time>2026-05-03T11:21:09Z</time></trkpt><trkpt lat="43.44585879988854" lon="12.784032775311346"><ele>1175.0</ele><time>2026-05-03T11:21:17Z</time></trkpt><trkpt lat="43.44580119410085" lon="12.784076773936947"><ele>1175.0</ele><time>2026-05-03T11:21:27.999Z</time></trkpt><trkpt lat="43.44574379732873" lon="12.784114369991672"><ele>1175.0</ele><time>2026-05-03T11:21:37.999Z</time></trkpt><trkpt lat="43.445689701609915" lon="12.784174699456512"><ele>1175.0</ele><time>2026-05-03T11:21:56Z</time></trkpt><trkpt lat="43.44563065190818" lon="12.784232028632797"><ele>1175.0</ele><time>2026-05-03T11:22:03Z</time></trkpt><trkpt lat="43.445577138944536" lon="12.78429224877171"><ele>1175.0</ele><time>2026-05-03T11:22:11Z</time></trkpt><trkpt lat="43.44552264149218" lon="12.784341843654367"><ele>1172.4285714285713</ele><time>2026-05-03T11:22:20Z</time></trkpt><trkpt lat="43.44547019492823" lon="12.784392293004638"><ele>1169.857142857143</ele><time>2026-05-03T11:22:29Z</time></trkpt><trkpt lat="43.4454221046892" lon="12.78445156406207"><ele>1167.2857142857142</ele><time>2026-05-03T11:22:46Z</time></trkpt><trkpt lat="43.44536885210226" lon="12.784519750104506"><ele>1164.7142857142858</ele><time>2026-05-03T11:22:55Z</time></trkpt><trkpt lat="43.44532182567491" lon="12.784590706426442"><ele>1162.142857142857</ele><time>2026-05-03T11:23:03Z</time></trkpt><trkpt lat="43.4452714046023" lon="12.784642887986106"><ele>1159.5714285714284</ele><time>2026-05-03T11:23:14Z</time></trkpt><trkpt lat="43.445218722203094" lon="12.784693460003274"><ele>1157.0</ele><time>2026-05-03T11:23:23.999Z</time></trkpt><trkpt lat="43.44515992972486" lon="12.784730066110333"><ele>1157.0</ele><time>2026-05-03T11:23:46.999Z</time></trkpt><trkpt lat="43.44510442381235" lon="12.78477356592967"><ele>1157.0</ele><time>2026-05-03T11:23:57.999Z</time></trkpt><trkpt lat="43.44504613446689" lon="12.784812862580342"><ele>1157.0</ele><time>2026-05-03T11:24:10Z</time></trkpt><trkpt lat="43.44499066114849" lon="12.784861993101233"><ele>1157.0</ele><time>2026-05-03T11:24:19Z</time></trkpt><trkpt lat="43.44492764052196" lon="12.784902132122813"><ele>1157.0</ele><time>2026-05-03T11:24:35Z</time></trkpt><trkpt lat="43.44486948685743" lon="12.784954621126028"><ele>1157.0</ele><time>2026-05-03T11:24:44Z</time></trkpt><trkpt lat="43.444814394169335" lon="12.78501380380649"><ele>1157.0</ele><time>2026-05-03T11:24:56Z</time></trkpt><trkpt lat="43.44475919066636" lon="12.785056943160688"><ele>1157.0</ele><time>2026-05-03T11:25:17Z</time></trkpt><trkpt lat="43.44470227353116" lon="12.785100071739041"><ele>1157.0</ele><time>2026-05-03T11:25:28.999Z</time></trkpt><trkpt lat="43.44464372238244" lon="12.785140955118841"><ele>1157.0</ele><time>2026-05-03T11:25:37.999Z</time></trkpt><trkpt lat="43.444596147755355" lon="12.785203340369554"><ele>1157.0</ele><time>2026-05-03T11:25:46.999Z</time></trkpt><trkpt lat="43.44452836056991" lon="12.785198792493476"><ele>1157.0</ele><time>2026-05-03T11:26:52Z</time></trkpt><trkpt lat="43.44446659180118" lon="12.78523388133663"><ele>1157.0</ele><time>2026-05-03T11:27:01Z</time></trkpt><trkpt lat="43.444414332076256" lon="12.785282709520091"><ele>1157.0</ele><time>2026-05-03T11:27:08Z</time></trkpt><trkpt lat="43.444360444158356" lon="12.785331038161162"><ele>1153.857142857143</ele><time>2026-05-03T11:27:15Z</time></trkpt><trkpt lat="43.444296221317785" lon="12.785356742371444"><ele>1150.7142857142856</ele><time>2026-05-03T11:27:27Z</time></trkpt><trkpt lat="43.444231628880274" lon="12.785401484745337"><ele>1147.5714285714284</ele><time>2026-05-03T11:27:34.999Z</time></trkpt><trkpt lat="43.44416900486105" lon="12.785456991745791"><ele>1144.4285714285713</ele><time>2026-05-03T11:27:43.999Z</time></trkpt><trkpt lat="43.44411271027308" lon="12.785503219426921"><ele>1141.2857142857142</ele><time>2026-05-03T11:27:50.999Z</time></trkpt><trkpt lat="43.44405828237362" lon="12.785560530824892"><ele>1138.142857142857</ele><time>2026-05-03T11:27:58.999Z</time></trkpt><trkpt lat="43.444005315903" lon="12.785608942944899"><ele>1135.0</ele><time>2026-05-03T11:28:05.999Z</time></trkpt><trkpt lat="43.443947698622736" lon="12.785647898262045"><ele>1135.0</ele><time>2026-05-03T11:28:15Z</time></trkpt><trkpt lat="43.44388614556893" lon="12.785692135266139"><ele>1135.0</ele><time>2026-05-03T11:28:25Z</time></trkpt><trkpt lat="43.44382946798846" lon="12.785742968946112"><ele>1135.0</ele><time>2026-05-03T11:28:34Z</time></trkpt><trkpt lat="43.44377001988161" lon="12.785780972683504"><ele>1135.0</ele><time>2026-05-03T11:28:43Z</time></trkpt><trkpt lat="43.44370897450364" lon="12.785825572019764"><ele>1135.0</ele><time>2026-05-03T11:28:51Z</time></trkpt><trkpt lat="43.443648781950735" lon="12.785869062578827"><ele>1135.0</ele><time>2026-05-03T11:29:00Z</time></trkpt><trkpt lat="43.443588464566915" lon="12.78591022634407"><ele>1135.0</ele><time>2026-05-03T11:29:09Z</time></trkpt><trkpt lat="43.44352112080592" lon="12.785907496336371"><ele>1132.2857142857142</ele><time>2026-05-03T11:29:25Z</time></trkpt><trkpt lat="43.44345581684017" lon="12.785939610999376"><ele>1129.5714285714284</ele><time>2026-05-03T11:29:37.999Z</time></trkpt><trkpt lat="43.44339277474129" lon="12.785965977815371"><ele>1126.8571428571427</ele><time>2026-05-03T11:29:48.999Z</time></trkpt><trkpt lat="43.443336435616075" lon="12.786009185519797"><ele>1124.142857142857</ele><time>2026-05-03T11:29:59.999Z</time></trkpt><trkpt lat="43.44328267145218" lon="12.78605542549332"><ele>1121.4285714285713</ele><time>2026-05-03T11:30:11.999Z</time></trkpt><trkpt lat="43.44321883925636" lon="12.786103826379346"><ele>1118.7142857142856</ele><time>2026-05-03T11:30:23Z</time></trkpt><trkpt lat="43.4431660098357" lon="12.786161161016686"><ele>1116.0</ele><time>2026-05-03T11:30:31Z</time></trkpt><trkpt lat="43.44310617377076" lon="12.786200855205822"><ele>1114.4285714285713</ele><time>2026-05-03T11:30:40Z</time></trkpt><trkpt lat="43.443049643815336" lon="12.786249283761443"><ele>1112.857142857143</ele><time>2026-05-03T11:30:50Z</time></trkpt><trkpt lat="43.44298795008345" lon="12.786281655915728"><ele>1111.2857142857142</ele><time>2026-05-03T11:30:59Z</time></trkpt><trkpt lat="43.44292938936546" lon="12.786326345814583"><ele>1109.7142857142858</ele><time>2026-05-03T11:31:10Z</time></trkpt><trkpt lat="43.442868615434364" lon="12.786366030007592"><ele>1108.142857142857</ele><time>2026-05-03T11:31:20Z</time></trkpt><trkpt lat="43.442813854010716" lon="12.786419956300723"><ele>1106.5714285714284</ele><time>2026-05-03T11:31:31Z</time></trkpt><trkpt lat="43.442750986937085" lon="12.786441480757087"><ele>1105.0</ele><time>2026-05-03T11:31:42Z</time></trkpt><trkpt lat="43.44268997129061" lon="12.786479275102662"><ele>1104.4285714285713</ele><time>2026-05-03T11:31:51Z</time></trkpt><trkpt lat="43.44263091708649" lon="12.786519815868397"><ele>1103.857142857143</ele><time>2026-05-03T11:32:01.999Z</time></trkpt><trkpt lat="43.442567213751026" lon="12.786566893801792"><ele>1103.2857142857142</ele><time>2026-05-03T11:32:10.999Z</time></trkpt><trkpt lat="43.44250910705791" lon="12.786614300978496"><ele>1102.7142857142858</ele><time>2026-05-03T11:32:19.999Z</time></trkpt><trkpt lat="43.442446477996846" lon="12.786660574490648"><ele>1102.142857142857</ele><time>2026-05-03T11:32:28Z</time></trkpt><trkpt lat="43.44238223629493" lon="12.786699717317287"><ele>1101.5714285714284</ele><time>2026-05-03T11:32:38Z</time></trkpt><trkpt lat="43.44231846265657" lon="12.78672296050259"><ele>1101.0</ele><time>2026-05-03T11:32:49Z</time></trkpt><trkpt lat="43.44224635244131" lon="12.786785039347372"><ele>1101.0</ele><time>2026-05-03T11:34:50Z</time></trkpt><trkpt lat="43.44223941278504" lon="12.786698136127146"><ele>1101.0</ele><time>2026-05-03T11:35:12Z</time></trkpt><trkpt lat="43.44228930398302" lon="12.786632476350919"><ele>1101.0</ele><time>2026-05-03T11:35:25Z</time></trkpt><trkpt lat="43.442336539180246" lon="12.786574468626403"><ele>1101.0</ele><time>2026-05-03T11:35:47Z</time></trkpt><trkpt lat="43.442368154166175" lon="12.786495265689755"><ele>1101.0</ele><time>2026-05-03T11:35:57.999Z</time></trkpt><trkpt lat="43.44241296133012" lon="12.786429470273692"><ele>1101.0</ele><time>2026-05-03T11:36:06.999Z</time></trkpt><trkpt lat="43.44244350446805" lon="12.786347807730186"><ele>1101.0</ele><time>2026-05-03T11:36:17.999Z</time></trkpt><trkpt lat="43.44248491831687" lon="12.786274277284894"><ele>1101.0</ele><time>2026-05-03T11:36:26.999Z</time></trkpt><trkpt lat="43.44252683373409" lon="12.786201007704395"><ele>1101.0</ele><time>2026-05-03T11:36:35.999Z</time></trkpt><trkpt lat="43.44256765397979" lon="12.786124858993576"><ele>1101.0</ele><time>2026-05-03T11:36:45Z</time></trkpt><trkpt lat="43.44260047050414" lon="12.78604242453733"><ele>1101.0</ele><time>2026-05-03T11:36:54Z</time></trkpt><trkpt lat="43.442655324185054" lon="12.785986619877404"><ele>1101.0</ele><time>2026-05-03T11:37:02Z</time></trkpt><trkpt lat="43.44269721706153" lon="12.785909666473215"><ele>1101.0</ele><time>2026-05-03T11:37:12Z</time></trkpt><trkpt lat="43.44274192171694" lon="12.785844121240185"><ele>1101.0</ele><time>2026-05-03T11:37:21Z</time></trkpt><trkpt lat="43.442790587434686" lon="12.78578092228396"><ele>1103.142857142857</ele><time>2026-05-03T11:37:29Z</time></trkpt><trkpt lat="43.44283919901783" lon="12.785711610726125"><ele>1105.2857142857142</ele><time>2026-05-03T11:37:39Z</time></trkpt><trkpt lat="43.44289059852357" lon="12.785643081014598"><ele>1107.4285714285713</ele><time>2026-05-03T11:37:51.999Z</time></trkpt><trkpt lat="43.44293380257188" lon="12.785573314588023"><ele>1109.5714285714284</ele><time>2026-05-03T11:38:00.999Z</time></trkpt><trkpt lat="43.44298292735224" lon="12.785514750378994"><ele>1111.7142857142858</ele><time>2026-05-03T11:38:10.999Z</time></trkpt><trkpt lat="43.44302838249113" lon="12.785449424349363"><ele>1113.8571428571427</ele><time>2026-05-03T11:38:21.999Z</time></trkpt><trkpt lat="43.44307521577843" lon="12.785380287284445"><ele>1116.0</ele><time>2026-05-03T11:38:32.999Z</time></trkpt><trkpt lat="43.443117431513926" lon="12.785299373260122"><ele>1115.9999999999998</ele><time>2026-05-03T11:38:43Z</time></trkpt><trkpt lat="43.44317983331093" lon="12.785264723614604"><ele>1116.0</ele><time>2026-05-03T11:38:51Z</time></trkpt><trkpt lat="43.44324246444853" lon="12.785235602852765"><ele>1116.0</ele><time>2026-05-03T11:39:05Z</time></trkpt><trkpt lat="43.44330835370787" lon="12.785170138217934"><ele>1116.0</ele><time>2026-05-03T11:39:42Z</time></trkpt><trkpt lat="43.443319998134626" lon="12.785082814215821"><ele>1116.0</ele><time>2026-05-03T11:39:57.999Z</time></trkpt><trkpt lat="43.44336719335888" lon="12.785024854968075"><ele>1115.9999999999998</ele><time>2026-05-03T11:40:05.999Z</time></trkpt><trkpt lat="43.443409760216795" lon="12.784956603170269"><ele>1116.0</ele><time>2026-05-03T11:40:14.999Z</time></trkpt><trkpt lat="43.44345376666836" lon="12.78488228052562"><ele>1112.142857142857</ele><time>2026-05-03T11:40:24.999Z</time></trkpt><trkpt lat="43.44350655428196" lon="12.784821298152194"><ele>1108.2857142857142</ele><time>2026-05-03T11:40:37.999Z</time></trkpt><trkpt lat="43.44356298962829" lon="12.784761817504798"><ele>1104.4285714285716</ele><time>2026-05-03T11:40:50Z</time></trkpt><trkpt lat="43.44360047195212" lon="12.784688449605543"><ele>1100.5714285714284</ele><time>2026-05-03T11:40:58Z</time></trkpt><trkpt lat="43.44365337801392" lon="12.784618961714616"><ele>1096.7142857142858</ele><time>2026-05-03T11:41:10Z</time></trkpt><trkpt lat="43.443683627026886" lon="12.784541738270818"><ele>1092.857142857143</ele><time>2026-05-03T11:41:19Z</time></trkpt><trkpt lat="43.443726149354916" lon="12.784477378362224"><ele>1089.0</ele><time>2026-05-03T11:41:27Z</time></trkpt><trkpt lat="43.44378732367072" lon="12.784435798868639"><ele>1091.0000000000002</ele><time>2026-05-03T11:41:37Z</time></trkpt><trkpt lat="43.443833300804606" lon="12.78432142244468"><ele>1093.0</ele><time>2026-05-03T11:41:54Z</time></trkpt><trkpt lat="43.443876380719445" lon="12.784257173231312"><ele>1095.0</ele><time>2026-05-03T11:42:01.999Z</time></trkpt><trkpt lat="43.44391391421654" lon="12.784173587734106"><ele>1097.0</ele><time>2026-05-03T11:42:15.999Z</time></trkpt><trkpt lat="43.44392768507067" lon="12.784087674629637"><ele>1099.0</ele><time>2026-05-03T11:42:27.999Z</time></trkpt><trkpt lat="43.443972869905316" lon="12.784026319494133"><ele>1101.0000000000002</ele><time>2026-05-03T11:42:35.999Z</time></trkpt><trkpt lat="43.44402742964315" lon="12.783981845096358"><ele>1103.0</ele><time>2026-05-03T11:42:44.999Z</time></trkpt><trkpt lat="43.44406852205834" lon="12.783912544904899"><ele>1103.0000000000002</ele><time>2026-05-03T11:43:06Z</time></trkpt><trkpt lat="43.44410216155391" lon="12.783835456737618"><ele>1103.0</ele><time>2026-05-03T11:43:15Z</time></trkpt><trkpt lat="43.4441364057438" lon="12.783756104573666"><ele>1103.0</ele><time>2026-05-03T11:43:24Z</time></trkpt><trkpt lat="43.444188333023874" lon="12.78369229935845"><ele>1103.0</ele><time>2026-05-03T11:43:37Z</time></trkpt><trkpt lat="43.44423115190427" lon="12.783621603816563"><ele>1103.0</ele><time>2026-05-03T11:43:50Z</time></trkpt><trkpt lat="43.44426232521903" lon="12.78354301713549"><ele>1103.0000000000002</ele><time>2026-05-03T11:44:04.999Z</time></trkpt><trkpt lat="43.44431168246307" lon="12.78346411327807"><ele>1103.0</ele><time>2026-05-03T11:44:14.999Z</time></trkpt><trkpt lat="43.44434353452935" lon="12.783374784807432"><ele>1099.0000000000002</ele><time>2026-05-03T11:44:32.999Z</time></trkpt><trkpt lat="43.444375892052214" lon="12.78328506048868"><ele>1095.0</ele><time>2026-05-03T11:44:52.999Z</time></trkpt><trkpt lat="43.444417109690086" lon="12.783167922890168"><ele>1091.0</ele><time>2026-05-03T11:45:19Z</time></trkpt><trkpt lat="43.44444312697277" lon="12.783085467568977"><ele>1087.0</ele><time>2026-05-03T11:50:39.999Z</time></trkpt><trkpt lat="43.44448827334646" lon="12.783014591823155"><ele>1083.0</ele><time>2026-05-03T11:50:47.999Z</time></trkpt><trkpt lat="43.44446899728408" lon="12.782929600379159"><ele>1079.0000000000002</ele><time>2026-05-03T11:50:58.999Z</time></trkpt><trkpt lat="43.44452195312926" lon="12.782880580323418"><ele>1075.0</ele><time>2026-05-03T11:51:07.999Z</time></trkpt><trkpt lat="43.44452421067564" lon="12.782784431464943"><ele>1075.0</ele><time>2026-05-03T11:51:20Z</time></trkpt><trkpt lat="43.44455201273688" lon="12.782695236610461"><ele>1075.0</ele><time>2026-05-03T11:51:29Z</time></trkpt><trkpt lat="43.4446097476829" lon="12.782562621835108"><ele>1075.0</ele><time>2026-05-03T11:51:52Z</time></trkpt><trkpt lat="43.444660624070124" lon="12.782490147042074"><ele>1075.0</ele><time>2026-05-03T11:52:00Z</time></trkpt><trkpt lat="43.44469191283333" lon="12.782411976759104"><ele>1075.0</ele><time>2026-05-03T11:52:08.999Z</time></trkpt><trkpt lat="43.44471095988806" lon="12.782322050051201"><ele>1075.0</ele><time>2026-05-03T11:52:17.999Z</time></trkpt><trkpt lat="43.44475277835079" lon="12.782241411058008"><ele>1073.1428571428573</ele><time>2026-05-03T11:52:24.999Z</time></trkpt><trkpt lat="43.44477435578957" lon="12.782148706339564"><ele>1071.2857142857142</ele><time>2026-05-03T11:52:36.999Z</time></trkpt><trkpt lat="43.44477650448768" lon="12.782043116784868"><ele>1069.4285714285716</ele><time>2026-05-03T11:52:51.999Z</time></trkpt><trkpt lat="43.44478818978895" lon="12.78194472875211"><ele>1067.5714285714287</ele><time>2026-05-03T11:53:01.999Z</time></trkpt><trkpt lat="43.44483990491526" lon="12.781882759544425"><ele>1065.7142857142858</ele><time>2026-05-03T11:53:09.999Z</time></trkpt><trkpt lat="43.44483957774382" lon="12.781789746000195"><ele>1063.857142857143</ele><time>2026-05-03T11:53:20.999Z</time></trkpt><trkpt lat="43.44487357299134" lon="12.781714935652333"><ele>1062.0</ele><time>2026-05-03T11:53:28Z</time></trkpt><trkpt lat="43.44489052382509" lon="12.781629994861108"><ele>1062.0</ele><time>2026-05-03T11:53:38Z</time></trkpt><trkpt lat="43.44492814705776" lon="12.781484356411271"><ele>1062.0</ele><time>2026-05-03T11:54:01Z</time></trkpt><trkpt lat="43.44493937625689" lon="12.781398183689998"><ele>1062.0</ele><time>2026-05-03T11:54:13Z</time></trkpt><trkpt lat="43.4449358644092" lon="12.781307168467793"><ele>1062.0</ele><time>2026-05-03T11:54:35.999Z</time></trkpt><trkpt lat="43.44498508557467" lon="12.781227472988393"><ele>1062.0</ele><time>2026-05-03T11:54:46.999Z</time></trkpt><trkpt lat="43.44500447771893" lon="12.781138111795038"><ele>1062.0</ele><time>2026-05-03T11:54:53.999Z</time></trkpt><trkpt lat="43.44501901482421" lon="12.781027413050566"><ele>1058.2857142857142</ele><time>2026-05-03T11:55:05.999Z</time></trkpt><trkpt lat="43.445067650153106" lon="12.780943244041216"><ele>1054.5714285714287</ele><time>2026-05-03T11:55:15.999Z</time></trkpt><trkpt lat="43.44509159370874" lon="12.780855485256769"><ele>1050.857142857143</ele><time>2026-05-03T11:55:23.999Z</time></trkpt><trkpt lat="43.44512754813182" lon="12.780772718759229"><ele>1047.142857142857</ele><time>2026-05-03T11:55:33Z</time></trkpt><trkpt lat="43.44514419105491" lon="12.780681732345247"><ele>1043.4285714285716</ele><time>2026-05-03T11:55:43Z</time></trkpt><trkpt lat="43.445164326621864" lon="12.780587263251476"><ele>1039.7142857142858</ele><time>2026-05-03T11:55:56Z</time></trkpt><trkpt lat="43.44517132854263" lon="12.780493224505339"><ele>1036.0</ele><time>2026-05-03T11:56:08Z</time></trkpt><trkpt lat="43.44520296116365" lon="12.780411821937982"><ele>1036.0</ele><time>2026-05-03T11:56:17Z</time></trkpt><trkpt lat="43.44525172399779" lon="12.780338365649055"><ele>1036.0</ele><time>2026-05-03T11:56:25Z</time></trkpt><trkpt lat="43.44529885001919" lon="12.780268692235216"><ele>1036.0</ele><time>2026-05-03T11:56:32.999Z</time></trkpt><trkpt lat="43.445352956500955" lon="12.780215491367345"><ele>1036.0</ele><time>2026-05-03T11:56:40.999Z</time></trkpt><trkpt lat="43.44538702947942" lon="12.78014202139724"><ele>1036.0</ele><time>2026-05-03T11:56:51.999Z</time></trkpt><trkpt lat="43.44541857823175" lon="12.780065200257884"><ele>1036.0</ele><time>2026-05-03T11:57:00.999Z</time></trkpt><trkpt lat="43.44542932812417" lon="12.779972041647317"><ele>1036.0</ele><time>2026-05-03T11:57:14.999Z</time></trkpt><trkpt lat="43.445466544200265" lon="12.779900901163277"><ele>1037.5714285714287</ele><time>2026-05-03T11:57:21.999Z</time></trkpt><trkpt lat="43.445497604503885" lon="12.779821115006675"><ele>1039.142857142857</ele><time>2026-05-03T11:57:33.999Z</time></trkpt><trkpt lat="43.44554629184022" lon="12.779752226054196"><ele>1040.7142857142858</ele><time>2026-05-03T11:57:47Z</time></trkpt><trkpt lat="43.445596286154675" lon="12.779647052313667"><ele>1042.2857142857142</ele><time>2026-05-03T11:58:02Z</time></trkpt><trkpt lat="43.44563508192708" lon="12.779573237615857"><ele>1043.857142857143</ele><time>2026-05-03T11:58:13Z</time></trkpt><trkpt lat="43.445665396189725" lon="12.779489812283785"><ele>1045.4285714285716</ele><time>2026-05-03T11:58:25Z</time></trkpt><trkpt lat="43.44570235405653" lon="12.779418229779456"><ele>1047.0</ele><time>2026-05-03T11:58:35.999Z</time></trkpt><trkpt lat="43.44573331809139" lon="12.779336207650955"><ele>1041.4</ele><time>2026-05-03T11:58:53.999Z</time></trkpt><trkpt lat="43.44568971665988" lon="12.779203982045399"><ele>1035.8000000000002</ele><time>2026-05-03T12:00:55.999Z</time></trkpt><trkpt lat="43.445770773310244" lon="12.779086250187317"><ele>1030.2</ele><time>2026-05-03T12:03:13.999Z</time></trkpt><trkpt lat="43.44576480807922" lon="12.778997795620992"><ele>1024.6000000000001</ele><time>2026-05-03T12:03:20.999Z</time></trkpt><trkpt lat="43.44576458855609" lon="12.778895964401473"><ele>1019.0</ele><time>2026-05-03T12:03:30.999Z</time></trkpt><trkpt lat="43.445720825345056" lon="12.778709557339509"><ele>1019.0000000000001</ele><time>2026-05-03T12:03:56Z</time></trkpt><trkpt lat="43.44572179825649" lon="12.778611449182126"><ele>1019.0</ele><time>2026-05-03T12:04:03Z</time></trkpt><trkpt lat="43.445681604214364" lon="12.778533933594778"><ele>1019.0000000000001</ele><time>2026-05-03T12:04:10Z</time></trkpt><trkpt lat="43.445633553803404" lon="12.7784638896087"><ele>1019.0000000000001</ele><time>2026-05-03T12:04:17Z</time></trkpt><trkpt lat="43.445581943448225" lon="12.778409950827244"><ele>1019.0</ele><time>2026-05-03T12:04:23Z</time></trkpt><trkpt lat="43.445523702458146" lon="12.778357517543258"><ele>1019.0000000000001</ele><time>2026-05-03T12:04:30Z</time></trkpt><trkpt lat="43.44546413043819" lon="12.77832499356661"><ele>1019.0000000000001</ele><time>2026-05-03T12:04:36Z</time></trkpt><trkpt lat="43.445406354389455" lon="12.77828877117045"><ele>1014.0000000000001</ele><time>2026-05-03T12:04:42Z</time></trkpt><trkpt lat="43.44534044871355" lon="12.77824057908829"><ele>1009.0</ele><time>2026-05-03T12:04:48Z</time></trkpt><trkpt lat="43.44528466966324" lon="12.778195777246534"><ele>1004.0000000000001</ele><time>2026-05-03T12:04:52.999Z</time></trkpt><trkpt lat="43.4452205504999" lon="12.778160114299371"><ele>999.0000000000001</ele><time>2026-05-03T12:04:59.999Z</time></trkpt><trkpt lat="43.445149626982804" lon="12.778121210703123"><ele>994.0</ele><time>2026-05-03T12:05:05.999Z</time></trkpt><trkpt lat="43.44508552857304" lon="12.778081417503275"><ele>989.0000000000001</ele><time>2026-05-03T12:05:12.999Z</time></trkpt><trkpt lat="43.44501796565565" lon="12.778052592035536"><ele>984.0000000000001</ele><time>2026-05-03T12:05:18.999Z</time></trkpt><trkpt lat="43.444969545053375" lon="12.778111087520704"><ele>984.0000000000001</ele><time>2026-05-03T12:05:38.999Z</time></trkpt><trkpt lat="43.44493641085142" lon="12.778189728060326"><ele>984.0</ele><time>2026-05-03T12:05:48.999Z</time></trkpt><trkpt lat="43.444902132353164" lon="12.77826444315268"><ele>984.0000000000001</ele><time>2026-05-03T12:05:53.999Z</time></trkpt><trkpt lat="43.44485991310339" lon="12.778330013890752"><ele>984.0000000000001</ele><time>2026-05-03T12:06:01Z</time></trkpt><trkpt lat="43.44478929504341" lon="12.778343391593895"><ele>984.0</ele><time>2026-05-03T12:08:44Z</time></trkpt><trkpt lat="43.44485222574238" lon="12.778310543335705"><ele>984.0000000000001</ele><time>2026-05-03T12:08:53Z</time></trkpt><trkpt lat="43.4448635504517" lon="12.778213768337762"><ele>984.0000000000001</ele><time>2026-05-03T12:08:57.999Z</time></trkpt><trkpt lat="43.44479625368684" lon="12.778183390060212"><ele>984.0000000000001</ele><time>2026-05-03T12:09:05.999Z</time></trkpt><trkpt lat="43.44473536933844" lon="12.778153783214057"><ele>984.0</ele><time>2026-05-03T12:09:10.999Z</time></trkpt><trkpt lat="43.44466126378865" lon="12.778168981919906"><ele>984.0000000000001</ele><time>2026-05-03T12:09:17.999Z</time></trkpt><trkpt lat="43.44459315766751" lon="12.778186842346955"><ele>984.0000000000001</ele><time>2026-05-03T12:09:25.999Z</time></trkpt><trkpt lat="43.444525926238015" lon="12.778221529053384"><ele>984.0</ele><time>2026-05-03T12:09:34.999Z</time></trkpt><trkpt lat="43.4444630617951" lon="12.778266151961237"><ele>984.0000000000001</ele><time>2026-05-03T12:09:40.999Z</time></trkpt><trkpt lat="43.4444004994437" lon="12.778279004556094"><ele>984.0000000000001</ele><time>2026-05-03T12:09:47.999Z</time></trkpt><trkpt lat="43.44433691545283" lon="12.778305108756658"><ele>981.1428571428573</ele><time>2026-05-03T12:09:54.999Z</time></trkpt><trkpt lat="43.444273915180176" lon="12.778333947968953"><ele>978.2857142857143</ele><time>2026-05-03T12:10:02.998Z</time></trkpt><trkpt lat="43.44421730078974" lon="12.778380816466601"><ele>975.4285714285716</ele><time>2026-05-03T12:10:08.998Z</time></trkpt><trkpt lat="43.444148617750876" lon="12.778423176667014"><ele>972.5714285714287</ele><time>2026-05-03T12:10:17Z</time></trkpt><trkpt lat="43.44408906111958" lon="12.77845706014254"><ele>969.7142857142858</ele><time>2026-05-03T12:10:26Z</time></trkpt><trkpt lat="43.44402054138229" lon="12.778485416009794"><ele>966.8571428571429</ele><time>2026-05-03T12:10:33Z</time></trkpt><trkpt lat="43.44396681681084" lon="12.778430346878665"><ele>964.0</ele><time>2026-05-03T12:11:04.999Z</time></trkpt><trkpt lat="43.44398476561628" lon="12.778342033308679"><ele>964.0</ele><time>2026-05-03T12:11:44.999Z</time></trkpt><trkpt lat="43.443993566943995" lon="12.778246427925565"><ele>964.0000000000001</ele><time>2026-05-03T12:12:13.998Z</time></trkpt><trkpt lat="43.44397013560928" lon="12.778155035660616"><ele>964.0</ele><time>2026-05-03T12:12:47Z</time></trkpt><trkpt lat="43.44395039496678" lon="12.778070641020472"><ele>964.0</ele><time>2026-05-03T12:12:58Z</time></trkpt><trkpt lat="43.443959709964666" lon="12.777980738051472"><ele>964.0000000000001</ele><time>2026-05-03T12:13:16.999Z</time></trkpt><trkpt lat="43.44390567364734" lon="12.77792493490319"><ele>964.0</ele><time>2026-05-03T12:13:39.999Z</time></trkpt><trkpt lat="43.44383623428508" lon="12.777917774948984"><ele>964.0</ele><time>2026-05-03T12:13:54.999Z</time></trkpt><trkpt lat="43.443776949918686" lon="12.777951710644482"><ele>959.4285714285714</ele><time>2026-05-03T12:14:07.998Z</time></trkpt><trkpt lat="43.44371263957801" lon="12.777986790870754"><ele>954.8571428571429</ele><time>2026-05-03T12:14:18.998Z</time></trkpt><trkpt lat="43.44366520830433" lon="12.778064753804186"><ele>950.2857142857143</ele><time>2026-05-03T12:14:31Z</time></trkpt><trkpt lat="43.44359988690246" lon="12.778090855481075"><ele>945.7142857142858</ele><time>2026-05-03T12:14:45Z</time></trkpt><trkpt lat="43.44353632410187" lon="12.778117875094354"><ele>941.1428571428571</ele><time>2026-05-03T12:15:02Z</time></trkpt><trkpt lat="43.44347157759973" lon="12.778082541287434"><ele>936.5714285714287</ele><time>2026-05-03T12:15:10.999Z</time></trkpt><trkpt lat="43.44344210470771" lon="12.778003349634004"><ele>932.0</ele><time>2026-05-03T12:15:18.999Z</time></trkpt><trkpt lat="43.44343923639042" lon="12.777904762216634"><ele>932.0</ele><time>2026-05-03T12:15:26.999Z</time></trkpt><trkpt lat="43.44347175243542" lon="12.777823454602181"><ele>932.0</ele><time>2026-05-03T12:15:32.999Z</time></trkpt><trkpt lat="43.44352787137688" lon="12.777767312168283"><ele>932.0</ele><time>2026-05-03T12:15:40.999Z</time></trkpt><trkpt lat="43.44358116745529" lon="12.777701174722472"><ele>932.0</ele><time>2026-05-03T12:15:48.999Z</time></trkpt><trkpt lat="43.443638958477266" lon="12.777654727512632"><ele>932.0</ele><time>2026-05-03T12:15:55.999Z</time></trkpt><trkpt lat="43.44369540923527" lon="12.777613897010907"><ele>932.0</ele><time>2026-05-03T12:16:01.999Z</time></trkpt><trkpt lat="43.44374991319855" lon="12.777554603914556"><ele>932.0</ele><time>2026-05-03T12:16:08.999Z</time></trkpt><trkpt lat="43.44381341773221" lon="12.777493844239368"><ele>933.2857142857143</ele><time>2026-05-03T12:16:17.998Z</time></trkpt><trkpt lat="43.443866647351804" lon="12.777434268905527"><ele>934.5714285714284</ele><time>2026-05-03T12:16:24.998Z</time></trkpt><trkpt lat="43.4439213656429" lon="12.777382210977269"><ele>935.8571428571428</ele><time>2026-05-03T12:16:31Z</time></trkpt><trkpt lat="43.44398727305822" lon="12.777343085480283"><ele>937.1428571428571</ele><time>2026-05-03T12:16:39Z</time></trkpt><trkpt lat="43.444041684554875" lon="12.777280643509666"><ele>938.4285714285713</ele><time>2026-05-03T12:16:47Z</time></trkpt><trkpt lat="43.44409182028118" lon="12.77721914554997"><ele>939.7142857142856</ele><time>2026-05-03T12:16:53Z</time></trkpt><trkpt lat="43.444145240733626" lon="12.777151867980798"><ele>940.9999999999999</ele><time>2026-05-03T12:17:02Z</time></trkpt><trkpt lat="43.444072217185905" lon="12.777128230952336"><ele>940.9999999999999</ele><time>2026-05-03T12:18:02.999Z</time></trkpt><trkpt lat="43.4440172176957" lon="12.77717914277164"><ele>941.0</ele><time>2026-05-03T12:18:08.999Z</time></trkpt><trkpt lat="43.443944168910804" lon="12.777169393672793"><ele>940.9999999999999</ele><time>2026-05-03T12:18:17.999Z</time></trkpt><trkpt lat="43.44388643537913" lon="12.777209757996065"><ele>940.9999999999999</ele><time>2026-05-03T12:18:25.998Z</time></trkpt><trkpt lat="43.44381657537464" lon="12.777189630803624"><ele>941.0</ele><time>2026-05-03T12:18:33.998Z</time></trkpt><trkpt lat="43.443753744850824" lon="12.777221726551721"><ele>940.9999999999999</ele><time>2026-05-03T12:18:41.999Z</time></trkpt><trkpt lat="43.44369689485788" lon="12.777259295936023"><ele>940.9999999999999</ele><time>2026-05-03T12:18:48.999Z</time></trkpt><trkpt lat="43.44363909990136" lon="12.777294618650133"><ele>936.142857142857</ele><time>2026-05-03T12:18:55.999Z</time></trkpt><trkpt lat="43.44358386107942" lon="12.77733720204344"><ele>931.2857142857142</ele><time>2026-05-03T12:19:03.999Z</time></trkpt><trkpt lat="43.44352546073074" lon="12.777371210894826"><ele>926.4285714285714</ele><time>2026-05-03T12:19:10.999Z</time></trkpt><trkpt lat="43.44347078971682" lon="12.777418026897083"><ele>921.5714285714286</ele><time>2026-05-03T12:19:17.999Z</time></trkpt><trkpt lat="43.44341008803649" lon="12.777451679140075"><ele>916.7142857142858</ele><time>2026-05-03T12:19:23.999Z</time></trkpt><trkpt lat="43.44334460033434" lon="12.777499536829522"><ele>911.857142857143</ele><time>2026-05-03T12:19:32.999Z</time></trkpt><trkpt lat="43.4432827135447" lon="12.777542373410771"><ele>907.0000000000001</ele><time>2026-05-03T12:19:41.999Z</time></trkpt><trkpt lat="43.443213327669135" lon="12.77756260411517"><ele>907.0000000000001</ele><time>2026-05-03T12:19:49.999Z</time></trkpt><trkpt lat="43.44314466599086" lon="12.777589061049445"><ele>907.0</ele><time>2026-05-03T12:19:56.999Z</time></trkpt><trkpt lat="43.443081986576914" lon="12.77761158839261"><ele>907.0000000000001</ele><time>2026-05-03T12:20:03.999Z</time></trkpt><trkpt lat="43.44301757460631" lon="12.77765065073856"><ele>907.0000000000001</ele><time>2026-05-03T12:20:11.999Z</time></trkpt><trkpt lat="43.442959673589186" lon="12.777692347207156"><ele>907.0</ele><time>2026-05-03T12:20:18.998Z</time></trkpt><trkpt lat="43.442900941972994" lon="12.777741057902977"><ele>907.0000000000001</ele><time>2026-05-03T12:20:27.998Z</time></trkpt><trkpt lat="43.442846838705684" lon="12.777789443224336"><ele>907.0000000000001</ele><time>2026-05-03T12:20:37.998Z</time></trkpt><trkpt lat="43.44278678538305" lon="12.777830406438238"><ele>906.5714285714287</ele><time>2026-05-03T12:20:46Z</time></trkpt><trkpt lat="43.4427275691146" lon="12.777872493195096"><ele>906.1428571428571</ele><time>2026-05-03T12:20:54Z</time></trkpt><trkpt lat="43.44266188699381" lon="12.777907845433786"><ele>905.7142857142858</ele><time>2026-05-03T12:21:01Z</time></trkpt><trkpt lat="43.44259253289633" lon="12.777900025062246"><ele>905.2857142857143</ele><time>2026-05-03T12:21:07Z</time></trkpt><trkpt lat="43.44253709243432" lon="12.777950448710367"><ele>904.8571428571429</ele><time>2026-05-03T12:21:15Z</time></trkpt><trkpt lat="43.4424853116802" lon="12.778001342028555"><ele>904.4285714285714</ele><time>2026-05-03T12:21:23.999Z</time></trkpt><trkpt lat="43.44241889599684" lon="12.778019958601003"><ele>904.0</ele><time>2026-05-03T12:21:31.999Z</time></trkpt><trkpt lat="43.44234227339581" lon="12.778024678788817"><ele>904.0</ele><time>2026-05-03T12:21:34.999Z</time></trkpt><trkpt lat="43.44228064955118" lon="12.778053294291977"><ele>904.0</ele><time>2026-05-03T12:21:48.999Z</time></trkpt><trkpt lat="43.44232111937788" lon="12.777964232644226"><ele>904.0</ele><time>2026-05-03T12:21:57.999Z</time></trkpt><trkpt lat="43.44235523554542" lon="12.77787418745325"><ele>904.0</ele><time>2026-05-03T12:22:07.999Z</time></trkpt><trkpt lat="43.442415966144694" lon="12.777839229520968"><ele>904.0</ele><time>2026-05-03T12:22:18.999Z</time></trkpt><trkpt lat="43.4424698714053" lon="12.777786875431355"><ele>904.0</ele><time>2026-05-03T12:22:26.999Z</time></trkpt><trkpt lat="43.44253569221841" lon="12.777803021209188"><ele>904.0</ele><time>2026-05-03T12:22:32.999Z</time></trkpt><trkpt lat="43.44259641269474" lon="12.777772359909799"><ele>904.0</ele><time>2026-05-03T12:22:37.999Z</time></trkpt><trkpt lat="43.442644172824004" lon="12.777702431216868"><ele>904.0</ele><time>2026-05-03T12:22:43.999Z</time></trkpt><trkpt lat="43.44270407818535" lon="12.777671205487861"><ele>904.0</ele><time>2026-05-03T12:22:53Z</time></trkpt><trkpt lat="43.442752798641145" lon="12.777602039829574"><ele>904.0</ele><time>2026-05-03T12:22:59Z</time></trkpt><trkpt lat="43.4428116035718" lon="12.77757024486282"><ele>904.0</ele><time>2026-05-03T12:23:05Z</time></trkpt><trkpt lat="43.44274180769384" lon="12.777495391329191"><ele>904.0</ele><time>2026-05-03T12:23:09Z</time></trkpt><trkpt lat="43.44278747664049" lon="12.77742871769887"><ele>904.0</ele><time>2026-05-03T12:23:13Z</time></trkpt><trkpt lat="43.44283665013971" lon="12.777336569669087"><ele>904.4285714285714</ele><time>2026-05-03T12:23:19Z</time></trkpt><trkpt lat="43.44291072369305" lon="12.777357304240779"><ele>904.8571428571429</ele><time>2026-05-03T12:23:26Z</time></trkpt><trkpt lat="43.44297467425952" lon="12.777329513601813"><ele>905.2857142857143</ele><time>2026-05-03T12:23:29Z</time></trkpt><trkpt lat="43.44295436745969" lon="12.777234223281988"><ele>905.7142857142858</ele><time>2026-05-03T12:23:36.999Z</time></trkpt><trkpt lat="43.44300892776623" lon="12.77717806713693"><ele>906.1428571428571</ele><time>2026-05-03T12:23:43.999Z</time></trkpt><trkpt lat="43.44306610066508" lon="12.777250283062411"><ele>906.5714285714287</ele><time>2026-05-03T12:23:45.999Z</time></trkpt><trkpt lat="43.443136244097076" lon="12.777200234430087"><ele>907.0000000000001</ele><time>2026-05-03T12:23:50.999Z</time></trkpt><trkpt lat="43.443200749751746" lon="12.77719330333211"><ele>907.0000000000001</ele><time>2026-05-03T12:24:00.999Z</time></trkpt><trkpt lat="43.44323256659428" lon="12.777108911798223"><ele>907.0</ele><time>2026-05-03T12:24:05.999Z</time></trkpt><trkpt lat="43.44325018704095" lon="12.77702015242943"><ele>907.0000000000001</ele><time>2026-05-03T12:24:11.999Z</time></trkpt><trkpt lat="43.4433220182606" lon="12.777038061289058"><ele>907.0000000000001</ele><time>2026-05-03T12:24:14.999Z</time></trkpt><trkpt lat="43.4433367939532" lon="12.776940015628071"><ele>907.0</ele><time>2026-05-03T12:24:23.999Z</time></trkpt><trkpt lat="43.443381268061955" lon="12.776865545591294"><ele>907.0000000000001</ele><time>2026-05-03T12:24:28.999Z</time></trkpt><trkpt lat="43.44339421799582" lon="12.776768585093903"><ele>907.0000000000001</ele><time>2026-05-03T12:24:37.999Z</time></trkpt><trkpt lat="43.44344763127014" lon="12.776709526251052"><ele>902.4285714285716</ele><time>2026-05-03T12:24:45.999Z</time></trkpt><trkpt lat="43.443541329069106" lon="12.776729817568265"><ele>897.8571428571429</ele><time>2026-05-03T12:24:53.999Z</time></trkpt><trkpt lat="43.443615427859136" lon="12.776737614528543"><ele>893.2857142857143</ele><time>2026-05-03T12:25:00Z</time></trkpt><trkpt lat="43.443646131480044" lon="12.77665964594393"><ele>888.7142857142858</ele><time>2026-05-03T12:25:08Z</time></trkpt><trkpt lat="43.443587758301035" lon="12.776618649202664"><ele>884.1428571428571</ele><time>2026-05-03T12:25:13Z</time></trkpt><trkpt lat="43.443519928185665" lon="12.776642835905486"><ele>879.5714285714286</ele><time>2026-05-03T12:25:20Z</time></trkpt><trkpt lat="43.443459559046495" lon="12.776686138006378"><ele>875.0</ele><time>2026-05-03T12:25:31Z</time></trkpt><trkpt lat="43.44339505251623" lon="12.77670650587613"><ele>875.0</ele><time>2026-05-03T12:25:40Z</time></trkpt><trkpt lat="43.44332946370672" lon="12.776744610702856"><ele>875.0</ele><time>2026-05-03T12:25:48.999Z</time></trkpt><trkpt lat="43.44326728555105" lon="12.77675910513423"><ele>875.0</ele><time>2026-05-03T12:25:54.999Z</time></trkpt><trkpt lat="43.44320082252737" lon="12.776779071563158"><ele>875.0</ele><time>2026-05-03T12:26:00.999Z</time></trkpt><trkpt lat="43.443136094765315" lon="12.776815608244439"><ele>875.0</ele><time>2026-05-03T12:26:08.999Z</time></trkpt><trkpt lat="43.443067422633774" lon="12.776833565643068"><ele>875.0</ele><time>2026-05-03T12:26:16.999Z</time></trkpt><trkpt lat="43.44300530262241" lon="12.776867351354866"><ele>875.0</ele><time>2026-05-03T12:26:23.999Z</time></trkpt><trkpt lat="43.44293842604157" lon="12.776881950172184"><ele>875.0</ele><time>2026-05-03T12:26:30.999Z</time></trkpt><trkpt lat="43.44287297883945" lon="12.776880258720674"><ele>875.0</ele><time>2026-05-03T12:26:36.999Z</time></trkpt><trkpt lat="43.44281545490688" lon="12.776821475555701"><ele>875.0</ele><time>2026-05-03T12:26:48.999Z</time></trkpt><trkpt lat="43.442875439816035" lon="12.776793926104038"><ele>875.0</ele><time>2026-05-03T12:26:55.999Z</time></trkpt><trkpt lat="43.44294786291785" lon="12.776773329357876"><ele>875.0</ele><time>2026-05-03T12:27:06Z</time></trkpt><trkpt lat="43.44300666381246" lon="12.77672649419007"><ele>875.0</ele><time>2026-05-03T12:27:13Z</time></trkpt><trkpt lat="43.443061702069784" lon="12.776662819646797"><ele>875.0</ele><time>2026-05-03T12:27:22Z</time></trkpt><trkpt lat="43.443107593742575" lon="12.776600175750048"><ele>875.0</ele><time>2026-05-03T12:27:31Z</time></trkpt><trkpt lat="43.44316591655621" lon="12.776557167512395"><ele>875.0</ele><time>2026-05-03T12:27:40Z</time></trkpt><trkpt lat="43.443222745697" lon="12.776503446349722"><ele>875.0</ele><time>2026-05-03T12:27:48Z</time></trkpt><trkpt lat="43.44328511124004" lon="12.776462908494846"><ele>875.0</ele><time>2026-05-03T12:27:55Z</time></trkpt><trkpt lat="43.443348159477544" lon="12.776418487330726"><ele>875.0</ele><time>2026-05-03T12:28:05.999Z</time></trkpt><trkpt lat="43.4434012280479" lon="12.776370126401899"><ele>875.0</ele><time>2026-05-03T12:28:10.999Z</time></trkpt><trkpt lat="43.44347212305906" lon="12.77633351241712"><ele>875.0</ele><time>2026-05-03T12:28:17.999Z</time></trkpt><trkpt lat="43.44353234187764" lon="12.776293697251846"><ele>875.0</ele><time>2026-05-03T12:28:24.999Z</time></trkpt><trkpt lat="43.44359026531363" lon="12.776244969046394"><ele>875.0</ele><time>2026-05-03T12:28:30.999Z</time></trkpt><trkpt lat="43.44364158439367" lon="12.776185399556011"><ele>875.0</ele><time>2026-05-03T12:28:35.999Z</time></trkpt><trkpt lat="43.443703513476" lon="12.776134184249203"><ele>875.0</ele><time>2026-05-03T12:28:42.999Z</time></trkpt><trkpt lat="43.44373771647253" lon="12.776060122593444"><ele>875.0</ele><time>2026-05-03T12:28:47.999Z</time></trkpt><trkpt lat="43.44374550448511" lon="12.775963827091529"><ele>875.0</ele><time>2026-05-03T12:28:52.999Z</time></trkpt><trkpt lat="43.44371253787152" lon="12.775883153726554"><ele>875.0</ele><time>2026-05-03T12:28:56.999Z</time></trkpt><trkpt lat="43.44368325405564" lon="12.775792114977738"><ele>873.1428571428571</ele><time>2026-05-03T12:29:02.999Z</time></trkpt><trkpt lat="43.44365688226361" lon="12.775713238999025"><ele>871.2857142857142</ele><time>2026-05-03T12:29:09Z</time></trkpt><trkpt lat="43.44360852520568" lon="12.77564610200358"><ele>869.4285714285714</ele><time>2026-05-03T12:29:15Z</time></trkpt><trkpt lat="43.44355962555399" lon="12.775584514540245"><ele>867.5714285714286</ele><time>2026-05-03T12:29:22Z</time></trkpt><trkpt lat="43.44350177852782" lon="12.775537719781154"><ele>865.7142857142857</ele><time>2026-05-03T12:29:27Z</time></trkpt><trkpt lat="43.44345559444269" lon="12.775472911778577"><ele>863.8571428571429</ele><time>2026-05-03T12:29:34Z</time></trkpt><trkpt lat="43.44341390044637" lon="12.775406774732994"><ele>862.0</ele><time>2026-05-03T12:29:40Z</time></trkpt><trkpt lat="43.44336653936131" lon="12.775339916749692"><ele>862.0</ele><time>2026-05-03T12:29:47Z</time></trkpt><trkpt lat="43.44331722971024" lon="12.775259603159645"><ele>862.0</ele><time>2026-05-03T12:29:54Z</time></trkpt><trkpt lat="43.443280915832126" lon="12.77518680534279"><ele>862.0</ele><time>2026-05-03T12:30:00Z</time></trkpt><trkpt lat="43.44323750865372" lon="12.775114044614837"><ele>862.0</ele><time>2026-05-03T12:30:07.999Z</time></trkpt><trkpt lat="43.443186392436296" lon="12.775057808225444"><ele>862.0</ele><time>2026-05-03T12:30:14.999Z</time></trkpt><trkpt lat="43.44313505160803" lon="12.775003756310058"><ele>862.0</ele><time>2026-05-03T12:30:23.999Z</time></trkpt><trkpt lat="43.44310388521373" lon="12.774914624362976"><ele>862.0</ele><time>2026-05-03T12:30:32.999Z</time></trkpt><trkpt lat="43.44305949110189" lon="12.774852347126572"><ele>861.7142857142858</ele><time>2026-05-03T12:30:40.999Z</time></trkpt><trkpt lat="43.443016700177616" lon="12.774772316261009"><ele>861.4285714285713</ele><time>2026-05-03T12:30:48.999Z</time></trkpt><trkpt lat="43.442970161270516" lon="12.774709663042875"><ele>861.1428571428571</ele><time>2026-05-03T12:30:56.999Z</time></trkpt><trkpt lat="43.4429315222085" lon="12.774623996716405"><ele>860.8571428571429</ele><time>2026-05-03T12:31:03.999Z</time></trkpt><trkpt lat="43.44290811860256" lon="12.77454046689043"><ele>860.5714285714287</ele><time>2026-05-03T12:31:13Z</time></trkpt><trkpt lat="43.44289216827078" lon="12.774451556683324"><ele>860.2857142857142</ele><time>2026-05-03T12:31:20Z</time></trkpt><trkpt lat="43.442889730681195" lon="12.774360105119143"><ele>860.0</ele><time>2026-05-03T12:31:28Z</time></trkpt><trkpt lat="43.44287616807933" lon="12.774263798458037"><ele>860.0</ele><time>2026-05-03T12:31:37Z</time></trkpt><trkpt lat="43.44288149702094" lon="12.774171473137276"><ele>860.0</ele><time>2026-05-03T12:31:45Z</time></trkpt><trkpt lat="43.44289179471314" lon="12.774078156993498"><ele>860.0</ele><time>2026-05-03T12:31:52Z</time></trkpt><trkpt lat="43.44289435204283" lon="12.773983078635165"><ele>860.0</ele><time>2026-05-03T12:31:59Z</time></trkpt><trkpt lat="43.442871269427" lon="12.77389251057579"><ele>860.0</ele><time>2026-05-03T12:32:07Z</time></trkpt><trkpt lat="43.442835570048715" lon="12.773806670791526"><ele>860.0</ele><time>2026-05-03T12:32:13.999Z</time></trkpt><trkpt lat="43.442807034546874" lon="12.773720660243812"><ele>860.0</ele><time>2026-05-03T12:32:20.999Z</time></trkpt><trkpt lat="43.44277615017498" lon="12.77363720819918"><ele>860.0</ele><time>2026-05-03T12:32:27.999Z</time></trkpt><trkpt lat="43.44275777054739" lon="12.773553928800986"><ele>860.0</ele><time>2026-05-03T12:32:34.999Z</time></trkpt><trkpt lat="43.44274440279602" lon="12.773465485538894"><ele>860.0</ele><time>2026-05-03T12:32:41.999Z</time></trkpt><trkpt lat="43.442743584083374" lon="12.773369527937394"><ele>860.0</ele><time>2026-05-03T12:32:49.999Z</time></trkpt><trkpt lat="43.44274529826837" lon="12.773278321521543"><ele>860.0</ele><time>2026-05-03T12:32:57.999Z</time></trkpt><trkpt lat="43.44274631124176" lon="12.77318881688315"><ele>860.0</ele><time>2026-05-03T12:33:04.999Z</time></trkpt><trkpt lat="43.442745380795884" lon="12.773093932972031"><ele>860.0</ele><time>2026-05-03T12:33:12.999Z</time></trkpt><trkpt lat="43.442742856775006" lon="12.772998766112623"><ele>862.0</ele><time>2026-05-03T12:33:22Z</time></trkpt><trkpt lat="43.44274860709244" lon="12.772909223517464"><ele>864.0</ele><time>2026-05-03T12:33:30Z</time></trkpt><trkpt lat="43.44274475286938" lon="12.772807961228274"><ele>866.0</ele><time>2026-05-03T12:33:40Z</time></trkpt><trkpt lat="43.44273284337214" lon="12.772715669032527"><ele>868.0</ele><time>2026-05-03T12:33:49Z</time></trkpt><trkpt lat="43.442722376408554" lon="12.772626812357766"><ele>870.0</ele><time>2026-05-03T12:33:56Z</time></trkpt><trkpt lat="43.44270510115375" lon="12.77253940061179"><ele>872.0</ele><time>2026-05-03T12:34:03Z</time></trkpt><trkpt lat="43.44269676693956" lon="12.772447178855655"><ele>874.0</ele><time>2026-05-03T12:34:11Z</time></trkpt><trkpt lat="43.4427013074866" lon="12.7723557426786"><ele>875.4285714285714</ele><time>2026-05-03T12:34:18.999Z</time></trkpt><trkpt lat="43.44270465307357" lon="12.772258731116324"><ele>876.8571428571429</ele><time>2026-05-03T12:34:26.999Z</time></trkpt><trkpt lat="43.44270908003111" lon="12.772171035469983"><ele>878.2857142857143</ele><time>2026-05-03T12:34:34.999Z</time></trkpt><trkpt lat="43.44271389351076" lon="12.772075089506426"><ele>879.7142857142858</ele><time>2026-05-03T12:34:42.999Z</time></trkpt><trkpt lat="43.4427213249558" lon="12.771983934249187"><ele>881.1428571428571</ele><time>2026-05-03T12:34:50.999Z</time></trkpt><trkpt lat="43.4427289023102" lon="12.771894320471505"><ele>882.5714285714287</ele><time>2026-05-03T12:34:58.999Z</time></trkpt><trkpt lat="43.442739414365256" lon="12.771801420882364"><ele>884.0</ele><time>2026-05-03T12:35:07.999Z</time></trkpt><trkpt lat="43.442749259674926" lon="12.771708948400077"><ele>885.8571428571429</ele><time>2026-05-03T12:35:15.999Z</time></trkpt><trkpt lat="43.4427586929067" lon="12.771614660051286"><ele>887.7142857142858</ele><time>2026-05-03T12:35:24Z</time></trkpt><trkpt lat="43.44276770368068" lon="12.771525921602935"><ele>889.5714285714287</ele><time>2026-05-03T12:35:33Z</time></trkpt><trkpt lat="43.44278826177607" lon="12.771428992871325"><ele>891.4285714285714</ele><time>2026-05-03T12:35:42Z</time></trkpt><trkpt lat="43.44279835255592" lon="12.771333046075975"><ele>893.2857142857142</ele><time>2026-05-03T12:35:51Z</time></trkpt><trkpt lat="43.44282737869526" lon="12.771249993943737"><ele>895.1428571428572</ele><time>2026-05-03T12:36:01Z</time></trkpt><trkpt lat="43.44285320207856" lon="12.77115857162402"><ele>897.0</ele><time>2026-05-03T12:36:10Z</time></trkpt><trkpt lat="43.44288154000873" lon="12.771067744807935"><ele>899.8571428571429</ele><time>2026-05-03T12:36:18Z</time></trkpt><trkpt lat="43.4429097085456" lon="12.770980785960097"><ele>902.7142857142857</ele><time>2026-05-03T12:36:26Z</time></trkpt><trkpt lat="43.442937195604145" lon="12.770897797297948"><ele>905.5714285714286</ele><time>2026-05-03T12:36:34.999Z</time></trkpt><trkpt lat="43.44296467799354" lon="12.770817558980825"><ele>908.4285714285714</ele><time>2026-05-03T12:36:42.999Z</time></trkpt><trkpt lat="43.44299501169087" lon="12.77073456002161"><ele>911.2857142857142</ele><time>2026-05-03T12:36:50.999Z</time></trkpt><trkpt lat="43.44302549638191" lon="12.770651147922171"><ele>914.1428571428571</ele><time>2026-05-03T12:36:58.999Z</time></trkpt><trkpt lat="43.443057406960804" lon="12.770564958136163"><ele>917.0</ele><time>2026-05-03T12:37:05.999Z</time></trkpt><trkpt lat="43.443087976452446" lon="12.770482503104128"><ele>918.5714285714286</ele><time>2026-05-03T12:37:13.999Z</time></trkpt><trkpt lat="43.44311675162858" lon="12.770404887912749"><ele>920.1428571428571</ele><time>2026-05-03T12:37:20.999Z</time></trkpt><trkpt lat="43.44314601588701" lon="12.770318588871177"><ele>921.7142857142858</ele><time>2026-05-03T12:37:27.999Z</time></trkpt><trkpt lat="43.443174144405525" lon="12.770239438940266"><ele>923.2857142857143</ele><time>2026-05-03T12:37:36Z</time></trkpt><trkpt lat="43.443199889134725" lon="12.770151163669894"><ele>924.8571428571429</ele><time>2026-05-03T12:37:50Z</time></trkpt><trkpt lat="43.443181980610966" lon="12.770064750759914"><ele>926.4285714285716</ele><time>2026-05-03T12:37:56Z</time></trkpt><trkpt lat="43.443157773988645" lon="12.769981133421497"><ele>928.0000000000001</ele><time>2026-05-03T12:38:00Z</time></trkpt><trkpt lat="43.44316224424819" lon="12.769893227637159"><ele>930.0</ele><time>2026-05-03T12:38:12Z</time></trkpt></trkseg></trk></gpx>